Provisional Data: Chest Creek near Patton, PA


Please select a monitoring station.
Please select start date.
Please select start date.

Toggle Unit: C/F Toggle Unit: C/F
Sample Time Temperature (C) Temperature (F) Specific Conductivity (mS/cm) pH   Turbidity (NTU+) DO (mg/L)
5/4/2021 12:00:00 AM 14.17 57.506 0.212 7.12 14.89 8.81
5/4/2021 12:15:00 AM 14.17 57.506 0.209 7.14 16.22 8.84
5/4/2021 12:30:00 AM 14.22 57.596 0.202 7.2 48.79 8.83
5/4/2021 12:45:00 AM 14.09 57.362 0.211 7.16 26.88 8.82
5/4/2021 1:00:00 AM 14.13 57.434 0.205 7.19 103.5 8.79
5/4/2021 1:15:00 AM 14.17 57.506 0.198 7.24 45.91 8.77
5/4/2021 1:30:00 AM 14.15 57.47 0.196 7.2 37.28 8.8
5/4/2021 1:45:00 AM 14.21 57.578 0.19 7.2 40.35 8.82
5/4/2021 2:00:00 AM 14.09 57.362 0.198 7.19 33.42 8.83
5/4/2021 2:15:00 AM 14.04 57.272 0.198 7.18 44.39 8.86
5/4/2021 2:30:00 AM 13.97 57.146 0.197 7.18 86.93 8.88
5/4/2021 2:45:00 AM 13.89 57.002 0.201 7.16 71.45 8.9
5/4/2021 3:00:00 AM 13.8 56.84 0.204 7.14 63.69 8.92
5/4/2021 3:15:00 AM 13.59 56.462 0.212 7.13 91.17 9.01
5/4/2021 3:30:00 AM 13.55 56.39 0.205 7.13 113.63 9.03
5/4/2021 3:45:00 AM 13.56 56.408 0.201 7.13 82.14 9.01
5/4/2021 4:00:00 AM 13.57 56.426 0.202 7.15 111.92 8.97
5/4/2021 4:15:00 AM 13.59 56.462 0.204 7.17 75.59 8.95
5/4/2021 4:30:00 AM 13.6 56.48 0.204 7.17 76.78 8.94
5/4/2021 4:45:00 AM 13.6 56.48 0.201 7.17 57.31 8.94
5/4/2021 5:00:00 AM 13.6 56.48 0.198 7.16 45.8 8.93
5/4/2021 5:15:00 AM 13.59 56.462 0.196 7.15 41.02 8.92
5/4/2021 5:30:00 AM 13.59 56.462 0.196 7.15 42.05 8.9
5/4/2021 5:45:00 AM 13.59 56.462 0.195 7.15 38.29 8.89
5/4/2021 6:00:00 AM 13.59 56.462 0.193 7.15 37.44 8.88
5/4/2021 6:15:00 AM 13.6 56.48 0.191 7.14 27.6 8.88
5/4/2021 6:30:00 AM 13.6 56.48 0.189 7.15 29.78 8.88
5/4/2021 6:45:00 AM 13.6 56.48 0.188 7.14 30.2 8.88
5/4/2021 7:00:00 AM 13.62 56.516 0.188 7.14 30.88 8.9
5/4/2021 7:15:00 AM 13.64 56.552 0.187 7.15 26.52 8.9
5/4/2021 7:30:00 AM 13.66 56.588 0.187 7.15 23.53 8.91
5/4/2021 7:45:00 AM 13.68 56.624 0.187 7.15 23.28 8.93
5/4/2021 8:00:00 AM 13.68 56.624 0.186 7.14 20.88 8.94
5/4/2021 8:15:00 AM 13.69 56.642 0.186 7.12 21.92 8.96
5/4/2021 8:30:00 AM 13.74 56.732 0.186 7.12 21.17 9.01
5/4/2021 8:45:00 AM 13.8 56.84 0.185 7.13 22.91 9.04
5/4/2021 9:00:00 AM 13.85 56.93 0.185 7.14 21.35 9.08
5/4/2021 9:15:00 AM 13.92 57.056 0.184 7.15 19.29 9.12
5/4/2021 9:30:00 AM 14.01 57.218 0.184 7.15 19.71 9.17
5/4/2021 9:45:00 AM 14.07 57.326 0.184 7.16 18.49 9.19
5/4/2021 10:00:00 AM 14.24 57.632 0.184 7.18 17.5 9.26
5/4/2021 10:15:00 AM 14.41 57.938 0.185 7.19 16.69 9.32
5/4/2021 10:30:00 AM 14.59 58.262 0.186 7.22 16.02 9.37
5/4/2021 10:45:00 AM 14.81 58.658 0.186 7.23 14.7 9.42
5/4/2021 11:00:00 AM 14.94 58.892 0.186 7.24 14.6 9.45
5/4/2021 11:15:00 AM 14.98 58.964 0.187 7.24 13.47 9.47
5/4/2021 11:30:00 AM 15.07 59.126 0.187 7.25 13.95 9.5
5/4/2021 11:45:00 AM 15.18 59.324 0.187 7.25 13.59 9.51
5/4/2021 12:00:00 PM 15.34 59.612 0.187 7.27 13.47 9.56
5/4/2021 12:15:00 PM 15.31 59.558 0.187 7.26 12.9 9.56
5/4/2021 12:30:00 PM 15.43 59.774 0.187 7.27 13.53 9.59
5/4/2021 12:45:00 PM 15.42 59.756 0.187 7.26 14.11 9.59
5/4/2021 1:00:00 PM 15.49 59.882 0.187 7.27 13.88 9.62
5/4/2021 1:15:00 PM 15.58 60.044 0.186 7.28 14.89 9.65
5/4/2021 1:30:00 PM 15.6 60.08 0.187 7.28 14.08 9.65
5/4/2021 1:45:00 PM 15.64 60.152 0.187 7.29 13.58 9.66
5/4/2021 2:00:00 PM 15.6 60.08 0.187 7.28 14.71 9.62
5/4/2021 2:15:00 PM 15.59 60.062 0.187 7.27 14.89 9.59
5/4/2021 2:30:00 PM 15.58 60.044 0.187 7.27 14.63 9.57
5/4/2021 2:45:00 PM 15.75 60.35 0.188 7.29 16.23 9.63
5/4/2021 3:00:00 PM 15.91 60.638 0.188 7.31 15.43 9.66
5/4/2021 3:15:00 PM 16.21 61.178 0.188 7.33 16.34 9.71
5/4/2021 3:30:00 PM 16.27 61.286 0.188 7.33 15.77 9.69
5/4/2021 3:45:00 PM 16.38 61.484 0.188 7.34 16.09 9.69
5/4/2021 4:00:00 PM 16.38 61.484 0.189 7.34 15.63 9.68
5/4/2021 4:15:00 PM 16.34 61.412 0.188 7.33 15.3 9.63
5/4/2021 4:30:00 PM 16.29 61.322 0.188 7.32 14.76 9.6
5/4/2021 4:45:00 PM 16.23 61.214 0.189 7.31 15.13 9.56
5/4/2021 5:00:00 PM 16.19 61.142 0.189 7.3 14.5 9.54
5/4/2021 5:15:00 PM 16.2 61.16 0.189 7.3 14.6 9.55
5/4/2021 5:30:00 PM 16.17 61.106 0.19 7.29 12.72 9.51
5/4/2021 5:45:00 PM 16.14 61.052 0.19 7.28 13.01 9.47
5/4/2021 6:00:00 PM 16.11 60.998 0.191 7.28 11.75 9.45
5/4/2021 6:15:00 PM 16.05 60.89 0.191 7.26 11.67 9.35
5/4/2021 6:30:00 PM 16 60.8 0.191 7.24 14.29 9.3
5/4/2021 6:45:00 PM 15.96 60.728 0.191 7.23 12.32 9.25
5/4/2021 7:00:00 PM 15.91 60.638 0.191 7.22 10.29 9.19
5/4/2021 7:15:00 PM 15.86 60.548 0.192 7.21 11 9.15
5/4/2021 7:30:00 PM 15.81 60.458 0.192 7.2 11.2 9.1
5/4/2021 7:45:00 PM 15.75 60.35 0.191 7.2 11.03 9.04
5/4/2021 8:00:00 PM 15.78 60.404 0.19 7.21 16.42 8.98
5/4/2021 8:15:00 PM 15.82 60.476 0.186 7.21 18.64 8.92
5/4/2021 8:30:00 PM 15.71 60.278 0.193 7.19 17.67 8.87
5/4/2021 8:45:00 PM 15.73 60.314 0.189 7.18 19.55 8.81
5/4/2021 9:00:00 PM 15.71 60.278 0.187 7.18 19.4 8.79
5/4/2021 9:15:00 PM 15.65 60.17 0.187 7.15 16.93 8.77
5/4/2021 9:30:00 PM 15.58 60.044 0.19 7.15 14.36 8.76
5/4/2021 9:45:00 PM 15.53 59.954 0.191 7.13 13.56 8.75
5/4/2021 10:00:00 PM 15.49 59.882 0.192 7.13 13.88 8.74
5/4/2021 10:15:00 PM 15.47 59.846 0.192 7.13 14.81 8.73
5/4/2021 10:30:00 PM 15.44 59.792 0.193 7.13 12.76 8.72
5/4/2021 10:45:00 PM 15.4 59.72 0.194 7.13 14.55 8.72
5/4/2021 11:00:00 PM 15.36 59.648 0.195 7.13 14.67 8.7
5/4/2021 11:15:00 PM 15.31 59.558 0.196 7.13 13.67 8.7
5/4/2021 11:30:00 PM 15.26 59.468 0.196 7.12 12.92 8.69
5/4/2021 11:45:00 PM 15.17 59.306 0.198 7.12 14.8 8.71
5/5/2021 12:00:00 AM 15.09 59.162 0.199 7.12 15.47 8.73
5/5/2021 12:15:00 AM 15.08 59.144 0.197 7.12 15.8 8.72
5/5/2021 12:30:00 AM 15.08 59.144 0.196 7.13 14.53 8.71
5/5/2021 12:45:00 AM 15.07 59.126 0.195 7.13 14.49 8.69
5/5/2021 1:00:00 AM 15.06 59.108 0.195 7.13 15.58 8.68
5/5/2021 1:15:00 AM 15.06 59.108 0.196 7.13 15.19 8.66
5/5/2021 1:30:00 AM 15.06 59.108 0.195 7.13 15.64 8.65
5/5/2021 1:45:00 AM 15.05 59.09 0.195 7.12 14.32 8.64
5/5/2021 2:00:00 AM 15.04 59.072 0.194 7.12 13.23 8.63
5/5/2021 2:15:00 AM 15.02 59.036 0.193 7.12 13.75 8.63
5/5/2021 2:30:00 AM 14.99 58.982 0.192 7.11 14.11 8.62
5/5/2021 2:45:00 AM 14.97 58.946 0.192 7.1 13.3 8.62
5/5/2021 3:00:00 AM 14.95 58.91 0.192 7.1 13.44 8.62
5/5/2021 3:15:00 AM 14.93 58.874 0.192 7.09 12.37 8.61
5/5/2021 3:30:00 AM 14.92 58.856 0.192 7.09 13.16 8.6
5/5/2021 3:45:00 AM 14.9 58.82 0.192 7.09 12 8.6
5/5/2021 4:00:00 AM 14.89 58.802 0.192 7.09 11.91 8.59
5/5/2021 4:15:00 AM 14.87 58.766 0.192 7.09 11.69 8.59
5/5/2021 4:30:00 AM 14.85 58.73 0.191 7.08 11.52 8.59
5/5/2021 4:45:00 AM 14.83 58.694 0.19 7.08 11.87 8.59
5/5/2021 5:00:00 AM 14.81 58.658 0.189 7.09 12.04 8.59
5/5/2021 5:15:00 AM 14.78 58.604 0.189 7.09 11.8 8.59
5/5/2021 5:30:00 AM 14.76 58.568 0.188 7.08 11.2 8.59
5/5/2021 5:45:00 AM 14.74 58.532 0.187 7.08 11.07 8.59
5/5/2021 6:00:00 AM 14.71 58.478 0.187 7.08 11.07 8.59
5/5/2021 6:15:00 AM 14.69 58.442 0.187 7.08 11.34 8.59
5/5/2021 6:30:00 AM 14.67 58.406 0.187 7.08 11.74 8.59
5/5/2021 6:45:00 AM 14.65 58.37 0.187 7.08 11.64 8.6
5/5/2021 7:00:00 AM 14.63 58.334 0.187 7.08 11.5 8.62
5/5/2021 7:15:00 AM 14.6 58.28 0.187 7.08 10.6 8.64
5/5/2021 7:30:00 AM 14.59 58.262 0.187 7.08 11.25 8.66
5/5/2021 7:45:00 AM 14.55 58.19 0.187 7.08 11.15 8.68
5/5/2021 8:00:00 AM 14.54 58.172 0.187 7.08 10.95 8.7
5/5/2021 8:15:00 AM 14.52 58.136 0.186 7.08 11.04 8.72
5/5/2021 8:30:00 AM 14.5 58.1 0.186 7.09 11.32 8.73
5/5/2021 8:45:00 AM 14.47 58.046 0.186 7.09 11.25 8.75
5/5/2021 9:00:00 AM 14.43 57.974 0.185 7.09 11.73 8.77
5/5/2021 9:15:00 AM 14.4 57.92 0.185 7.09 11.57 8.8
5/5/2021 9:30:00 AM 14.37 57.866 0.185 7.09 11.88 8.84
5/5/2021 9:45:00 AM 14.34 57.812 0.185 7.1 13.5 8.88
5/5/2021 10:00:00 AM 14.33 57.794 0.185 7.11 13.99 8.93
5/5/2021 10:15:00 AM 14.31 57.758 0.185 7.11 13.35 8.97
5/5/2021 10:30:00 AM 14.28 57.704 0.185 7.12 14.05 9
5/5/2021 10:45:00 AM 14.26 57.668 0.185 7.12 14.27 9.05
5/5/2021 11:00:00 AM 14.23 57.614 0.186 7.12 14.14 9.11
5/5/2021 11:15:00 AM 14.25 57.65 0.187 7.14 13.47 9.18
5/5/2021 11:30:00 AM 14.21 57.578 0.187 7.15 14.41 9.21
5/5/2021 11:45:00 AM 14.24 57.632 0.187 7.16 15.43 9.24
5/5/2021 12:00:00 PM 14.26 57.668 0.187 7.18 14.7 9.3
5/5/2021 12:15:00 PM 14.34 57.812 0.187 7.2 14.52 9.36
5/5/2021 12:30:00 PM 14.37 57.866 0.188 7.2 14.59 9.39
5/5/2021 12:45:00 PM 14.38 57.884 0.189 7.2 15.21 9.42
5/5/2021 1:00:00 PM 14.41 57.938 0.189 7.21 15.66 9.45
5/5/2021 1:15:00 PM 14.5 58.1 0.188 7.24 15.69 9.49
5/5/2021 1:30:00 PM 14.5 58.1 0.188 7.24 16.31 9.51
5/5/2021 1:45:00 PM 14.59 58.262 0.187 7.26 15.77 9.54
5/5/2021 2:00:00 PM 14.63 58.334 0.187 7.24 16.29 9.54
5/5/2021 2:15:00 PM 14.56 58.208 0.186 7.24 16.03 9.52
5/5/2021 2:30:00 PM 14.51 58.118 0.187 7.23 16.43 9.52
5/5/2021 2:45:00 PM 14.41 57.938 0.187 7.23 15.01 9.5
5/5/2021 3:00:00 PM 14.51 58.118 0.187 7.25 15.62 9.55
5/5/2021 3:15:00 PM 14.51 58.118 0.186 7.24 16.09 9.55
5/5/2021 3:30:00 PM 14.66 58.388 0.185 7.27 14.42 9.61
5/5/2021 3:45:00 PM 14.66 58.388 0.185 7.27 15.46 9.6
5/5/2021 4:00:00 PM 14.69 58.442 0.184 7.26 14.48 9.62
5/5/2021 4:15:00 PM 14.67 58.406 0.183 7.25 14.72 9.62
5/5/2021 4:30:00 PM 14.61 58.298 0.181 7.24 14.44 9.61
5/5/2021 4:45:00 PM 14.57 58.226 0.181 7.24 15.27 9.6
5/5/2021 5:00:00 PM 14.51 58.118 0.18 7.25 14.57 9.6
5/5/2021 5:15:00 PM 14.46 58.028 0.18 7.24 14.85 9.58
5/5/2021 5:30:00 PM 14.39 57.902 0.179 7.22 15.16 9.54
5/5/2021 5:45:00 PM 14.31 57.758 0.179 7.21 16.47 9.5
5/5/2021 6:00:00 PM 14.27 57.686 0.179 7.2 14.13 9.48
5/5/2021 6:15:00 PM 14.21 57.578 0.178 7.19 15.39 9.48
5/5/2021 6:30:00 PM 14.13 57.434 0.179 7.19 14.82 9.47
5/5/2021 6:45:00 PM 14.05 57.29 0.179 7.18 15.66 9.46
5/5/2021 7:00:00 PM 13.98 57.164 0.179 7.16 17.86 9.44
5/5/2021 7:15:00 PM 13.9 57.02 0.178 7.16 16.44 9.38
5/5/2021 7:30:00 PM 13.82 56.876 0.178 7.15 16.98 9.35
5/5/2021 7:45:00 PM 13.75 56.75 0.178 7.14 16.94 9.32
5/5/2021 8:00:00 PM 13.69 56.642 0.178 7.14 17.64 9.3
5/5/2021 8:15:00 PM 13.63 56.534 0.178 7.13 17.16 9.27
5/5/2021 8:30:00 PM 13.57 56.426 0.178 7.13 18.16 9.26
5/5/2021 8:45:00 PM 13.5 56.3 0.178 7.12 18.04 9.25
5/5/2021 9:00:00 PM 13.45 56.21 0.178 7.12 19.93 9.23
5/5/2021 9:15:00 PM 13.38 56.084 0.178 7.13 18.4 9.23
5/5/2021 9:30:00 PM 13.33 55.994 0.178 7.12 19.56 9.22
5/5/2021 9:45:00 PM 13.28 55.904 0.178 7.12 18.1 9.21
5/5/2021 10:00:00 PM 13.22 55.796 0.178 7.12 18.39 9.21
5/5/2021 10:15:00 PM 13.16 55.688 0.178 7.12 19.4 9.21
5/5/2021 10:30:00 PM 13.09 55.562 0.178 7.11 19.91 9.21
5/5/2021 10:45:00 PM 13.01 55.418 0.178 7.1 19.19 9.21
5/5/2021 11:00:00 PM 12.94 55.292 0.178 7.11 19.33 9.22
5/5/2021 11:15:00 PM 12.89 55.202 0.178 7.11 18.01 9.21
5/5/2021 11:30:00 PM 12.83 55.094 0.178 7.11 18.47 9.22
5/5/2021 11:45:00 PM 12.77 54.986 0.178 7.11 19.71 9.22
5/6/2021 12:00:00 AM 12.71 54.878 0.178 7.11 17.37 9.23
5/6/2021 12:15:00 AM 12.65 54.77 0.178 7.1 17.87 9.23
5/6/2021 12:30:00 AM 12.59 54.662 0.178 7.1 16.68 9.23
5/6/2021 12:45:00 AM 12.51 54.518 0.178 7.1 17.48 9.24
5/6/2021 1:00:00 AM 12.46 54.428 0.178 7.1 17.88 9.25
5/6/2021 1:15:00 AM 12.39 54.302 0.178 7.1 16.96 9.26
5/6/2021 1:30:00 AM 12.34 54.212 0.178 7.11 16.86 9.27
5/6/2021 1:45:00 AM 12.29 54.122 0.178 7.1 16.26 9.28
5/6/2021 2:00:00 AM 12.22 53.996 0.179 7.1 15.69 9.29
5/6/2021 2:15:00 AM 12.15 53.87 0.179 7.11 15.88 9.3
5/6/2021 2:30:00 AM 12.1 53.78 0.179 7.11 15.48 9.31
5/6/2021 2:45:00 AM 12.05 53.69 0.18 7.11 15.32 9.32
5/6/2021 3:00:00 AM 12 53.6 0.18 7.11 15.47 9.33
5/6/2021 3:15:00 AM 11.95 53.51 0.18 7.1 14.48 9.34
5/6/2021 3:30:00 AM 11.9 53.42 0.181 7.1 14.13 9.35
5/6/2021 3:45:00 AM 11.85 53.33 0.181 7.1 14.31 9.36
5/6/2021 4:00:00 AM 11.78 53.204 0.181 7.1 13.34 9.38
5/6/2021 4:15:00 AM 11.7 53.06 0.182 7.1 13.34 9.38
5/6/2021 4:30:00 AM 11.62 52.916 0.182 7.1 14.36 9.4
5/6/2021 4:45:00 AM 11.54 52.772 0.182 7.1 13.74 9.42
5/6/2021 5:00:00 AM 11.46 52.628 0.182 7.09 13.45 9.43
5/6/2021 5:15:00 AM 11.4 52.52 0.183 7.1 13.19 9.45
5/6/2021 5:30:00 AM 11.33 52.394 0.183 7.1 13.45 9.46
5/6/2021 5:45:00 AM 11.27 52.286 0.183 7.1 13.51 9.48
5/6/2021 6:00:00 AM 11.21 52.178 0.183 7.1 12.93 9.48
5/6/2021 6:15:00 AM 11.15 52.07 0.183 7.1 13.01 9.5
5/6/2021 6:30:00 AM 11.09 51.962 0.183 7.1 12.86 9.53
5/6/2021 6:45:00 AM 11.04 51.872 0.183 7.1 13.38 9.55
5/6/2021 7:00:00 AM 10.99 51.782 0.183 7.11 12.44 9.59
5/6/2021 7:15:00 AM 10.96 51.728 0.183 7.11 12.66 9.63
5/6/2021 7:30:00 AM 10.91 51.638 0.183 7.13 11.97 9.67
5/6/2021 7:45:00 AM 10.91 51.638 0.183 7.13 11.87 9.71
5/6/2021 8:00:00 AM 10.89 51.602 0.183 7.13 11.99 9.77
5/6/2021 8:15:00 AM 10.92 51.656 0.183 7.15 11.53 9.82
5/6/2021 8:30:00 AM 11 51.8 0.182 7.17 11.31 9.88
5/6/2021 8:45:00 AM 11.06 51.908 0.183 7.17 11.02 9.94
5/6/2021 9:00:00 AM 11.1 51.98 0.183 7.18 11.42 9.97
5/6/2021 9:15:00 AM 11.12 52.016 0.183 7.18 10.81 10.01
5/6/2021 9:30:00 AM 11.24 52.232 0.183 7.2 10.6 10.05
5/6/2021 9:45:00 AM 11.3 52.34 0.182 7.2 10.94 10.08
5/6/2021 10:00:00 AM 11.4 52.52 0.183 7.21 13 10.11
5/6/2021 10:15:00 AM 11.34 52.412 0.183 7.19 13.83 10.12
5/6/2021 10:30:00 AM 11.41 52.538 0.183 7.19 13.67 10.16
5/6/2021 10:45:00 AM 11.53 52.754 0.182 7.22 15.43 10.2
5/6/2021 11:00:00 AM 11.68 53.024 0.183 7.23 14.34 10.24
5/6/2021 11:15:00 AM 11.76 53.168 0.183 7.23 12.13 10.26
5/6/2021 11:30:00 AM 11.96 53.528 0.183 7.24 11.82 10.3
5/6/2021 11:45:00 AM 12.04 53.672 0.183 7.24 11.33 10.32
5/6/2021 12:00:00 PM 12.07 53.726 0.183 7.25 11.01 10.35
5/6/2021 12:15:00 PM 12.21 53.978 0.182 7.26 10.02 10.37
5/6/2021 12:30:00 PM 12.39 54.302 0.182 7.26 9.96 10.4
5/6/2021 12:45:00 PM 12.55 54.59 0.182 7.27 9.67 10.43
5/6/2021 1:00:00 PM 12.69 54.842 0.182 7.28 10.08 10.45
5/6/2021 1:15:00 PM 12.77 54.986 0.183 7.28 9.68 10.47
5/6/2021 1:30:00 PM 12.89 55.202 0.182 7.29 10.06 10.49
5/6/2021 1:45:00 PM 13.03 55.454 0.182 7.29 10 10.51
5/6/2021 2:00:00 PM 13.06 55.508 0.182 7.29 10.29 10.52
5/6/2021 2:15:00 PM 13.15 55.67 0.182 7.3 10.06 10.54
5/6/2021 2:30:00 PM 13.22 55.796 0.181 7.31 9.84 10.55
5/6/2021 2:45:00 PM 13.3 55.94 0.181 7.32 10.08 10.56
5/6/2021 3:00:00 PM 13.39 56.102 0.182 7.33 10.31 10.57
5/6/2021 3:15:00 PM 13.42 56.156 0.182 7.33 9.89 10.58
5/6/2021 3:30:00 PM 13.51 56.318 0.181 7.33 9.34 10.57
5/6/2021 3:45:00 PM 13.58 56.444 0.181 7.34 9.31 10.57
5/6/2021 4:00:00 PM 13.64 56.552 0.182 7.34 9.12 10.57
5/6/2021 4:15:00 PM 13.69 56.642 0.181 7.34 8.81 10.56
5/6/2021 4:30:00 PM 13.67 56.606 0.182 7.34 8.82 10.55
5/6/2021 4:45:00 PM 13.67 56.606 0.181 7.34 9.11 10.53
5/6/2021 5:00:00 PM 13.63 56.534 0.182 7.33 8.82 10.52
5/6/2021 5:15:00 PM 13.58 56.444 0.181 7.32 8.47 10.5
5/6/2021 5:30:00 PM 13.52 56.336 0.181 7.31 8.85 10.49
5/6/2021 5:45:00 PM 13.44 56.192 0.182 7.31 8.81 10.47
5/6/2021 6:00:00 PM 13.37 56.066 0.181 7.29 10.68 10.45
5/6/2021 6:15:00 PM 13.26 55.868 0.182 7.28 8.96 10.43
5/6/2021 6:30:00 PM 13.14 55.652 0.182 7.28 8.63 10.38
5/6/2021 6:45:00 PM 13.02 55.436 0.181 7.26 8.5 10.33
5/6/2021 7:00:00 PM 12.92 55.256 0.182 7.25 8.36 10.29
5/6/2021 7:15:00 PM 12.83 55.094 0.182 7.24 8.07 10.24
5/6/2021 7:30:00 PM 12.72 54.896 0.182 7.23 7.89 10.19
5/6/2021 7:45:00 PM 12.64 54.752 0.182 7.21 8.35 10.14
5/6/2021 8:00:00 PM 12.55 54.59 0.182 7.2 8.06 10.09
5/6/2021 8:15:00 PM 12.49 54.482 0.182 7.18 8.12 10.02
5/6/2021 8:30:00 PM 12.43 54.374 0.182 7.17 8.25 9.97
5/6/2021 8:45:00 PM 12.38 54.284 0.183 7.16 8.31 9.92
5/6/2021 9:00:00 PM 12.33 54.194 0.183 7.15 8.23 9.88
5/6/2021 9:15:00 PM 12.28 54.104 0.183 7.14 8.09 9.85
5/6/2021 9:30:00 PM 12.24 54.032 0.183 7.13 7.95 9.82
5/6/2021 9:45:00 PM 12.2 53.96 0.183 7.13 8.33 9.8
5/6/2021 10:00:00 PM 12.15 53.87 0.183 7.13 8.08 9.78
5/6/2021 10:15:00 PM 12.11 53.798 0.183 7.12 8.54 9.76
5/6/2021 10:30:00 PM 12.05 53.69 0.183 7.12 8.61 9.75
5/6/2021 10:45:00 PM 12 53.6 0.183 7.12 8.12 9.74
5/6/2021 11:00:00 PM 11.95 53.51 0.183 7.12 8.29 9.73
5/6/2021 11:15:00 PM 11.89 53.402 0.184 7.12 7.95 9.72
5/6/2021 11:30:00 PM 11.84 53.312 0.184 7.12 8.23 9.71
5/6/2021 11:45:00 PM 11.78 53.204 0.184 7.11 8.18 9.7
5/7/2021 12:00:00 AM 11.73 53.114 0.184 7.1 7.96 9.69
5/7/2021 12:15:00 AM 11.67 53.006 0.184 7.1 7.82 9.68
5/7/2021 12:30:00 AM 11.61 52.898 0.184 7.1 7.74 9.68
5/7/2021 12:45:00 AM 11.55 52.79 0.184 7.1 8.34 9.68
5/7/2021 1:00:00 AM 11.48 52.664 0.184 7.1 7.82 9.68
5/7/2021 1:15:00 AM 11.42 52.556 0.184 7.09 7.63 9.68
5/7/2021 1:30:00 AM 11.35 52.43 0.184 7.09 7.77 9.67
5/7/2021 1:45:00 AM 11.28 52.304 0.184 7.09 7.97 9.68
5/7/2021 2:00:00 AM 11.22 52.196 0.184 7.08 7.65 9.67
5/7/2021 2:15:00 AM 11.15 52.07 0.184 7.09 7.68 9.68
5/7/2021 2:30:00 AM 11.08 51.944 0.184 7.09 7.28 9.69
5/7/2021 2:45:00 AM 11.03 51.854 0.184 7.09 7.52 9.69
5/7/2021 3:00:00 AM 10.96 51.728 0.185 7.09 7.22 9.7
5/7/2021 3:15:00 AM 10.9 51.62 0.184 7.09 7.6 9.7
5/7/2021 3:30:00 AM 10.83 51.494 0.185 7.09 7.26 9.71
5/7/2021 3:45:00 AM 10.77 51.386 0.185 7.09 7.33 9.72
5/7/2021 4:00:00 AM 10.71 51.278 0.185 7.09 7.48 9.72
5/7/2021 4:15:00 AM 10.65 51.17 0.185 7.09 7.3 9.72
5/7/2021 4:30:00 AM 10.6 51.08 0.185 7.09 7.3 9.73
5/7/2021 4:45:00 AM 10.53 50.954 0.185 7.09 7.36 9.74
5/7/2021 5:00:00 AM 10.49 50.882 0.185 7.09 7.51 9.74
5/7/2021 5:15:00 AM 10.44 50.792 0.185 7.09 6.97 9.75
5/7/2021 5:30:00 AM 10.41 50.738 0.185 7.09 7.13 9.75
5/7/2021 5:45:00 AM 10.36 50.648 0.185 7.09 7.13 9.76
5/7/2021 6:00:00 AM 10.31 50.558 0.185 7.08 7.09 9.76
5/7/2021 6:15:00 AM 10.27 50.486 0.185 7.09 6.96 9.77
5/7/2021 6:30:00 AM 10.24 50.432 0.185 7.09 7.13 9.78
5/7/2021 6:45:00 AM 10.21 50.378 0.185 7.09 6.59 9.81
5/7/2021 7:00:00 AM 10.18 50.324 0.185 7.1 6.83 9.85
5/7/2021 7:15:00 AM 10.16 50.288 0.186 7.1 6.59 9.9
5/7/2021 7:30:00 AM 10.15 50.27 0.185 7.11 6.43 9.95
5/7/2021 7:45:00 AM 10.13 50.234 0.186 7.12 6.38 10
5/7/2021 8:00:00 AM 10.13 50.234 0.185 7.13 6.27 10.06
5/7/2021 8:15:00 AM 10.16 50.288 0.185 7.15 6.36 10.13
5/7/2021 8:30:00 AM 10.19 50.342 0.185 7.15 6.26 10.19
5/7/2021 8:45:00 AM 10.26 50.468 0.185 7.16 6.13 10.24
5/7/2021 9:00:00 AM 10.3 50.54 0.186 7.15 6.2 10.29
5/7/2021 9:15:00 AM 10.33 50.594 0.185 7.16 5.76 10.32
5/7/2021 9:30:00 AM 10.42 50.756 0.185 7.18 5.76 10.37
5/7/2021 9:45:00 AM 10.55 50.99 0.185 7.19 5.67 10.42
5/7/2021 10:00:00 AM 10.64 51.152 0.185 7.21 5.76 10.44
5/7/2021 10:15:00 AM 10.76 51.368 0.185 7.21 5.65 10.48
5/7/2021 10:30:00 AM 10.84 51.512 0.185 7.23 5.64 10.51
5/7/2021 10:45:00 AM 10.92 51.656 0.185 7.23 5.77 10.54
5/7/2021 11:00:00 AM 10.93 51.674 0.185 7.24 5.88 10.55
5/7/2021 11:15:00 AM 10.98 51.764 0.185 7.24 5.84 10.59
5/7/2021 11:30:00 AM 11.01 51.818 0.185 7.24 6.1 10.61
5/7/2021 11:45:00 AM 10.97 51.746 0.185 7.24 5.71 10.59
5/7/2021 12:00:00 PM 10.88 51.584 0.185 7.23 5.62 10.53
5/7/2021 12:15:00 PM 10.79 51.422 0.185 7.23 5.97 10.52
5/7/2021 12:30:00 PM 10.74 51.332 0.185 7.23 6.84 10.56
5/7/2021 12:45:00 PM 10.73 51.314 0.185 7.24 5.35 10.59
5/7/2021 1:00:00 PM 10.7 51.26 0.185 7.24 5.63 10.6
5/7/2021 1:15:00 PM 10.66 51.188 0.185 7.24 5.94 10.59
5/7/2021 1:30:00 PM 10.62 51.116 0.185 7.24 6.18 10.59
5/7/2021 1:45:00 PM 10.59 51.062 0.185 7.24 6.55 10.61
5/7/2021 2:00:00 PM 10.57 51.026 0.185 7.24 6.36 10.61
5/7/2021 2:15:00 PM 10.57 51.026 0.185 7.23 7.3 10.61
5/7/2021 2:30:00 PM 10.57 51.026 0.185 7.23 6.87 10.64
5/7/2021 2:45:00 PM 10.56 51.008 0.185 7.24 7.14 10.64
5/7/2021 3:00:00 PM 10.58 51.044 0.183 7.24 7.14 10.64
5/7/2021 3:15:00 PM 10.61 51.098 0.183 7.25 7.1 10.67
5/7/2021 3:30:00 PM 10.58 51.044 0.183 7.25 6.95 10.65
5/7/2021 3:45:00 PM 10.55 50.99 0.184 7.25 6.93 10.64
5/7/2021 4:00:00 PM 10.59 51.062 0.183 7.25 6.74 10.68
5/7/2021 4:15:00 PM 10.58 51.044 0.184 7.25 6.59 10.69
5/7/2021 4:30:00 PM 10.56 51.008 0.184 7.25 6.3 10.68
5/7/2021 4:45:00 PM 10.54 50.972 0.184 7.25 5.98 10.71
5/7/2021 5:00:00 PM 10.48 50.864 0.184 7.24 6.81 10.68
5/7/2021 5:15:00 PM 10.44 50.792 0.184 7.23 5.82 10.65
5/7/2021 5:30:00 PM 10.39 50.702 0.184 7.23 5.82 10.64
5/7/2021 5:45:00 PM 10.36 50.648 0.185 7.23 5.68 10.65
5/7/2021 6:00:00 PM 10.34 50.612 0.184 7.23 5.63 10.66
5/7/2021 6:15:00 PM 10.29 50.522 0.185 7.23 5.76 10.62
5/7/2021 6:30:00 PM 10.26 50.468 0.184 7.23 5.78 10.6
5/7/2021 6:45:00 PM 10.2 50.36 0.184 7.23 5.86 10.58
5/7/2021 7:00:00 PM 10.15 50.27 0.185 7.21 5.64 10.55
5/7/2021 7:15:00 PM 10.1 50.18 0.185 7.21 5.81 10.53
5/7/2021 7:30:00 PM 10.06 50.108 0.184 7.21 5.52 10.52
5/7/2021 7:45:00 PM 10.02 50.036 0.184 7.19 5.62 10.49
5/7/2021 8:00:00 PM 9.94 49.892 0.184 7.19 5.62 10.47
5/7/2021 8:15:00 PM 9.87 49.766 0.184 7.18 5.68 10.44
5/7/2021 8:30:00 PM 9.8 49.64 0.184 7.18 5.8 10.41
5/7/2021 8:45:00 PM 9.74 49.532 0.184 7.17 5.97 10.38
5/7/2021 9:00:00 PM 9.69 49.442 0.184 7.16 6.23 10.35
5/7/2021 9:15:00 PM 9.64 49.352 0.184 7.16 6.57 10.34
5/7/2021 9:30:00 PM 9.59 49.262 0.184 7.15 6.17 10.32
5/7/2021 9:45:00 PM 9.54 49.172 0.184 7.15 6.28 10.31
5/7/2021 10:00:00 PM 9.49 49.082 0.183 7.13 6.12 10.31
5/7/2021 10:15:00 PM 9.43 48.974 0.183 7.14 6.25 10.31
5/7/2021 10:30:00 PM 9.39 48.902 0.183 7.14 6.13 10.3
5/7/2021 10:45:00 PM 9.33 48.794 0.183 7.13 5.98 10.3
5/7/2021 11:00:00 PM 9.28 48.704 0.183 7.13 6.39 10.3
5/7/2021 11:15:00 PM 9.22 48.596 0.183 7.13 6.24 10.3
5/7/2021 11:30:00 PM 9.17 48.506 0.182 7.13 6.17 10.29
5/7/2021 11:45:00 PM 9.12 48.416 0.182 7.13 6.23 10.29
5/8/2021 12:00:00 AM 9.06 48.308 0.182 7.13 6.05 10.3
5/8/2021 12:15:00 AM 9.02 48.236 0.182 7.13 6.31 10.3
5/8/2021 12:30:00 AM 8.96 48.128 0.182 7.13 6.2 10.31
5/8/2021 12:45:00 AM 8.91 48.038 0.182 7.12 6.65 10.31
5/8/2021 1:00:00 AM 8.86 47.948 0.182 7.12 6.11 10.3
5/8/2021 1:15:00 AM 8.8 47.84 0.182 7.12 6.2 10.31
5/8/2021 1:30:00 AM 8.75 47.75 0.182 7.12 6.13 10.31
5/8/2021 1:45:00 AM 8.69 47.642 0.182 7.12 6.58 10.32
5/8/2021 2:00:00 AM 8.64 47.552 0.182 7.12 6.59 10.32
5/8/2021 2:15:00 AM 8.59 47.462 0.182 7.12 6.43 10.33
5/8/2021 2:30:00 AM 8.54 47.372 0.181 7.11 6.37 10.33
5/8/2021 2:45:00 AM 8.49 47.282 0.181 7.12 6.5 10.34
5/8/2021 3:00:00 AM 8.45 47.21 0.181 7.11 6.52 10.35
5/8/2021 3:15:00 AM 8.4 47.12 0.181 7.12 6.58 10.36
5/8/2021 3:30:00 AM 8.35 47.03 0.181 7.12 6.75 10.36
5/8/2021 3:45:00 AM 8.32 46.976 0.18 7.12 7.61 10.37
5/8/2021 4:00:00 AM 8.29 46.922 0.18 7.12 6.79 10.37
5/8/2021 4:15:00 AM 8.25 46.85 0.18 7.12 6.77 10.38
5/8/2021 4:30:00 AM 8.23 46.814 0.18 7.13 6.61 10.38
5/8/2021 4:45:00 AM 8.2 46.76 0.18 7.12 6.56 10.39
5/8/2021 5:00:00 AM 8.18 46.724 0.18 7.12 6.79 10.39
5/8/2021 5:15:00 AM 8.16 46.688 0.18 7.12 6.38 10.39
5/8/2021 5:30:00 AM 8.14 46.652 0.18 7.12 6.77 10.4
5/8/2021 5:45:00 AM 8.11 46.598 0.18 7.13 6.42 10.4
5/8/2021 6:00:00 AM 8.09 46.562 0.18 7.12 6.6 10.41
5/8/2021 6:15:00 AM 8.06 46.508 0.18 7.12 6.49 10.41
5/8/2021 6:30:00 AM 8.04 46.472 0.18 7.12 6.05 10.42
5/8/2021 6:45:00 AM 8.01 46.418 0.181 7.12 6.27 10.43
5/8/2021 7:00:00 AM 7.97 46.346 0.181 7.12 6 10.44
5/8/2021 7:15:00 AM 7.95 46.31 0.181 7.12 5.99 10.46
5/8/2021 7:30:00 AM 7.93 46.274 0.181 7.12 5.92 10.49
5/8/2021 7:45:00 AM 7.91 46.238 0.181 7.13 5.85 10.51
5/8/2021 8:00:00 AM 7.9 46.22 0.181 7.13 5.9 10.52
5/8/2021 8:15:00 AM 7.89 46.202 0.181 7.13 5.83 10.56
5/8/2021 8:30:00 AM 7.88 46.184 0.182 7.13 5.66 10.58
5/8/2021 8:45:00 AM 7.9 46.22 0.181 7.14 5.61 10.64
5/8/2021 9:00:00 AM 7.89 46.202 0.182 7.14 5.77 10.65
5/8/2021 9:15:00 AM 7.88 46.184 0.182 7.15 5.6 10.65
5/8/2021 9:30:00 AM 7.87 46.166 0.182 7.16 5.53 10.69
5/8/2021 9:45:00 AM 7.86 46.148 0.182 7.16 5.93 10.72
5/8/2021 10:00:00 AM 7.89 46.202 0.182 7.17 5.75 10.8
5/8/2021 10:15:00 AM 7.93 46.274 0.183 7.18 5.92 10.86
5/8/2021 10:30:00 AM 7.98 46.364 0.182 7.19 5.51 10.89
5/8/2021 10:45:00 AM 8.02 46.436 0.182 7.19 5.47 10.95
5/8/2021 11:00:00 AM 8.12 46.616 0.182 7.21 5.32 11
5/8/2021 11:15:00 AM 8.2 46.76 0.182 7.22 5.46 11.03
5/8/2021 11:30:00 AM 8.21 46.778 0.182 7.22 5.34 11.02
5/8/2021 11:45:00 AM 8.24 46.832 0.182 7.22 5 11.07
5/8/2021 12:00:00 PM 8.2 46.76 0.182 7.22 5.12 11.08
5/8/2021 12:15:00 PM 8.2 46.76 0.182 7.22 5.11 11.11
5/8/2021 12:30:00 PM 8.27 46.886 0.182 7.24 5.11 11.16
5/8/2021 12:45:00 PM 8.46 47.228 0.182 7.27 5.05 11.2
5/8/2021 1:00:00 PM 8.55 47.39 0.182 7.28 5.07 11.24
5/8/2021 1:15:00 PM 8.63 47.534 0.182 7.28 5.22 11.26
5/8/2021 1:30:00 PM 8.88 47.984 0.182 7.29 5.13 11.29
5/8/2021 1:45:00 PM 8.99 48.182 0.182 7.3 5.47 11.32
5/8/2021 2:00:00 PM 9.13 48.434 0.182 7.31 5.21 11.34
5/8/2021 2:15:00 PM 9.43 48.974 0.182 7.33 4.77 11.36
5/8/2021 2:30:00 PM 9.46 49.028 0.182 7.32 5.06 11.35
5/8/2021 2:45:00 PM 9.45 49.01 0.182 7.3 5.05 11.33
5/8/2021 3:00:00 PM 9.57 49.226 0.181 7.32 4.85 11.35
5/8/2021 3:15:00 PM 9.64 49.352 0.182 7.32 4.97 11.36
5/8/2021 3:30:00 PM 9.74 49.532 0.182 7.33 4.84 11.37
5/8/2021 3:45:00 PM 9.76 49.568 0.182 7.33 5.03 11.36
5/8/2021 4:00:00 PM 9.9 49.82 0.182 7.34 5.02 11.36
5/8/2021 4:15:00 PM 9.74 49.532 0.182 7.32 5.19 11.31
5/8/2021 4:30:00 PM 9.69 49.442 0.182 7.31 5.12 11.3
5/8/2021 4:45:00 PM 9.6 49.28 0.182 7.31 5.07 11.32
5/8/2021 5:00:00 PM 9.65 49.37 0.182 7.31 4.95 11.32
5/8/2021 5:15:00 PM 9.63 49.334 0.182 7.31 5.01 11.3
5/8/2021 5:30:00 PM 9.69 49.442 0.182 7.32 4.92 11.33
5/8/2021 5:45:00 PM 9.63 49.334 0.182 7.32 5.09 11.31
5/8/2021 6:00:00 PM 9.55 49.19 0.182 7.31 5.05 11.27
5/8/2021 6:15:00 PM 9.5 49.1 0.182 7.3 4.94 11.28
5/8/2021 6:30:00 PM 9.47 49.046 0.183 7.31 5.08 11.27
5/8/2021 6:45:00 PM 9.42 48.956 0.182 7.3 5.43 11.24
5/8/2021 7:00:00 PM 9.34 48.812 0.183 7.29 5.12 11.22
5/8/2021 7:15:00 PM 9.28 48.704 0.183 7.29 5.04 11.18
5/8/2021 7:30:00 PM 9.21 48.578 0.182 7.28 4.99 11.14
5/8/2021 7:45:00 PM 9.14 48.452 0.183 7.27 5.35 11.1
5/8/2021 8:00:00 PM 9.06 48.308 0.183 7.26 5.16 11.05
5/8/2021 8:15:00 PM 9 48.2 0.183 7.25 5.11 10.99
5/8/2021 8:30:00 PM 8.95 48.11 0.183 7.24 5.19 10.94
5/8/2021 8:45:00 PM 8.89 48.002 0.183 7.22 5.23 10.89
5/8/2021 9:00:00 PM 8.83 47.894 0.184 7.21 5.3 10.85
5/8/2021 9:15:00 PM 8.78 47.804 0.184 7.2 5.31 10.82
5/8/2021 9:30:00 PM 8.74 47.732 0.184 7.19 5.19 10.8
5/8/2021 9:45:00 PM 8.69 47.642 0.184 7.19 5.39 10.78
5/8/2021 10:00:00 PM 8.65 47.57 0.184 7.19 5.51 10.77
5/8/2021 10:15:00 PM 8.6 47.48 0.184 7.18 5.47 10.76
5/8/2021 10:30:00 PM 8.56 47.408 0.184 7.18 5.3 10.74
5/8/2021 10:45:00 PM 8.52 47.336 0.184 7.18 5.27 10.73
5/8/2021 11:00:00 PM 8.49 47.282 0.184 7.18 5.34 10.71
5/8/2021 11:15:00 PM 8.46 47.228 0.184 7.17 5.46 10.7
5/8/2021 11:30:00 PM 8.44 47.192 0.184 7.17 5.8 10.69
5/8/2021 11:45:00 PM 8.41 47.138 0.184 7.16 5.44 10.68
5/9/2021 12:00:00 AM 8.38 47.084 0.185 7.17 5.55 10.67
5/9/2021 12:15:00 AM 8.35 47.03 0.185 7.16 5.64 10.66
5/9/2021 12:30:00 AM 8.31 46.958 0.185 7.17 5.49 10.65
5/9/2021 12:45:00 AM 8.27 46.886 0.185 7.16 5.39 10.65
5/9/2021 1:00:00 AM 8.24 46.832 0.185 7.16 5.26 10.65
5/9/2021 1:15:00 AM 8.2 46.76 0.185 7.16 5.34 10.65
5/9/2021 1:30:00 AM 8.17 46.706 0.185 7.16 5.37 10.64
5/9/2021 1:45:00 AM 8.14 46.652 0.185 7.16 5.22 10.64
5/9/2021 2:00:00 AM 8.1 46.58 0.186 7.15 5.34 10.64
5/9/2021 2:15:00 AM 8.06 46.508 0.186 7.15 5.42 10.63
5/9/2021 2:30:00 AM 8.02 46.436 0.186 7.15 5.4 10.63
5/9/2021 2:45:00 AM 7.98 46.364 0.186 7.15 5.22 10.63
5/9/2021 3:00:00 AM 7.95 46.31 0.186 7.14 5.21 10.63
5/9/2021 3:15:00 AM 7.91 46.238 0.186 7.15 5.29 10.63
5/9/2021 3:30:00 AM 7.87 46.166 0.186 7.15 5.27 10.64
5/9/2021 3:45:00 AM 7.83 46.094 0.186 7.14 5.24 10.64
5/9/2021 4:00:00 AM 7.79 46.022 0.186 7.14 5.38 10.64
5/9/2021 4:15:00 AM 7.75 45.95 0.186 7.14 5.74 10.64
5/9/2021 4:30:00 AM 7.72 45.896 0.187 7.14 5.56 10.65
5/9/2021 4:45:00 AM 7.68 45.824 0.187 7.14 5.36 10.65
5/9/2021 5:00:00 AM 7.65 45.77 0.187 7.14 5.47 10.66
5/9/2021 5:15:00 AM 7.62 45.716 0.187 7.13 5.54 10.66
5/9/2021 5:30:00 AM 7.59 45.662 0.187 7.13 5.62 10.66
5/9/2021 5:45:00 AM 7.56 45.608 0.187 7.13 5.33 10.66
5/9/2021 6:00:00 AM 7.54 45.572 0.187 7.13 5.5 10.67
5/9/2021 6:15:00 AM 7.51 45.518 0.187 7.14 5.19 10.67
5/9/2021 6:30:00 AM 7.49 45.482 0.187 7.14 5.21 10.7
5/9/2021 6:45:00 AM 7.47 45.446 0.188 7.14 4.96 10.7
5/9/2021 7:00:00 AM 7.46 45.428 0.188 7.14 5.04 10.74
5/9/2021 7:15:00 AM 7.46 45.428 0.188 7.14 4.96 10.78
5/9/2021 7:30:00 AM 7.45 45.41 0.188 7.15 4.79 10.81
5/9/2021 7:45:00 AM 7.46 45.428 0.188 7.16 4.79 10.86
5/9/2021 8:00:00 AM 7.48 45.464 0.188 7.16 4.84 10.92
5/9/2021 8:15:00 AM 7.52 45.536 0.188 7.18 4.89 10.98
5/9/2021 8:30:00 AM 7.53 45.554 0.188 7.18 4.73 11.01
5/9/2021 8:45:00 AM 7.57 45.626 0.188 7.19 4.71 11.06
5/9/2021 9:00:00 AM 7.64 45.752 0.188 7.2 4.63 11.13
5/9/2021 9:15:00 AM 7.64 45.752 0.188 7.21 4.49 11.14
5/9/2021 9:30:00 AM 7.65 45.77 0.188 7.21 4.44 11.14
5/9/2021 9:45:00 AM 7.64 45.752 0.188 7.21 4.44 11.13
5/9/2021 10:00:00 AM 7.62 45.716 0.188 7.2 4.36 11.14
5/9/2021 10:15:00 AM 7.6 45.68 0.188 7.2 4.43 11.14
5/9/2021 10:30:00 AM 7.58 45.644 0.188 7.21 4.69 11.13
5/9/2021 10:45:00 AM 7.54 45.572 0.188 7.2 5.58 11.13
5/9/2021 11:00:00 AM 7.5 45.5 0.186 7.2 7.23 11.14
5/9/2021 11:15:00 AM 7.47 45.446 0.187 7.19 7.38 11.14
5/9/2021 11:30:00 AM 7.45 45.41 0.188 7.19 7.82 11.14
5/9/2021 11:45:00 AM 7.4 45.32 0.186 7.18 7.56 11.14
5/9/2021 12:00:00 PM 7.36 45.248 0.185 7.18 7.38 11.16
5/9/2021 12:15:00 PM 7.34 45.212 0.184 7.17 7.09 11.16
5/9/2021 12:30:00 PM 7.26 45.068 0.185 7.16 6.81 11.17
5/9/2021 12:45:00 PM 7.24 45.032 0.184 7.17 7.05 11.17
5/9/2021 1:00:00 PM 7.17 44.906 0.184 7.17 7.07 11.17
5/9/2021 1:15:00 PM 7.12 44.816 0.183 7.17 8.16 11.2
5/9/2021 1:30:00 PM 7.09 44.762 0.183 7.18 8.81 11.22
5/9/2021 1:45:00 PM 7.1 44.78 0.181 7.17 9.54 11.26
5/9/2021 2:00:00 PM 7.11 44.798 0.18 7.17 10.15 11.27
5/9/2021 2:15:00 PM 7.14 44.852 0.181 7.17 10.98 11.28
5/9/2021 2:30:00 PM 7.18 44.924 0.18 7.17 11.73 11.28
5/9/2021 2:45:00 PM 7.2 44.96 0.182 7.17 11.65 11.29
5/9/2021 3:00:00 PM 7.22 44.996 0.182 7.17 12.9 11.27
5/9/2021 3:15:00 PM 7.21 44.978 0.183 7.16 12.61 11.26
5/9/2021 3:30:00 PM 7.19 44.942 0.185 7.17 15.58 11.23
5/9/2021 3:45:00 PM 7.18 44.924 0.186 7.16 18.85 11.21
5/9/2021 4:00:00 PM 7.17 44.906 0.184 7.17 20.55 11.2
5/9/2021 4:15:00 PM 7.18 44.924 0.182 7.16 21.53 11.19
5/9/2021 4:30:00 PM 7.18 44.924 0.182 7.16 24.86 11.18
5/9/2021 4:45:00 PM 7.18 44.924 0.182 7.16 28.75 11.16
5/9/2021 5:00:00 PM 7.19 44.942 0.181 7.16 29.95 11.14
5/9/2021 5:15:00 PM 7.19 44.942 0.18 7.16 32.65 11.13
5/9/2021 5:30:00 PM 7.2 44.96 0.179 7.16 31.82 11.11
5/9/2021 5:45:00 PM 7.21 44.978 0.177 7.16 26.83 11.1
5/9/2021 6:00:00 PM 7.22 44.996 0.175 7.15 39.64 11.09
5/9/2021 6:15:00 PM 7.22 44.996 0.173 7.15 37.29 11.08
5/9/2021 6:30:00 PM 7.22 44.996 0.17 7.14 43.57 11.07
5/9/2021 6:45:00 PM 7.22 44.996 0.167 7.13 47.06 11.07
5/9/2021 7:00:00 PM 7.22 44.996 0.164 7.12 56.62 11.06
5/9/2021 7:15:00 PM 7.22 44.996 0.163 7.11 53.36 11.05
5/9/2021 7:30:00 PM 7.22 44.996 0.16 7.1 57.64 11.03
5/9/2021 7:45:00 PM 7.24 45.032 0.159 7.08 82.56 11.01
5/9/2021 8:00:00 PM 7.27 45.086 0.156 7.05 74.7 10.98
5/9/2021 8:15:00 PM 7.26 45.068 0.153 7.04 94.22 10.97
5/9/2021 8:30:00 PM 7.29 45.122 0.153 7.04 119.77 10.95
5/9/2021 8:45:00 PM 7.29 45.122 0.15 7 127.91 10.93
5/9/2021 9:00:00 PM 7.28 45.104 0.146 6.99 151.16 10.92
5/9/2021 9:15:00 PM 7.28 45.104 0.143 6.95 147.71 10.91
5/9/2021 9:30:00 PM 7.28 45.104 0.14 6.94 173.22 10.89
5/9/2021 9:45:00 PM 7.29 45.122 0.138 6.9 201.26 10.87
5/9/2021 10:00:00 PM 7.3 45.14 0.136 6.93 211.01 10.86
5/9/2021 10:15:00 PM 7.3 45.14 0.135 6.89 244.77 10.86
5/9/2021 10:30:00 PM 7.29 45.122 0.133 6.88 204.71 10.85
5/9/2021 10:45:00 PM 7.28 45.104 0.131 6.88 202.3 10.84
5/9/2021 11:00:00 PM 7.27 45.086 0.13 6.87 189.4 10.82
5/9/2021 11:15:00 PM 7.28 45.104 0.129 6.85 185.75 10.81
5/9/2021 11:30:00 PM 7.27 45.086 0.128 6.84 175.02 10.79
5/9/2021 11:45:00 PM 7.27 45.086 0.127 6.82 160.98 10.77
5/10/2021 12:00:00 AM 7.26 45.068 0.126 6.83 153.07 10.77
5/10/2021 12:15:00 AM 7.25 45.05 0.124 6.8 189.99 10.75
5/10/2021 12:30:00 AM 7.24 45.032 0.123 6.8 170.44 10.74
5/10/2021 12:45:00 AM 7.23 45.014 0.123 6.8 178.87 10.73
5/10/2021 1:00:00 AM 7.23 45.014 0.121 6.79 154.48 10.71
5/10/2021 1:15:00 AM 7.23 45.014 0.121 6.78 179.85 10.69
5/10/2021 1:30:00 AM 7.23 45.014 0.121 6.78 193.09 10.67
5/10/2021 1:45:00 AM 7.23 45.014 0.121 6.77 186.29 10.66
5/10/2021 2:00:00 AM 7.22 44.996 0.121 6.76 163.28 10.64
5/10/2021 2:15:00 AM 7.22 44.996 0.121 6.75 173.46 10.63
5/10/2021 2:30:00 AM 7.22 44.996 0.12 6.73 176 10.62
5/10/2021 2:45:00 AM 7.21 44.978 0.12 6.75 160.23 10.6
5/10/2021 3:00:00 AM 7.2 44.96 0.12 6.75 143.92 10.59
5/10/2021 3:15:00 AM 7.2 44.96 0.12 6.75 130.7 10.58
5/10/2021 3:30:00 AM 7.2 44.96 0.12 6.74 131.06 10.57
5/10/2021 3:45:00 AM 7.2 44.96 0.12 6.73 126.45 10.55
5/10/2021 4:00:00 AM 7.2 44.96 0.121 6.74 125.83 10.55
5/10/2021 4:15:00 AM 7.2 44.96 0.121 6.74 126.43 10.54
5/10/2021 4:30:00 AM 7.19 44.942 0.121 6.73 114.03 10.53
5/10/2021 4:45:00 AM 7.19 44.942 0.121 6.73 110.36 10.52
5/10/2021 5:00:00 AM 7.19 44.942 0.121 6.73 123.29 10.51
5/10/2021 5:15:00 AM 7.18 44.924 0.121 6.73 93.36 10.51
5/10/2021 5:30:00 AM 7.18 44.924 0.121 6.73 105.08 10.5
5/10/2021 5:45:00 AM 7.18 44.924 0.121 6.73 99.65 10.5
5/10/2021 6:00:00 AM 7.18 44.924 0.121 6.73 80.23 10.49
5/10/2021 6:15:00 AM 7.17 44.906 0.121 6.73 96 10.48
5/10/2021 6:30:00 AM 7.17 44.906 0.12 6.72 99.47 10.48
5/10/2021 6:45:00 AM 7.17 44.906 0.12 6.72 85.67 10.47
5/10/2021 7:00:00 AM 7.17 44.906 0.119 6.72 94.15 10.46
5/10/2021 7:15:00 AM 7.17 44.906 0.119 6.71 88.28 10.46
5/10/2021 7:30:00 AM 7.17 44.906 0.118 6.71 84.14 10.45
5/10/2021 7:45:00 AM 7.18 44.924 0.118 6.69 87.55 10.45
5/10/2021 8:00:00 AM 7.19 44.942 0.117 6.7 93.44 10.45
5/10/2021 8:15:00 AM 7.2 44.96 0.117 6.7 91.65 10.45
5/10/2021 8:30:00 AM 7.21 44.978 0.116 6.7 81.47 10.45
5/10/2021 8:45:00 AM 7.23 45.014 0.116 6.69 84.65 10.45
5/10/2021 9:00:00 AM 7.24 45.032 0.115 6.68 88.21 10.44
5/10/2021 9:15:00 AM 7.3 45.14 0.114 6.69 90.01 10.45
5/10/2021 9:30:00 AM 7.31 45.158 0.114 6.68 86.67 10.45
5/10/2021 9:45:00 AM 7.32 45.176 0.113 6.67 85.07 10.46
5/10/2021 10:00:00 AM 7.41 45.338 0.113 6.68 81.98 10.46
5/10/2021 10:15:00 AM 7.45 45.41 0.112 6.68 82.38 10.45
5/10/2021 10:30:00 AM 7.48 45.464 0.112 6.67 74.99 10.46
5/10/2021 10:45:00 AM 7.6 45.68 0.111 6.68 75.46 10.46
5/10/2021 11:00:00 AM 7.67 45.806 0.111 6.68 87.61 10.46
5/10/2021 11:15:00 AM 7.73 45.914 0.111 6.67 70.78 10.47
5/10/2021 11:30:00 AM 7.8 46.04 0.11 6.67 70.81 10.47
5/10/2021 11:45:00 AM 7.83 46.094 0.11 6.64 68.32 10.47
5/10/2021 12:00:00 PM 7.94 46.292 0.11 6.67 69.15 10.47
5/10/2021 12:15:00 PM 8.04 46.472 0.109 6.67 63.89 10.46
5/10/2021 12:30:00 PM 8.09 46.562 0.109 6.67 63.66 10.46
5/10/2021 12:45:00 PM 8.18 46.724 0.109 6.68 62.61 10.46
5/10/2021 1:00:00 PM 8.22 46.796 0.109 6.66 60.18 10.45
5/10/2021 1:15:00 PM 8.29 46.922 0.109 6.67 58.87 10.45
5/10/2021 1:30:00 PM 8.34 47.012 0.109 6.67 56.39 10.45
5/10/2021 1:45:00 PM 8.47 47.246 0.109 6.69 55.32 10.44
5/10/2021 2:00:00 PM 8.51 47.318 0.11 6.68 55.97 10.44
5/10/2021 2:15:00 PM 8.55 47.39 0.11 6.67 52.5 10.43
5/10/2021 2:30:00 PM 8.65 47.57 0.11 6.68 51.38 10.42
5/10/2021 2:45:00 PM 8.79 47.822 0.11 6.69 48.7 10.41
5/10/2021 3:00:00 PM 8.83 47.894 0.11 6.68 64.51 10.4
5/10/2021 3:15:00 PM 8.97 48.146 0.111 6.7 46.51 10.4
5/10/2021 3:30:00 PM 9.11 48.398 0.111 6.7 45.14 10.38
5/10/2021 3:45:00 PM 9.26 48.668 0.112 6.71 43.43 10.37
5/10/2021 4:00:00 PM 9.35 48.83 0.112 6.71 41.48 10.36
5/10/2021 4:15:00 PM 9.37 48.866 0.113 6.69 41.03 10.35
5/10/2021 4:30:00 PM 9.37 48.866 0.113 6.69 55.24 10.33
5/10/2021 4:45:00 PM 9.43 48.974 0.114 6.69 38.84 10.32
5/10/2021 5:00:00 PM 9.49 49.082 0.114 6.7 37.58 10.31
5/10/2021 5:15:00 PM 9.54 49.172 0.115 6.7 36.07 10.29
5/10/2021 5:30:00 PM 9.62 49.316 0.115 6.71 36.73 10.28
5/10/2021 5:45:00 PM 9.7 49.46 0.116 6.71 37.07 10.26
5/10/2021 6:00:00 PM 9.74 49.532 0.116 6.71 34 10.25
5/10/2021 6:15:00 PM 9.77 49.586 0.117 6.71 33.68 10.23
5/10/2021 6:30:00 PM 9.8 49.64 0.117 6.71 31.04 10.22
5/10/2021 6:45:00 PM 9.82 49.676 0.118 6.7 33.86 10.2
5/10/2021 7:00:00 PM 9.83 49.694 0.119 6.71 27.04 10.18
5/10/2021 7:15:00 PM 9.83 49.694 0.119 6.7 32.14 10.17
5/10/2021 7:30:00 PM 9.83 49.694 0.12 6.7 32.14 10.15
5/10/2021 7:45:00 PM 9.84 49.712 0.121 6.71 31.66 10.14
5/10/2021 8:00:00 PM 9.83 49.694 0.121 6.7 31.19 10.13
5/10/2021 8:15:00 PM 9.82 49.676 0.122 6.7 31.62 10.11
5/10/2021 8:30:00 PM 9.81 49.658 0.122 6.7 29.33 10.1
5/10/2021 8:45:00 PM 9.8 49.64 0.123 6.7 27.12 10.09
5/10/2021 9:00:00 PM 9.79 49.622 0.124 6.7 27.36 10.08
5/10/2021 9:15:00 PM 9.78 49.604 0.124 6.7 25.53 10.07
5/10/2021 9:30:00 PM 9.77 49.586 0.125 6.7 28.7 10.06
5/10/2021 9:45:00 PM 9.76 49.568 0.125 6.7 27.82 10.05
5/10/2021 10:00:00 PM 9.75 49.55 0.126 6.71 27.62 10.05
5/10/2021 10:15:00 PM 9.74 49.532 0.126 6.71 28.73 10.04
5/10/2021 10:30:00 PM 9.73 49.514 0.127 6.71 26.59 10.04
5/10/2021 10:45:00 PM 9.72 49.496 0.127 6.7 27.4 10.03
5/10/2021 11:00:00 PM 9.71 49.478 0.127 6.7 26.71 10.03
5/10/2021 11:15:00 PM 9.69 49.442 0.128 6.71 26.45 10.03
5/10/2021 11:30:00 PM 9.68 49.424 0.128 6.71 26.17 10.02
5/10/2021 11:45:00 PM 9.66 49.388 0.128 6.71 26.11 10.02
5/11/2021 12:00:00 AM 9.64 49.352 0.129 6.71 25.31 10.02
5/11/2021 12:15:00 AM 9.62 49.316 0.129 6.72 24.66 10.03
5/11/2021 12:30:00 AM 9.6 49.28 0.129 6.72 25.94 10.03
5/11/2021 12:45:00 AM 9.58 49.244 0.13 6.72 25.94 10.03
5/11/2021 1:00:00 AM 9.56 49.208 0.13 6.72 24.73 10.03
5/11/2021 1:15:00 AM 9.55 49.19 0.13 6.72 25.01 10.04
5/11/2021 1:30:00 AM 9.52 49.136 0.131 6.72 25.07 10.04
5/11/2021 1:45:00 AM 9.5 49.1 0.131 6.72 24.47 10.04
5/11/2021 2:00:00 AM 9.47 49.046 0.132 6.72 24 10.05
5/11/2021 2:15:00 AM 9.45 49.01 0.132 6.72 23.85 10.05
5/11/2021 2:30:00 AM 9.42 48.956 0.132 6.72 24.13 10.06
5/11/2021 2:45:00 AM 9.4 48.92 0.133 6.73 23.24 10.06
5/11/2021 3:00:00 AM 9.37 48.866 0.133 6.72 23.38 10.07
5/11/2021 3:15:00 AM 9.34 48.812 0.134 6.73 22.74 10.08
5/11/2021 3:30:00 AM 9.32 48.776 0.133 6.74 23.3 10.08
5/11/2021 3:45:00 AM 9.29 48.722 0.134 6.73 22.3 10.09
5/11/2021 4:00:00 AM 9.25 48.65 0.134 6.74 22.22 10.1
5/11/2021 4:15:00 AM 9.22 48.596 0.135 6.73 22.07 10.11
5/11/2021 4:30:00 AM 9.18 48.524 0.135 6.74 22.68 10.12
5/11/2021 4:45:00 AM 9.14 48.452 0.135 6.74 21.81 10.13
5/11/2021 5:00:00 AM 9.1 48.38 0.135 6.74 21.68 10.14
5/11/2021 5:15:00 AM 9.06 48.308 0.136 6.74 21.8 10.15
5/11/2021 5:30:00 AM 9.02 48.236 0.136 6.74 21.49 10.16
5/11/2021 5:45:00 AM 8.97 48.146 0.136 6.74 21.44 10.17
5/11/2021 6:00:00 AM 8.92 48.056 0.136 6.75 21.6 10.18
5/11/2021 6:15:00 AM 8.87 47.966 0.137 6.74 20.48 10.2
5/11/2021 6:30:00 AM 8.83 47.894 0.137 6.75 20.9 10.22
5/11/2021 6:45:00 AM 8.78 47.804 0.137 6.75 21.06 10.24
5/11/2021 7:00:00 AM 8.74 47.732 0.137 6.76 20.04 10.26
5/11/2021 7:15:00 AM 8.71 47.678 0.137 6.76 20.04 10.28
5/11/2021 7:30:00 AM 8.69 47.642 0.138 6.77 19.89 10.3
5/11/2021 7:45:00 AM 8.67 47.606 0.138 6.77 19.44 10.32
5/11/2021 8:00:00 AM 8.66 47.588 0.138 6.77 19.68 10.34
5/11/2021 8:15:00 AM 8.65 47.57 0.138 6.78 19.01 10.36
5/11/2021 8:30:00 AM 8.64 47.552 0.138 6.78 18.62 10.38
5/11/2021 8:45:00 AM 8.65 47.57 0.138 6.78 18.48 10.4
5/11/2021 9:00:00 AM 8.68 47.624 0.139 6.79 18.11 10.42
5/11/2021 9:15:00 AM 8.69 47.642 0.138 6.8 17.98 10.43
5/11/2021 9:30:00 AM 8.69 47.642 0.139 6.79 18.06 10.45
5/11/2021 9:45:00 AM 8.72 47.696 0.139 6.8 17.79 10.47
5/11/2021 10:00:00 AM 8.74 47.732 0.139 6.8 17.71 10.48
5/11/2021 10:15:00 AM 8.74 47.732 0.139 6.8 17.26 10.49
5/11/2021 10:30:00 AM 8.76 47.768 0.139 6.81 17.28 10.51
5/11/2021 10:45:00 AM 8.82 47.876 0.14 6.81 16.34 10.53
5/11/2021 11:00:00 AM 8.91 48.038 0.14 6.82 16.59 10.54
5/11/2021 11:15:00 AM 9.05 48.29 0.14 6.84 16.23 10.55
5/11/2021 11:30:00 AM 9.09 48.362 0.14 6.83 15.84 10.56
5/11/2021 11:45:00 AM 9.09 48.362 0.14 6.81 16.16 10.57
5/11/2021 12:00:00 PM 9.13 48.434 0.14 6.83 15.98 10.58
5/11/2021 12:15:00 PM 9.09 48.362 0.14 6.83 15.68 10.58
5/11/2021 12:30:00 PM 9.11 48.398 0.14 6.84 15.86 10.59
5/11/2021 12:45:00 PM 9.24 48.632 0.14 6.85 15.63 10.61
5/11/2021 1:00:00 PM 9.36 48.848 0.14 6.86 15.7 10.61
5/11/2021 1:15:00 PM 9.39 48.902 0.141 6.84 15.21 10.61
5/11/2021 1:30:00 PM 9.38 48.884 0.141 6.84 14.91 10.61
5/11/2021 1:45:00 PM 9.56 49.208 0.141 6.87 15.28 10.61
5/11/2021 2:00:00 PM 9.64 49.352 0.141 6.87 14.84 10.62
5/11/2021 2:15:00 PM 9.68 49.424 0.141 6.86 14.75 10.6
5/11/2021 2:30:00 PM 9.67 49.406 0.142 6.85 15.29 10.61
5/11/2021 2:45:00 PM 9.64 49.352 0.141 6.86 14.4 10.61
5/11/2021 3:00:00 PM 9.73 49.514 0.142 6.86 13.99 10.61
5/11/2021 3:15:00 PM 9.79 49.622 0.142 6.88 14.08 10.6
5/11/2021 3:30:00 PM 9.8 49.64 0.142 6.87 14.26 10.6
5/11/2021 3:45:00 PM 9.95 49.91 0.142 6.89 14.37 10.6
5/11/2021 4:00:00 PM 10.02 50.036 0.142 6.88 14.39 10.59
5/11/2021 4:15:00 PM 10.07 50.126 0.143 6.88 14.62 10.59
5/11/2021 4:30:00 PM 10.02 50.036 0.143 6.86 14.79 10.58
5/11/2021 4:45:00 PM 10.08 50.144 0.143 6.87 14.71 10.57
5/11/2021 5:00:00 PM 10.04 50.072 0.143 6.87 15.4 10.56
5/11/2021 5:15:00 PM 10 50 0.143 6.86 16.6 10.55
5/11/2021 5:30:00 PM 9.95 49.91 0.143 6.86 16.5 10.53
5/11/2021 5:45:00 PM 9.88 49.784 0.144 6.85 16.56 10.52
5/11/2021 6:00:00 PM 9.87 49.766 0.144 6.87 16.85 10.51
5/11/2021 6:15:00 PM 9.84 49.712 0.144 6.87 16.97 10.5
5/11/2021 6:30:00 PM 9.77 49.586 0.144 6.86 17.12 10.5
5/11/2021 6:45:00 PM 9.74 49.532 0.144 6.87 16.05 10.5
5/11/2021 7:00:00 PM 9.7 49.46 0.145 6.87 16.65 10.49
5/11/2021 7:15:00 PM 9.65 49.37 0.145 6.87 16.25 10.48
5/11/2021 7:30:00 PM 9.6 49.28 0.145 6.86 15.55 10.47
5/11/2021 7:45:00 PM 9.55 49.19 0.145 6.86 15.81 10.46
5/11/2021 8:00:00 PM 9.5 49.1 0.145 6.85 15.25 10.45
5/11/2021 8:15:00 PM 9.46 49.028 0.145 6.86 15.29 10.43
5/11/2021 8:30:00 PM 9.42 48.956 0.145 6.86 15.14 10.42
5/11/2021 8:45:00 PM 9.39 48.902 0.146 6.86 15.32 10.41
5/11/2021 9:00:00 PM 9.37 48.866 0.146 6.86 15.36 10.41
5/11/2021 9:15:00 PM 9.34 48.812 0.146 6.85 14.91 10.4
5/11/2021 9:30:00 PM 9.32 48.776 0.146 6.85 15.19 10.4
5/11/2021 9:45:00 PM 9.3 48.74 0.146 6.85 14.78 10.4
5/11/2021 10:00:00 PM 9.28 48.704 0.146 6.86 14.53 10.39
5/11/2021 10:15:00 PM 9.25 48.65 0.147 6.87 14.52 10.39
5/11/2021 10:30:00 PM 9.23 48.614 0.146 6.86 14.12 10.39
5/11/2021 10:45:00 PM 9.2 48.56 0.147 6.85 13.79 10.38
5/11/2021 11:00:00 PM 9.19 48.542 0.147 6.84 14.19 10.38
5/11/2021 11:15:00 PM 9.16 48.488 0.147 6.84 13.64 10.38
5/11/2021 11:30:00 PM 9.13 48.434 0.147 6.85 13.75 10.37
5/11/2021 11:45:00 PM 9.11 48.398 0.147 6.85 13.67 10.37
5/12/2021 12:00:00 AM 9.08 48.344 0.147 6.85 13.89 10.38
5/12/2021 12:15:00 AM 9.05 48.29 0.147 6.86 13.64 10.38
5/12/2021 12:30:00 AM 9.03 48.254 0.148 6.85 13.71 10.38
5/12/2021 12:45:00 AM 9 48.2 0.148 6.84 13.28 10.38
5/12/2021 1:00:00 AM 8.97 48.146 0.148 6.84 13.15 10.38
5/12/2021 1:15:00 AM 8.94 48.092 0.148 6.84 13.19 10.38
5/12/2021 1:30:00 AM 8.9 48.02 0.148 6.85 13.36 10.38
5/12/2021 1:45:00 AM 8.87 47.966 0.148 6.84 13.19 10.38
5/12/2021 2:00:00 AM 8.84 47.912 0.148 6.85 13.14 10.38
5/12/2021 2:15:00 AM 8.81 47.858 0.148 6.85 13.33 10.39
5/12/2021 2:30:00 AM 8.77 47.786 0.148 6.86 13.13 10.39
5/12/2021 2:45:00 AM 8.74 47.732 0.149 6.85 13.14 10.39
5/12/2021 3:00:00 AM 8.71 47.678 0.149 6.85 13.21 10.4
5/12/2021 3:15:00 AM 8.68 47.624 0.149 6.86 12.98 10.41
5/12/2021 3:30:00 AM 8.64 47.552 0.149 6.86 13.55 10.41
5/12/2021 3:45:00 AM 8.61 47.498 0.149 6.86 13.16 10.42
5/12/2021 4:00:00 AM 8.57 47.426 0.149 6.86 13.23 10.42
5/12/2021 4:15:00 AM 8.53 47.354 0.149 6.85 13.09 10.43
5/12/2021 4:30:00 AM 8.49 47.282 0.15 6.86 12.87 10.44
5/12/2021 4:45:00 AM 8.45 47.21 0.15 6.86 12.94 10.45
5/12/2021 5:00:00 AM 8.4 47.12 0.15 6.86 13.35 10.46
5/12/2021 5:15:00 AM 8.36 47.048 0.15 6.86 13.22 10.47
5/12/2021 5:30:00 AM 8.33 46.994 0.15 6.86 12.73 10.48
5/12/2021 5:45:00 AM 8.3 46.94 0.15 6.86 12.5 10.49
5/12/2021 6:00:00 AM 8.26 46.868 0.15 6.86 12.98 10.5
5/12/2021 6:15:00 AM 8.22 46.796 0.15 6.87 12.87 10.51
5/12/2021 6:30:00 AM 8.18 46.724 0.151 6.86 12.46 10.53
5/12/2021 6:45:00 AM 8.14 46.652 0.151 6.87 12.02 10.55
5/12/2021 7:00:00 AM 8.12 46.616 0.151 6.88 12.16 10.58
5/12/2021 7:15:00 AM 8.12 46.616 0.151 6.87 12.17 10.61
5/12/2021 7:30:00 AM 8.09 46.562 0.151 6.88 11.64 10.63
5/12/2021 7:45:00 AM 8.07 46.526 0.151 6.89 11.49 10.65
5/12/2021 8:00:00 AM 8.06 46.508 0.151 6.89 11.34 10.68
5/12/2021 8:15:00 AM 8.07 46.526 0.151 6.89 11.04 10.7
5/12/2021 8:30:00 AM 8.07 46.526 0.151 6.9 11.01 10.72
5/12/2021 8:45:00 AM 8.1 46.58 0.151 6.9 10.74 10.74
5/12/2021 9:00:00 AM 8.12 46.616 0.152 6.9 10.35 10.76
5/12/2021 9:15:00 AM 8.17 46.706 0.152 6.91 10.54 10.77
5/12/2021 9:30:00 AM 8.23 46.814 0.152 6.91 10.76 10.79
5/12/2021 9:45:00 AM 8.29 46.922 0.152 6.91 10.26 10.81
5/12/2021 10:00:00 AM 8.37 47.066 0.152 6.92 10.11 10.83
5/12/2021 10:15:00 AM 8.45 47.21 0.152 6.92 10.11 10.84
5/12/2021 10:30:00 AM 8.54 47.372 0.152 6.93 10.05 10.85
5/12/2021 10:45:00 AM 8.64 47.552 0.152 6.92 9.68 10.86
5/12/2021 11:00:00 AM 8.74 47.732 0.152 6.93 9.61 10.88
5/12/2021 11:15:00 AM 8.86 47.948 0.152 6.94 9.67 10.88
5/12/2021 11:30:00 AM 8.97 48.146 0.152 6.93 9.44 10.89
5/12/2021 11:45:00 AM 9.1 48.38 0.152 6.94 9.32 10.9
5/12/2021 12:00:00 PM 9.23 48.614 0.152 6.95 9.22 10.9
5/12/2021 12:15:00 PM 9.29 48.722 0.153 6.94 9.64 10.91
5/12/2021 12:30:00 PM 9.43 48.974 0.153 6.95 9.25 10.91
5/12/2021 12:45:00 PM 9.57 49.226 0.153 6.96 9.18 10.91
5/12/2021 1:00:00 PM 9.69 49.442 0.153 6.95 8.83 10.91
5/12/2021 1:15:00 PM 9.83 49.694 0.153 6.97 9.21 10.91
5/12/2021 1:30:00 PM 9.86 49.748 0.153 6.95 9.01 10.91
5/12/2021 1:45:00 PM 9.92 49.856 0.153 6.95 8.96 10.91
5/12/2021 2:00:00 PM 9.94 49.892 0.153 6.95 8.86 10.91
5/12/2021 2:15:00 PM 9.99 49.982 0.153 6.95 8.67 10.91
5/12/2021 2:30:00 PM 10.01 50.018 0.153 6.95 8.73 10.9
5/12/2021 2:45:00 PM 10.03 50.054 0.154 6.95 8.73 10.9
5/12/2021 3:00:00 PM 10.08 50.144 0.154 6.96 9.4 10.89
5/12/2021 3:15:00 PM 10.08 50.144 0.154 6.95 9.56 10.88
5/12/2021 3:30:00 PM 10.12 50.216 0.154 6.96 8.85 10.88
5/12/2021 3:45:00 PM 10.13 50.234 0.154 6.96 8.53 10.87
5/12/2021 4:00:00 PM 10.14 50.252 0.154 6.95 8.96 10.86
5/12/2021 4:15:00 PM 10.21 50.378 0.154 6.96 8.36 10.85
5/12/2021 4:30:00 PM 10.24 50.432 0.154 6.95 8.49 10.83
5/12/2021 4:45:00 PM 10.3 50.54 0.154 6.96 8.42 10.82
5/12/2021 5:00:00 PM 10.36 50.648 0.154 6.97 8.49 10.82
5/12/2021 5:15:00 PM 10.37 50.666 0.154 6.96 8.25 10.8
5/12/2021 5:30:00 PM 10.36 50.648 0.155 6.95 8.2 10.78
5/12/2021 5:45:00 PM 10.37 50.666 0.155 6.96 8.34 10.78
5/12/2021 6:00:00 PM 10.39 50.702 0.155 6.96 8.34 10.77
5/12/2021 6:15:00 PM 10.4 50.72 0.155 6.96 8.37 10.74
5/12/2021 6:30:00 PM 10.38 50.684 0.155 6.96 8.33 10.73
5/12/2021 6:45:00 PM 10.31 50.558 0.155 6.95 8.06 10.7
5/12/2021 7:00:00 PM 10.22 50.396 0.155 6.94 8.09 10.67
5/12/2021 7:15:00 PM 10.16 50.288 0.156 6.94 8.58 10.65
5/12/2021 7:30:00 PM 10.11 50.198 0.156 6.95 8.38 10.62
5/12/2021 7:45:00 PM 10.08 50.144 0.156 6.94 8.16 10.6
5/12/2021 8:00:00 PM 10.06 50.108 0.156 6.95 8.38 10.57
5/12/2021 8:15:00 PM 10.04 50.072 0.156 6.95 8.36 10.54
5/12/2021 8:30:00 PM 10.02 50.036 0.156 6.94 8.36 10.52
5/12/2021 8:45:00 PM 10 50 0.156 6.92 8.24 10.49
5/12/2021 9:00:00 PM 9.97 49.946 0.157 6.93 8.45 10.48
5/12/2021 9:15:00 PM 9.93 49.874 0.157 6.92 8.69 10.45
5/12/2021 9:30:00 PM 9.9 49.82 0.157 6.92 8.98 10.44
5/12/2021 9:45:00 PM 9.87 49.766 0.157 6.92 9.16 10.43
5/12/2021 10:00:00 PM 9.84 49.712 0.157 6.92 8.63 10.41
5/12/2021 10:15:00 PM 9.82 49.676 0.157 6.92 8.99 10.4
5/12/2021 10:30:00 PM 9.79 49.622 0.157 6.92 8.91 10.39
5/12/2021 10:45:00 PM 9.76 49.568 0.157 6.92 8.66 10.38
5/12/2021 11:00:00 PM 9.71 49.478 0.158 6.91 8.65 10.37
5/12/2021 11:15:00 PM 9.67 49.406 0.158 6.91 8.87 10.37
5/12/2021 11:30:00 PM 9.61 49.298 0.158 6.92 8.89 10.37
5/12/2021 11:45:00 PM 9.56 49.208 0.158 6.91 8.81 10.36
5/13/2021 12:00:00 AM 9.52 49.136 0.158 6.9 8.49 10.36
5/13/2021 12:15:00 AM 9.47 49.046 0.159 6.91 8.88 10.36
5/13/2021 12:30:00 AM 9.43 48.974 0.159 6.91 9.56 10.36
5/13/2021 12:45:00 AM 9.39 48.902 0.159 6.91 8.73 10.37
5/13/2021 1:00:00 AM 9.35 48.83 0.159 6.91 8.56 10.36
5/13/2021 1:15:00 AM 9.31 48.758 0.159 6.92 8.96 10.36
5/13/2021 1:30:00 AM 9.28 48.704 0.159 6.92 9.05 10.36
5/13/2021 1:45:00 AM 9.24 48.632 0.159 6.91 8.75 10.36
5/13/2021 2:00:00 AM 9.2 48.56 0.159 6.92 8.95 10.36
5/13/2021 2:15:00 AM 9.17 48.506 0.159 6.92 9.07 10.36
5/13/2021 2:30:00 AM 9.13 48.434 0.16 6.9 8.98 10.36
5/13/2021 2:45:00 AM 9.1 48.38 0.16 6.92 8.72 10.36
5/13/2021 3:00:00 AM 9.06 48.308 0.16 6.92 8.68 10.36
5/13/2021 3:15:00 AM 9.02 48.236 0.16 6.92 8.95 10.36
5/13/2021 3:30:00 AM 8.99 48.182 0.16 6.92 8.9 10.36
5/13/2021 3:45:00 AM 8.95 48.11 0.16 6.91 8.92 10.36
5/13/2021 4:00:00 AM 8.91 48.038 0.16 6.91 9.02 10.37
5/13/2021 4:15:00 AM 8.88 47.984 0.16 6.91 8.76 10.37
5/13/2021 4:30:00 AM 8.84 47.912 0.16 6.92 8.94 10.37
5/13/2021 4:45:00 AM 8.8 47.84 0.161 6.91 9.26 10.38
5/13/2021 5:00:00 AM 8.76 47.768 0.161 6.92 8.79 10.39
5/13/2021 5:15:00 AM 8.72 47.696 0.161 6.92 8.65 10.4
5/13/2021 5:30:00 AM 8.68 47.624 0.161 6.92 9.26 10.4
5/13/2021 5:45:00 AM 8.63 47.534 0.161 6.92 9 10.41
5/13/2021 6:00:00 AM 8.59 47.462 0.161 6.91 8.79 10.42
5/13/2021 6:15:00 AM 8.55 47.39 0.161 6.93 8.78 10.43
5/13/2021 6:30:00 AM 8.51 47.318 0.161 6.92 8.64 10.45
5/13/2021 6:45:00 AM 8.48 47.264 0.161 6.93 8.49 10.47
5/13/2021 7:00:00 AM 8.45 47.21 0.161 6.93 8.22 10.5
5/13/2021 7:15:00 AM 8.43 47.174 0.162 6.93 8.26 10.52
5/13/2021 7:30:00 AM 8.41 47.138 0.161 6.93 8.25 10.55
5/13/2021 7:45:00 AM 8.41 47.138 0.162 6.94 8.17 10.57
5/13/2021 8:00:00 AM 8.43 47.174 0.162 6.94 8.25 10.6
5/13/2021 8:15:00 AM 8.46 47.228 0.162 6.95 8.25 10.62
5/13/2021 8:30:00 AM 8.51 47.318 0.162 6.96 8.03 10.64
5/13/2021 8:45:00 AM 8.57 47.426 0.162 6.95 7.75 10.66
5/13/2021 9:00:00 AM 8.64 47.552 0.163 6.97 7.6 10.67
5/13/2021 9:15:00 AM 8.72 47.696 0.163 6.97 7.6 10.69
5/13/2021 9:30:00 AM 8.81 47.858 0.163 6.98 7.34 10.7
5/13/2021 9:45:00 AM 8.92 48.056 0.163 6.98 7.38 10.72
5/13/2021 10:00:00 AM 9.02 48.236 0.163 7 7.47 10.72
5/13/2021 10:15:00 AM 9.13 48.434 0.163 6.98 7.26 10.74
5/13/2021 10:30:00 AM 9.25 48.65 0.163 7 7.16 10.75
5/13/2021 10:45:00 AM 9.38 48.884 0.163 7 7.24 10.76
5/13/2021 11:00:00 AM 9.5 49.1 0.163 7.01 7.07 10.76
5/13/2021 11:15:00 AM 9.46 49.028 0.163 6.99 7.25 10.75
5/13/2021 11:30:00 AM 9.39 48.902 0.163 6.97 7.19 10.76
5/13/2021 11:45:00 AM 9.46 49.028 0.163 7 7.23 10.79
5/13/2021 12:00:00 PM 9.41 48.938 0.163 6.98 6.86 10.81
5/13/2021 12:15:00 PM 9.4 48.92 0.163 6.98 6.71 10.81
5/13/2021 12:30:00 PM 9.44 48.992 0.163 6.99 6.86 10.83
5/13/2021 12:45:00 PM 9.45 49.01 0.163 6.99 6.86 10.85
5/13/2021 1:00:00 PM 9.51 49.118 0.163 7 6.77 10.86
5/13/2021 1:15:00 PM 9.57 49.226 0.163 7 6.58 10.88
5/13/2021 1:30:00 PM 9.72 49.496 0.163 7.02 6.7 10.9
5/13/2021 1:45:00 PM 9.93 49.874 0.163 7.03 6.53 10.89
5/13/2021 2:00:00 PM 9.99 49.982 0.163 7.02 6.57 10.89
5/13/2021 2:15:00 PM 10.03 50.054 0.163 7.01 6.4 10.89
5/13/2021 2:30:00 PM 10.05 50.09 0.163 7 6.52 10.89
5/13/2021 2:45:00 PM 10.14 50.252 0.164 7.01 6.5 10.88
5/13/2021 3:00:00 PM 10.24 50.432 0.164 7.02 6.64 10.88
5/13/2021 3:15:00 PM 10.21 50.378 0.164 7 6.56 10.86
5/13/2021 3:30:00 PM 10.28 50.504 0.164 7.02 6.64 10.86
5/13/2021 3:45:00 PM 10.34 50.612 0.164 7.02 6.44 10.86
5/13/2021 4:00:00 PM 10.47 50.846 0.164 7.03 6.5 10.86
5/13/2021 4:15:00 PM 10.5 50.9 0.164 7.02 6.3 10.86
5/13/2021 4:30:00 PM 10.53 50.954 0.164 7.02 6.42 10.86
5/13/2021 4:45:00 PM 10.52 50.936 0.164 7.02 6.39 10.86
5/13/2021 5:00:00 PM 10.44 50.792 0.164 7 6.35 10.83
5/13/2021 5:15:00 PM 10.31 50.558 0.164 6.99 6.27 10.8
5/13/2021 5:30:00 PM 10.2 50.36 0.164 6.99 6.17 10.77
5/13/2021 5:45:00 PM 10.18 50.324 0.165 6.99 6.24 10.77
5/13/2021 6:00:00 PM 10.18 50.324 0.165 7 6.22 10.77
5/13/2021 6:15:00 PM 10.19 50.342 0.165 7.01 6.42 10.75
5/13/2021 6:30:00 PM 10.19 50.342 0.165 7 6.31 10.73
5/13/2021 6:45:00 PM 10.17 50.306 0.165 6.99 6.3 10.72
5/13/2021 7:00:00 PM 10.16 50.288 0.165 7 6.59 10.7
5/13/2021 7:15:00 PM 10.14 50.252 0.165 7 6.27 10.69
5/13/2021 7:30:00 PM 10.12 50.216 0.165 6.99 6.58 10.65
5/13/2021 7:45:00 PM 10.09 50.162 0.166 6.98 7.4 10.62
5/13/2021 8:00:00 PM 10.06 50.108 0.166 6.98 6.66 10.58
5/13/2021 8:15:00 PM 10.03 50.054 0.166 6.97 6.62 10.54
5/13/2021 8:30:00 PM 10.02 50.036 0.166 6.97 6.63 10.52
5/13/2021 8:45:00 PM 10.01 50.018 0.166 6.97 6.89 10.49
5/13/2021 9:00:00 PM 9.99 49.982 0.166 6.96 6.92 10.48
5/13/2021 9:15:00 PM 9.97 49.946 0.167 6.96 6.83 10.46
5/13/2021 9:30:00 PM 9.94 49.892 0.167 6.95 6.75 10.44
5/13/2021 9:45:00 PM 9.91 49.838 0.167 6.95 6.95 10.42
5/13/2021 10:00:00 PM 9.88 49.784 0.167 6.94 6.84 10.41
5/13/2021 10:15:00 PM 9.84 49.712 0.167 6.95 6.93 10.4
5/13/2021 10:30:00 PM 9.8 49.64 0.167 6.94 7.44 10.4
5/13/2021 10:45:00 PM 9.75 49.55 0.167 6.95 7.32 10.39
5/13/2021 11:00:00 PM 9.71 49.478 0.167 6.95 7.1 10.37
5/13/2021 11:15:00 PM 9.67 49.406 0.168 6.94 7.1 10.37
5/13/2021 11:30:00 PM 9.64 49.352 0.168 6.95 7.24 10.37
5/13/2021 11:45:00 PM 9.61 49.298 0.168 6.95 7 10.36
5/14/2021 12:00:00 AM 9.57 49.226 0.168 6.96 6.86 10.36
5/14/2021 12:15:00 AM 9.53 49.154 0.168 6.96 6.8 10.36
5/14/2021 12:30:00 AM 9.49 49.082 0.168 6.95 7.28 10.36
5/14/2021 12:45:00 AM 9.45 49.01 0.168 6.95 7.04 10.35
5/14/2021 1:00:00 AM 9.41 48.938 0.168 6.95 7.23 10.35
5/14/2021 1:15:00 AM 9.37 48.866 0.168 6.95 6.91 10.35
5/14/2021 1:30:00 AM 9.33 48.794 0.168 6.94 7.12 10.34
5/14/2021 1:45:00 AM 9.29 48.722 0.169 6.93 6.8 10.35
5/14/2021 2:00:00 AM 9.26 48.668 0.169 6.95 7.32 10.35
5/14/2021 2:15:00 AM 9.22 48.596 0.169 6.94 6.87 10.35
5/14/2021 2:30:00 AM 9.17 48.506 0.169 6.95 7.36 10.35
5/14/2021 2:45:00 AM 9.13 48.434 0.169 6.95 7.57 10.36
5/14/2021 3:00:00 AM 9.09 48.362 0.169 6.95 7.84 10.37
5/14/2021 3:15:00 AM 9.05 48.29 0.169 6.96 8.49 10.37
5/14/2021 3:30:00 AM 9 48.2 0.169 6.95 9.06 10.37
5/14/2021 3:45:00 AM 8.96 48.128 0.17 6.95 8.91 10.38
5/14/2021 4:00:00 AM 8.92 48.056 0.169 6.95 9.29 10.38
5/14/2021 4:15:00 AM 8.88 47.984 0.17 6.96 8.75 10.38
5/14/2021 4:30:00 AM 8.84 47.912 0.17 6.97 8.88 10.38
5/14/2021 4:45:00 AM 8.8 47.84 0.17 6.95 8.29 10.39
5/14/2021 5:00:00 AM 8.76 47.768 0.17 6.96 7.76 10.4
5/14/2021 5:15:00 AM 8.73 47.714 0.17 6.96 7.58 10.4
5/14/2021 5:30:00 AM 8.69 47.642 0.17 6.96 7.63 10.4
5/14/2021 5:45:00 AM 8.65 47.57 0.17 6.96 7.37 10.41
5/14/2021 6:00:00 AM 8.62 47.516 0.17 6.96 7.25 10.41
5/14/2021 6:15:00 AM 8.58 47.444 0.171 6.97 7.23 10.43
5/14/2021 6:30:00 AM 8.55 47.39 0.171 6.96 7.11 10.44
5/14/2021 6:45:00 AM 8.53 47.354 0.171 6.97 7.04 10.47
5/14/2021 7:00:00 AM 8.52 47.336 0.171 6.98 6.66 10.49
5/14/2021 7:15:00 AM 8.51 47.318 0.171 6.98 6.88 10.51
5/14/2021 7:30:00 AM 8.52 47.336 0.171 6.99 6.66 10.54
5/14/2021 7:45:00 AM 8.53 47.354 0.171 6.98 6.53 10.57
5/14/2021 8:00:00 AM 8.57 47.426 0.171 7 6.43 10.6
5/14/2021 8:15:00 AM 8.63 47.534 0.171 7 6.56 10.61
5/14/2021 8:30:00 AM 8.7 47.66 0.171 7.01 6.18 10.63
5/14/2021 8:45:00 AM 8.78 47.804 0.172 7.01 6.2 10.65
5/14/2021 9:00:00 AM 8.88 47.984 0.172 7.01 6.11 10.67
5/14/2021 9:15:00 AM 8.99 48.182 0.171 7.02 6.3 10.68
5/14/2021 9:30:00 AM 9.12 48.416 0.172 7.03 5.99 10.69
5/14/2021 9:45:00 AM 9.26 48.668 0.172 7.02 6.1 10.7
5/14/2021 10:00:00 AM 9.4 48.92 0.172 7.03 5.85 10.71
5/14/2021 10:15:00 AM 9.54 49.172 0.172 7.03 6.1 10.71
5/14/2021 10:30:00 AM 9.7 49.46 0.172 7.03 5.94 10.72
5/14/2021 10:45:00 AM 9.87 49.766 0.172 7.04 5.95 10.72
5/14/2021 11:00:00 AM 10.08 50.144 0.172 7.04 5.71 10.73
5/14/2021 11:15:00 AM 10.31 50.558 0.172 7.06 5.77 10.73
5/14/2021 11:30:00 AM 10.54 50.972 0.172 7.07 5.72 10.74
5/14/2021 11:45:00 AM 10.48 50.864 0.172 7.05 5.69 10.71
5/14/2021 12:00:00 PM 10.34 50.612 0.172 7.02 5.59 10.72
5/14/2021 12:15:00 PM 10.27 50.486 0.172 7.01 5.73 10.73
5/14/2021 12:30:00 PM 10.28 50.504 0.172 7.02 5.61 10.76
5/14/2021 12:45:00 PM 10.37 50.666 0.172 7.04 5.81 10.78
5/14/2021 1:00:00 PM 10.58 51.044 0.172 7.06 5.57 10.79
5/14/2021 1:15:00 PM 10.66 51.188 0.172 7.07 5.69 10.79
5/14/2021 1:30:00 PM 11.02 51.836 0.172 7.09 5.62 10.8
5/14/2021 1:45:00 PM 11.28 52.304 0.172 7.09 5.71 10.78
5/14/2021 2:00:00 PM 11.32 52.376 0.172 7.08 5.52 10.75
5/14/2021 2:15:00 PM 11.25 52.25 0.172 7.06 5.55 10.74
5/14/2021 2:30:00 PM 11.31 52.358 0.172 7.05 5.73 10.75
5/14/2021 2:45:00 PM 11.48 52.664 0.172 7.07 5.81 10.76
5/14/2021 3:00:00 PM 11.53 52.754 0.172 7.06 5.61 10.74
5/14/2021 3:15:00 PM 11.61 52.898 0.173 7.07 5.68 10.72
5/14/2021 3:30:00 PM 11.59 52.862 0.172 7.06 5.79 10.7
5/14/2021 3:45:00 PM 11.56 52.808 0.172 7.05 5.74 10.69
5/14/2021 4:00:00 PM 11.58 52.844 0.172 7.05 5.59 10.68
5/14/2021 4:15:00 PM 11.61 52.898 0.173 7.05 5.95 10.69
5/14/2021 4:30:00 PM 11.63 52.934 0.173 7.07 6 10.68
5/14/2021 4:45:00 PM 11.61 52.898 0.173 7.05 5.88 10.67
5/14/2021 5:00:00 PM 11.57 52.826 0.173 7.05 5.75 10.66
5/14/2021 5:15:00 PM 11.52 52.736 0.173 7.05 5.66 10.65
5/14/2021 5:30:00 PM 11.48 52.664 0.173 7.04 5.64 10.63
5/14/2021 5:45:00 PM 11.44 52.592 0.173 7.04 5.61 10.61
5/14/2021 6:00:00 PM 11.43 52.574 0.173 7.04 5.4 10.6
5/14/2021 6:15:00 PM 11.41 52.538 0.173 7.05 5.35 10.58
5/14/2021 6:30:00 PM 11.4 52.52 0.173 7.05 5.51 10.56
5/14/2021 6:45:00 PM 11.39 52.502 0.174 7.04 5.67 10.54
5/14/2021 7:00:00 PM 11.37 52.466 0.174 7.04 5.52 10.51
5/14/2021 7:15:00 PM 11.37 52.466 0.174 7.04 5.67 10.48
5/14/2021 7:30:00 PM 11.36 52.448 0.174 7.03 5.6 10.45
5/14/2021 7:45:00 PM 11.34 52.412 0.174 7.03 5.63 10.4
5/14/2021 8:00:00 PM 11.31 52.358 0.174 7.02 5.92 10.36
5/14/2021 8:15:00 PM 11.26 52.268 0.174 7.02 5.93 10.32
5/14/2021 8:30:00 PM 11.21 52.178 0.175 7 5.78 10.29
5/14/2021 8:45:00 PM 11.15 52.07 0.175 7 5.89 10.25
5/14/2021 9:00:00 PM 11.09 51.962 0.175 6.99 6.25 10.22
5/14/2021 9:15:00 PM 11.03 51.854 0.175 6.99 6.16 10.2
5/14/2021 9:30:00 PM 10.97 51.746 0.175 6.98 6.24 10.19
5/14/2021 9:45:00 PM 10.91 51.638 0.175 6.98 6.07 10.18
5/14/2021 10:00:00 PM 10.85 51.53 0.176 6.98 6.1 10.16
5/14/2021 10:15:00 PM 10.8 51.44 0.176 6.98 6.19 10.16
5/14/2021 10:30:00 PM 10.75 51.35 0.176 6.98 6.33 10.14
5/14/2021 10:45:00 PM 10.7 51.26 0.176 6.98 6.17 10.13
5/14/2021 11:00:00 PM 10.66 51.188 0.176 6.97 6.21 10.12
5/14/2021 11:15:00 PM 10.62 51.116 0.176 6.98 6.56 10.11
5/14/2021 11:30:00 PM 10.58 51.044 0.176 6.97 6.69 10.11
5/14/2021 11:45:00 PM 10.54 50.972 0.176 6.98 6.23 10.1
5/15/2021 12:00:00 AM 10.51 50.918 0.177 6.98 6.37 10.1
5/15/2021 12:15:00 AM 10.47 50.846 0.176 6.98 6.74 10.09
5/15/2021 12:30:00 AM 10.42 50.756 0.177 6.98 6.27 10.09
5/15/2021 12:45:00 AM 10.38 50.684 0.177 6.97 6.23 10.08
5/15/2021 1:00:00 AM 10.34 50.612 0.177 6.98 6.37 10.08
5/15/2021 1:15:00 AM 10.29 50.522 0.177 6.96 6.38 10.08
5/15/2021 1:30:00 AM 10.25 50.45 0.177 6.97 6.47 10.08
5/15/2021 1:45:00 AM 10.21 50.378 0.177 6.96 6.39 10.07
5/15/2021 2:00:00 AM 10.17 50.306 0.178 6.96 6.46 10.07
5/15/2021 2:15:00 AM 10.13 50.234 0.178 6.97 6.61 10.07
5/15/2021 2:30:00 AM 10.09 50.162 0.178 6.97 6.62 10.08
5/15/2021 2:45:00 AM 10.05 50.09 0.178 6.97 6.7 10.08
5/15/2021 3:00:00 AM 10 50 0.178 6.98 6.85 10.09
5/15/2021 3:15:00 AM 9.95 49.91 0.178 6.97 6.23 10.09
5/15/2021 3:30:00 AM 9.91 49.838 0.178 6.97 6.62 10.09
5/15/2021 3:45:00 AM 9.86 49.748 0.178 6.98 6.96 10.09
5/15/2021 4:00:00 AM 9.82 49.676 0.178 6.97 6.61 10.1
5/15/2021 4:15:00 AM 9.77 49.586 0.179 6.98 6.38 10.11
5/15/2021 4:30:00 AM 9.73 49.514 0.179 6.98 6.65 10.11
5/15/2021 4:45:00 AM 9.68 49.424 0.179 6.99 6.63 10.12
5/15/2021 5:00:00 AM 9.63 49.334 0.179 6.98 6.63 10.12
5/15/2021 5:15:00 AM 9.58 49.244 0.179 6.98 6.97 10.13
5/15/2021 5:30:00 AM 9.53 49.154 0.179 6.99 6.32 10.14
5/15/2021 5:45:00 AM 9.47 49.046 0.179 6.97 6.48 10.15
5/15/2021 6:00:00 AM 9.42 48.956 0.179 6.98 6.24 10.16
5/15/2021 6:15:00 AM 9.37 48.866 0.18 6.97 6.14 10.18
5/15/2021 6:30:00 AM 9.32 48.776 0.179 6.99 6 10.2
5/15/2021 6:45:00 AM 9.28 48.704 0.18 6.99 6.15 10.24
5/15/2021 7:00:00 AM 9.26 48.668 0.18 6.99 6.11 10.27
5/15/2021 7:15:00 AM 9.24 48.632 0.18 7.01 6 10.31
5/15/2021 7:30:00 AM 9.23 48.614 0.18 7.01 5.63 10.34
5/15/2021 7:45:00 AM 9.24 48.632 0.18 7.02 5.87 10.38
5/15/2021 8:00:00 AM 9.28 48.704 0.18 7.01 5.73 10.41
5/15/2021 8:15:00 AM 9.33 48.794 0.18 7.03 5.52 10.45
5/15/2021 8:30:00 AM 9.4 48.92 0.18 7.04 5.61 10.47
5/15/2021 8:45:00 AM 9.5 49.1 0.18 7.05 5.44 10.49
5/15/2021 9:00:00 AM 9.6 49.28 0.18 7.05 5.54 10.51
5/15/2021 9:15:00 AM 9.71 49.478 0.18 7.06 5.66 10.53
5/15/2021 9:30:00 AM 9.85 49.73 0.18 7.06 5.43 10.55
5/15/2021 9:45:00 AM 10 50 0.18 7.07 5.54 10.56
5/15/2021 10:00:00 AM 10.15 50.27 0.18 7.06 5.34 10.57
5/15/2021 10:15:00 AM 10.32 50.576 0.18 7.08 5.44 10.59
5/15/2021 10:30:00 AM 10.46 50.828 0.18 7.07 5.28 10.59
5/15/2021 10:45:00 AM 10.62 51.116 0.18 7.07 5.27 10.6
5/15/2021 11:00:00 AM 10.77 51.386 0.18 7.07 5.22 10.61
5/15/2021 11:15:00 AM 10.84 51.512 0.181 7.07 5.23 10.6
5/15/2021 11:30:00 AM 10.94 51.692 0.18 7.07 5.32 10.6
5/15/2021 11:45:00 AM 11.06 51.908 0.181 7.07 5.21 10.62
5/15/2021 12:00:00 PM 10.94 51.692 0.18 7.06 5.32 10.62
5/15/2021 12:15:00 PM 10.94 51.692 0.181 7.06 5.1 10.64
5/15/2021 12:30:00 PM 10.89 51.602 0.181 7.04 4.99 10.65
5/15/2021 12:45:00 PM 10.97 51.746 0.181 7.06 5.11 10.68
5/15/2021 1:00:00 PM 11.11 51.998 0.181 7.08 5.1 10.69
5/15/2021 1:15:00 PM 11.24 52.232 0.18 7.09 4.99 10.71
5/15/2021 1:30:00 PM 11.38 52.484 0.18 7.1 5.2 10.72
5/15/2021 1:45:00 PM 11.49 52.682 0.181 7.11 4.99 10.73
5/15/2021 2:00:00 PM 11.62 52.916 0.18 7.11 5.16 10.73
5/15/2021 2:15:00 PM 11.84 53.312 0.181 7.12 5.04 10.74
5/15/2021 2:30:00 PM 11.87 53.366 0.181 7.12 4.99 10.74
5/15/2021 2:45:00 PM 11.92 53.456 0.181 7.13 5 10.74
5/15/2021 3:00:00 PM 12.08 53.744 0.181 7.13 5.1 10.74
5/15/2021 3:15:00 PM 12.25 54.05 0.181 7.13 5.55 10.73
5/15/2021 3:30:00 PM 12.41 54.338 0.181 7.13 5.06 10.73
5/15/2021 3:45:00 PM 12.46 54.428 0.181 7.11 5.14 10.7
5/15/2021 4:00:00 PM 12.38 54.284 0.181 7.1 5.11 10.67
5/15/2021 4:15:00 PM 12.25 54.05 0.181 7.09 5.05 10.65
5/15/2021 4:30:00 PM 12.15 53.87 0.181 7.08 5.15 10.63
5/15/2021 4:45:00 PM 12.07 53.726 0.181 7.07 4.98 10.62
5/15/2021 5:00:00 PM 12.14 53.852 0.182 7.08 5.19 10.62
5/15/2021 5:15:00 PM 12.27 54.086 0.181 7.09 4.94 10.62
5/15/2021 5:30:00 PM 12.32 54.176 0.181 7.1 5.33 10.6
5/15/2021 5:45:00 PM 12.32 54.176 0.182 7.1 5.08 10.59
5/15/2021 6:00:00 PM 12.29 54.122 0.182 7.08 5.09 10.56
5/15/2021 6:15:00 PM 12.2 53.96 0.182 7.07 5.11 10.54
5/15/2021 6:30:00 PM 12.09 53.762 0.182 7.06 5.27 10.51
5/15/2021 6:45:00 PM 11.97 53.546 0.182 7.05 5.22 10.49
5/15/2021 7:00:00 PM 11.86 53.348 0.182 7.04 5.17 10.45
5/15/2021 7:15:00 PM 11.76 53.168 0.182 7.04 4.99 10.42
5/15/2021 7:30:00 PM 11.66 52.988 0.182 7.03 5.04 10.37
5/15/2021 7:45:00 PM 11.57 52.826 0.183 7.03 5.1 10.34
5/15/2021 8:00:00 PM 11.5 52.7 0.183 7.03 5.09 10.3
5/15/2021 8:15:00 PM 11.43 52.574 0.183 7.01 5.1 10.27
5/15/2021 8:30:00 PM 11.37 52.466 0.183 7.02 6.02 10.23
5/15/2021 8:45:00 PM 11.31 52.358 0.183 7.01 5.33 10.2
5/15/2021 9:00:00 PM 11.27 52.286 0.183 7.02 5.64 10.17
5/15/2021 9:15:00 PM 11.23 52.214 0.183 7.01 5.84 10.14
5/15/2021 9:30:00 PM 11.22 52.196 0.183 7.02 5.55 10.12
5/15/2021 9:45:00 PM 11.21 52.178 0.184 7.01 6 10.09
5/15/2021 10:00:00 PM 11.21 52.178 0.184 7.02 5.64 10.07
5/15/2021 10:15:00 PM 11.21 52.178 0.184 7.01 6.13 10.05
5/15/2021 10:30:00 PM 11.2 52.16 0.184 7.01 6.25 10.03
5/15/2021 10:45:00 PM 11.17 52.106 0.184 7.02 5.59 10.01
5/15/2021 11:00:00 PM 11.15 52.07 0.184 7 5.78 10
5/15/2021 11:15:00 PM 11.13 52.034 0.184 7.01 5.78 9.99
5/15/2021 11:30:00 PM 11.09 51.962 0.185 7 5.87 9.98
5/15/2021 11:45:00 PM 11.06 51.908 0.185 7.01 5.93 9.97
5/16/2021 12:00:00 AM 11.02 51.836 0.185 7 5.85 9.96
5/16/2021 12:15:00 AM 10.98 51.764 0.185 7 6.85 9.95
5/16/2021 12:30:00 AM 10.94 51.692 0.185 6.99 5.99 9.95
5/16/2021 12:45:00 AM 10.91 51.638 0.185 6.99 6.11 9.94
5/16/2021 1:00:00 AM 10.87 51.566 0.186 6.99 6.02 9.94
5/16/2021 1:15:00 AM 10.83 51.494 0.185 7 6.09 9.93
5/16/2021 1:30:00 AM 10.78 51.404 0.186 6.99 6.25 9.94
5/16/2021 1:45:00 AM 10.75 51.35 0.186 7 5.86 9.93
5/16/2021 2:00:00 AM 10.72 51.296 0.186 6.99 6.11 9.93
5/16/2021 2:15:00 AM 10.7 51.26 0.186 7 6.02 9.93
5/16/2021 2:30:00 AM 10.68 51.224 0.186 7 5.97 9.92
5/16/2021 2:45:00 AM 10.66 51.188 0.186 7 6.11 9.92
5/16/2021 3:00:00 AM 10.63 51.134 0.186 7 6.1 9.91
5/16/2021 3:15:00 AM 10.62 51.116 0.186 7 6.09 9.91
5/16/2021 3:30:00 AM 10.59 51.062 0.186 6.99 6.11 9.9
5/16/2021 3:45:00 AM 10.56 51.008 0.187 6.99 6.06 9.9
5/16/2021 4:00:00 AM 10.54 50.972 0.187 6.99 6.2 9.9
5/16/2021 4:15:00 AM 10.51 50.918 0.187 6.99 6 9.9
5/16/2021 4:30:00 AM 10.49 50.882 0.187 6.99 6.02 9.9
5/16/2021 4:45:00 AM 10.47 50.846 0.187 6.99 6.01 9.9
5/16/2021 5:00:00 AM 10.45 50.81 0.187 7 5.9 9.9
5/16/2021 5:15:00 AM 10.42 50.756 0.188 6.98 6.11 9.91
5/16/2021 5:30:00 AM 10.4 50.72 0.188 6.98 6.36 9.91
5/16/2021 5:45:00 AM 10.38 50.684 0.188 6.99 6.16 9.9
5/16/2021 6:00:00 AM 10.36 50.648 0.188 6.99 6 9.91
5/16/2021 6:15:00 AM 10.34 50.612 0.188 6.99 6.07 9.91
5/16/2021 6:30:00 AM 10.32 50.576 0.188 6.99 5.71 9.92
5/16/2021 6:45:00 AM 10.3 50.54 0.188 6.99 5.74 9.93
5/16/2021 7:00:00 AM 10.28 50.504 0.188 6.99 5.87 9.95
5/16/2021 7:15:00 AM 10.28 50.504 0.188 6.99 5.71 9.97
5/16/2021 7:30:00 AM 10.27 50.486 0.189 6.99 5.65 9.99
5/16/2021 7:45:00 AM 10.27 50.486 0.189 7 5.39 10.02
5/16/2021 8:00:00 AM 10.29 50.522 0.189 7 5.26 10.05
5/16/2021 8:15:00 AM 10.31 50.558 0.189 7.01 5.49 10.1
5/16/2021 8:30:00 AM 10.32 50.576 0.189 7.01 5.34 10.12
5/16/2021 8:45:00 AM 10.34 50.612 0.189 7.02 5.26 10.16
5/16/2021 9:00:00 AM 10.35 50.63 0.189 7.02 5.2 10.17
5/16/2021 9:15:00 AM 10.37 50.666 0.189 7.02 5.24 10.18
5/16/2021 9:30:00 AM 10.41 50.738 0.189 7.03 5.21 10.23
5/16/2021 9:45:00 AM 10.44 50.792 0.189 7.03 5.11 10.24
5/16/2021 10:00:00 AM 10.5 50.9 0.189 7.04 5.08 10.29
5/16/2021 10:15:00 AM 10.55 50.99 0.189 7.05 5.13 10.32
5/16/2021 10:30:00 AM 10.6 51.08 0.19 7.04 5.32 10.34
5/16/2021 10:45:00 AM 10.65 51.17 0.189 7.06 5.11 10.37
5/16/2021 11:00:00 AM 10.67 51.206 0.189 7.05 5.37 10.38
5/16/2021 11:15:00 AM 10.69 51.242 0.189 7.06 5.15 10.4
5/16/2021 11:30:00 AM 10.74 51.332 0.189 7.07 5.09 10.43
5/16/2021 11:45:00 AM 10.79 51.422 0.189 7.08 5.16 10.46
5/16/2021 12:00:00 PM 10.85 51.53 0.189 7.07 4.98 10.49
5/16/2021 12:15:00 PM 10.9 51.62 0.19 7.08 5.04 10.5
5/16/2021 12:30:00 PM 10.95 51.71 0.19 7.07 4.97 10.53
5/16/2021 12:45:00 PM 11.01 51.818 0.19 7.07 5.04 10.55
5/16/2021 1:00:00 PM 11.11 51.998 0.189 7.08 5.29 10.57
5/16/2021 1:15:00 PM 11.24 52.232 0.19 7.1 5.12 10.6
5/16/2021 1:30:00 PM 11.35 52.43 0.19 7.11 5.09 10.62
5/16/2021 1:45:00 PM 11.45 52.61 0.189 7.11 5.19 10.63
5/16/2021 2:00:00 PM 11.69 53.042 0.19 7.12 5.32 10.66
5/16/2021 2:15:00 PM 11.89 53.402 0.19 7.13 5.25 10.68
5/16/2021 2:30:00 PM 12.03 53.654 0.189 7.13 5.18 10.68
5/16/2021 2:45:00 PM 12.16 53.888 0.19 7.14 5.35 10.68
5/16/2021 3:00:00 PM 12.24 54.032 0.19 7.12 5.25 10.67
5/16/2021 3:15:00 PM 12.38 54.284 0.189 7.14 5.4 10.69
5/16/2021 3:30:00 PM 12.6 54.68 0.189 7.16 5.31 10.69
5/16/2021 3:45:00 PM 12.56 54.608 0.19 7.13 5.02 10.68
5/16/2021 4:00:00 PM 12.78 55.004 0.189 7.16 4.92 10.68
5/16/2021 4:15:00 PM 12.87 55.166 0.19 7.15 5.08 10.66
5/16/2021 4:30:00 PM 12.82 55.076 0.19 7.13 5.15 10.62
5/16/2021 4:45:00 PM 12.9 55.22 0.19 7.13 5.24 10.61
5/16/2021 5:00:00 PM 12.98 55.364 0.19 7.14 4.94 10.61
5/16/2021 5:15:00 PM 12.93 55.274 0.19 7.13 5.19 10.59
5/16/2021 5:30:00 PM 12.81 55.058 0.19 7.12 4.91 10.56
5/16/2021 5:45:00 PM 12.65 54.77 0.189 7.11 4.96 10.54
5/16/2021 6:00:00 PM 12.56 54.608 0.19 7.11 5.17 10.53
5/16/2021 6:15:00 PM 12.54 54.572 0.19 7.1 4.99 10.51
5/16/2021 6:30:00 PM 12.51 54.518 0.19 7.1 4.98 10.49
5/16/2021 6:45:00 PM 12.44 54.392 0.19 7.1 4.83 10.46
5/16/2021 7:00:00 PM 12.36 54.248 0.19 7.1 4.98 10.43
5/16/2021 7:15:00 PM 12.3 54.14 0.19 7.08 5.03 10.4
5/16/2021 7:30:00 PM 12.25 54.05 0.19 7.09 4.83 10.37
5/16/2021 7:45:00 PM 12.2 53.96 0.191 7.09 4.93 10.34
5/16/2021 8:00:00 PM 12.12 53.816 0.191 7.09 5.02 10.29
5/16/2021 8:15:00 PM 12.05 53.69 0.191 7.07 5.14 10.24
5/16/2021 8:30:00 PM 11.97 53.546 0.191 7.07 5.04 10.19
5/16/2021 8:45:00 PM 11.89 53.402 0.191 7.06 5.27 10.13
5/16/2021 9:00:00 PM 11.81 53.258 0.192 7.05 5.18 10.09
5/16/2021 9:15:00 PM 11.74 53.132 0.192 7.05 5.3 10.05
5/16/2021 9:30:00 PM 11.68 53.024 0.192 7.04 5.47 10.03
5/16/2021 9:45:00 PM 11.63 52.934 0.192 7.03 5.69 10
5/16/2021 10:00:00 PM 11.58 52.844 0.192 7.01 5.99 9.98
5/16/2021 10:15:00 PM 11.53 52.754 0.192 7.03 5.67 9.97
5/16/2021 10:30:00 PM 11.49 52.682 0.192 7.01 5.68 9.95
5/16/2021 10:45:00 PM 11.45 52.61 0.192 7.01 5.31 9.93
5/16/2021 11:00:00 PM 11.41 52.538 0.192 7.02 5.58 9.92
5/16/2021 11:15:00 PM 11.37 52.466 0.193 7.01 5.29 9.91
5/16/2021 11:30:00 PM 11.34 52.412 0.192 7.02 5.41 9.9
5/16/2021 11:45:00 PM 11.3 52.34 0.193 7 5.39 9.89
5/17/2021 12:00:00 AM 11.26 52.268 0.193 7.02 5.87 9.88
5/17/2021 12:15:00 AM 11.23 52.214 0.193 7.01 5.64 9.87
5/17/2021 12:30:00 AM 11.19 52.142 0.193 6.99 5.57 9.86
5/17/2021 12:45:00 AM 11.15 52.07 0.193 7.01 5.81 9.85
5/17/2021 1:00:00 AM 11.1 51.98 0.193 6.99 5.52 9.85
5/17/2021 1:15:00 AM 11.06 51.908 0.193 7.02 5.68 9.85
5/17/2021 1:30:00 AM 11.02 51.836 0.193 7.01 5.57 9.85
5/17/2021 1:45:00 AM 10.98 51.764 0.193 7.01 5.53 9.85
5/17/2021 2:00:00 AM 10.93 51.674 0.194 7 5.7 9.84
5/17/2021 2:15:00 AM 10.89 51.602 0.194 7.01 5.66 9.84
5/17/2021 2:30:00 AM 10.85 51.53 0.194 6.99 5.83 9.84
5/17/2021 2:45:00 AM 10.8 51.44 0.194 6.99 5.61 9.84
5/17/2021 3:00:00 AM 10.76 51.368 0.194 6.99 5.61 9.85
5/17/2021 3:15:00 AM 10.71 51.278 0.194 6.99 5.5 9.85
5/17/2021 3:30:00 AM 10.66 51.188 0.194 7 5.5 9.86
5/17/2021 3:45:00 AM 10.61 51.098 0.194 6.98 5.78 9.86
5/17/2021 4:00:00 AM 10.56 51.008 0.194 6.99 5.57 9.86
5/17/2021 4:15:00 AM 10.51 50.918 0.194 6.99 5.84 9.86
5/17/2021 4:30:00 AM 10.46 50.828 0.195 7 5.63 9.87
5/17/2021 4:45:00 AM 10.41 50.738 0.195 6.99 5.82 9.88
5/17/2021 5:00:00 AM 10.36 50.648 0.195 7 5.7 9.89
5/17/2021 5:15:00 AM 10.31 50.558 0.195 6.99 5.62 9.89
5/17/2021 5:30:00 AM 10.27 50.486 0.195 6.99 6.33 9.89
5/17/2021 5:45:00 AM 10.22 50.396 0.195 7 5.99 9.9
5/17/2021 6:00:00 AM 10.18 50.324 0.195 7 5.45 9.91
5/17/2021 6:15:00 AM 10.15 50.27 0.195 6.99 5.58 9.93
5/17/2021 6:30:00 AM 10.12 50.216 0.196 7.01 5.44 9.97
5/17/2021 6:45:00 AM 10.11 50.198 0.196 7.01 5.44 10.01
5/17/2021 7:00:00 AM 10.1 50.18 0.196 7.02 5.35 10.06
5/17/2021 7:15:00 AM 10.1 50.18 0.196 7.02 5.2 10.11
5/17/2021 7:30:00 AM 10.11 50.198 0.196 7.03 5.25 10.16
5/17/2021 7:45:00 AM 10.13 50.234 0.196 7.04 5.19 10.22
5/17/2021 8:00:00 AM 10.17 50.306 0.196 7.04 5.12 10.27
5/17/2021 8:15:00 AM 10.23 50.414 0.196 7.05 5.14 10.32
5/17/2021 8:30:00 AM 10.3 50.54 0.196 7.07 5.15 10.37
5/17/2021 8:45:00 AM 10.39 50.702 0.196 7.07 4.96 10.4
5/17/2021 9:00:00 AM 10.5 50.9 0.196 7.08 5 10.43
5/17/2021 9:15:00 AM 10.58 51.044 0.196 7.08 4.92 10.46
5/17/2021 9:30:00 AM 10.69 51.242 0.197 7.1 4.98 10.5
5/17/2021 9:45:00 AM 10.8 51.44 0.197 7.08 4.88 10.52
5/17/2021 10:00:00 AM 10.94 51.692 0.196 7.11 4.89 10.54
5/17/2021 10:15:00 AM 11.08 51.944 0.197 7.11 4.87 10.57
5/17/2021 10:30:00 AM 11.18 52.124 0.197 7.1 4.79 10.58
5/17/2021 10:45:00 AM 11.34 52.412 0.197 7.1 4.79 10.59
5/17/2021 11:00:00 AM 11.47 52.646 0.197 7.11 4.85 10.61
5/17/2021 11:15:00 AM 11.65 52.97 0.197 7.12 5.03 10.63
5/17/2021 11:30:00 AM 11.93 53.474 0.197 7.13 4.95 10.65
5/17/2021 11:45:00 AM 12.16 53.888 0.197 7.14 5.07 10.66
5/17/2021 12:00:00 PM 12.37 54.266 0.197 7.14 4.87 10.67
5/17/2021 12:15:00 PM 12.57 54.626 0.197 7.14 5.06 10.68
5/17/2021 12:30:00 PM 12.78 55.004 0.197 7.16 5.11 10.68
5/17/2021 12:45:00 PM 12.87 55.166 0.197 7.13 5.01 10.68
5/17/2021 1:00:00 PM 12.98 55.364 0.197 7.14 5.04 10.69
5/17/2021 1:15:00 PM 13.1 55.58 0.197 7.14 4.78 10.68
5/17/2021 1:30:00 PM 13.33 55.994 0.197 7.16 4.77 10.69
5/17/2021 1:45:00 PM 13.48 56.264 0.197 7.15 4.68 10.69
5/17/2021 2:00:00 PM 13.66 56.588 0.197 7.16 4.68 10.69
5/17/2021 2:15:00 PM 13.78 56.804 0.197 7.13 4.7 10.68
5/17/2021 2:30:00 PM 13.84 56.912 0.197 7.16 4.7 10.67
5/17/2021 2:45:00 PM 13.9 57.02 0.197 7.14 4.7 10.66
5/17/2021 3:00:00 PM 13.89 57.002 0.197 7.16 5.2 10.64
5/17/2021 3:15:00 PM 14.02 57.236 0.197 7.16 5.09 10.65
5/17/2021 3:30:00 PM 14.13 57.434 0.197 7.19 5.15 10.66
5/17/2021 3:45:00 PM 14.27 57.686 0.197 7.18 4.88 10.66
5/17/2021 4:00:00 PM 14.25 57.65 0.197 7.17 4.64 10.61
5/17/2021 4:15:00 PM 14.3 57.74 0.197 7.15 4.81 10.59
5/17/2021 4:30:00 PM 14.49 58.082 0.197 7.19 4.68 10.6
5/17/2021 4:45:00 PM 14.64 58.352 0.197 7.17 4.68 10.58
5/17/2021 5:00:00 PM 14.63 58.334 0.197 7.18 4.6 10.56
5/17/2021 5:15:00 PM 14.56 58.208 0.197 7.15 4.77 10.53
5/17/2021 5:30:00 PM 14.4 57.92 0.197 7.14 4.8 10.49
5/17/2021 5:45:00 PM 14.25 57.65 0.197 7.13 4.69 10.45
5/17/2021 6:00:00 PM 14.1 57.38 0.197 7.13 4.68 10.4
5/17/2021 6:15:00 PM 13.96 57.128 0.198 7.11 4.87 10.36
5/17/2021 6:30:00 PM 13.86 56.948 0.197 7.11 4.76 10.3
5/17/2021 6:45:00 PM 13.8 56.84 0.198 7.1 4.75 10.26
5/17/2021 7:00:00 PM 13.73 56.714 0.198 7.09 4.73 10.24
5/17/2021 7:15:00 PM 13.65 56.57 0.198 7.09 4.93 10.19
5/17/2021 7:30:00 PM 13.57 56.426 0.198 7.07 4.81 10.15
5/17/2021 7:45:00 PM 13.5 56.3 0.198 7.08 5.08 10.1
5/17/2021 8:00:00 PM 13.41 56.138 0.198 7.07 4.75 10.05
5/17/2021 8:15:00 PM 13.31 55.958 0.198 7.07 4.72 9.99
5/17/2021 8:30:00 PM 13.21 55.778 0.199 7.05 4.8 9.92
5/17/2021 8:45:00 PM 13.11 55.598 0.199 7.04 4.75 9.88
5/17/2021 9:00:00 PM 13.03 55.454 0.199 7.02 4.9 9.84
5/17/2021 9:15:00 PM 12.94 55.292 0.199 7.03 5.13 9.8
5/17/2021 9:30:00 PM 12.86 55.148 0.199 7.03 5.61 9.77
5/17/2021 9:45:00 PM 12.79 55.022 0.199 7.02 5.55 9.75
5/17/2021 10:00:00 PM 12.73 54.914 0.2 7.01 5.42 9.73
5/17/2021 10:15:00 PM 12.67 54.806 0.199 7.02 5.52 9.71
5/17/2021 10:30:00 PM 12.62 54.716 0.199 7.02 5.6 9.69
5/17/2021 10:45:00 PM 12.57 54.626 0.2 7.02 5.89 9.67
5/17/2021 11:00:00 PM 12.53 54.554 0.2 7.02 5.71 9.66
5/17/2021 11:15:00 PM 12.49 54.482 0.2 7.02 5.32 9.65
5/17/2021 11:30:00 PM 12.45 54.41 0.2 7.02 5.64 9.63
5/17/2021 11:45:00 PM 12.41 54.338 0.201 7 6.03 9.6
5/18/2021 12:00:00 AM 12.38 54.284 0.2 7 5.65 9.58
5/18/2021 12:15:00 AM 12.35 54.23 0.2 7 5.64 9.57
5/18/2021 12:30:00 AM 12.32 54.176 0.2 7 5.75 9.56
5/18/2021 12:45:00 AM 12.28 54.104 0.201 6.99 5.7 9.56
5/18/2021 1:00:00 AM 12.25 54.05 0.201 7 5.5 9.55
5/18/2021 1:15:00 AM 12.21 53.978 0.201 6.99 5.58 9.54
5/18/2021 1:30:00 AM 12.18 53.924 0.201 7 5.61 9.54
5/18/2021 1:45:00 AM 12.14 53.852 0.201 6.99 5.66 9.53
5/18/2021 2:00:00 AM 12.1 53.78 0.201 7 5.96 9.53
5/18/2021 2:15:00 AM 12.05 53.69 0.201 7 5.33 9.53
5/18/2021 2:30:00 AM 12.01 53.618 0.201 6.99 5.97 9.52
5/18/2021 2:45:00 AM 11.97 53.546 0.201 7 5.59 9.52
5/18/2021 3:00:00 AM 11.93 53.474 0.201 7 5.65 9.52
5/18/2021 3:15:00 AM 11.89 53.402 0.201 7 5.38 9.52
5/18/2021 3:30:00 AM 11.84 53.312 0.201 6.99 5.76 9.52
5/18/2021 3:45:00 AM 11.79 53.222 0.202 7 5.59 9.53
5/18/2021 4:00:00 AM 11.75 53.15 0.202 7 5.53 9.52
5/18/2021 4:15:00 AM 11.7 53.06 0.202 6.99 5.65 9.53
5/18/2021 4:30:00 AM 11.65 52.97 0.202 7 5.7 9.54
5/18/2021 4:45:00 AM 11.61 52.898 0.202 6.99 5.61 9.54
5/18/2021 5:00:00 AM 11.56 52.808 0.202 7 5.76 9.54
5/18/2021 5:15:00 AM 11.51 52.718 0.202 7 5.74 9.55
5/18/2021 5:30:00 AM 11.46 52.628 0.203 6.99 5.47 9.56
5/18/2021 5:45:00 AM 11.41 52.538 0.203 7 5.58 9.56
5/18/2021 6:00:00 AM 11.36 52.448 0.203 6.99 5.54 9.57
5/18/2021 6:15:00 AM 11.31 52.358 0.203 7 5.68 9.58
5/18/2021 6:30:00 AM 11.28 52.304 0.203 7 5.43 9.62
5/18/2021 6:45:00 AM 11.25 52.25 0.203 7.01 5.51 9.66
5/18/2021 7:00:00 AM 11.23 52.214 0.203 7.02 5.54 9.71
5/18/2021 7:15:00 AM 11.22 52.196 0.203 7.03 5.3 9.77
5/18/2021 7:30:00 AM 11.23 52.214 0.204 7.03 5.17 9.82
5/18/2021 7:45:00 AM 11.27 52.286 0.204 7.04 5.39 9.89
5/18/2021 8:00:00 AM 11.32 52.376 0.203 7.04 5.19 9.94
5/18/2021 8:15:00 AM 11.39 52.502 0.203 7.07 5.51 9.99
5/18/2021 8:30:00 AM 11.48 52.664 0.204 7.06 5.12 10.04
5/18/2021 8:45:00 AM 11.6 52.88 0.204 7.08 5.16 10.09
5/18/2021 9:00:00 AM 11.73 53.114 0.204 7.09 5.19 10.13
5/18/2021 9:15:00 AM 11.88 53.384 0.204 7.09 5.3 10.16
5/18/2021 9:30:00 AM 12.04 53.672 0.204 7.1 5.14 10.19
5/18/2021 9:45:00 AM 12.23 54.014 0.204 7.1 5.24 10.22
5/18/2021 10:00:00 AM 12.44 54.392 0.204 7.11 5.35 10.24
5/18/2021 10:15:00 AM 12.65 54.77 0.204 7.11 5.09 10.26
5/18/2021 10:30:00 AM 12.87 55.166 0.204 7.11 5.01 10.28
5/18/2021 10:45:00 AM 13.1 55.58 0.204 7.12 4.96 10.3
5/18/2021 11:00:00 AM 13.33 55.994 0.204 7.12 5.04 10.32
5/18/2021 11:15:00 AM 13.56 56.408 0.204 7.13 4.92 10.34
5/18/2021 11:30:00 AM 13.81 56.858 0.204 7.13 4.94 10.34
5/18/2021 11:45:00 AM 14.06 57.308 0.204 7.14 5.07 10.36
5/18/2021 12:00:00 PM 14.28 57.704 0.205 7.14 5.04 10.37
5/18/2021 12:15:00 PM 14.5 58.1 0.204 7.15 4.96 10.38
5/18/2021 12:30:00 PM 14.74 58.532 0.204 7.16 4.83 10.38
5/18/2021 12:45:00 PM 14.94 58.892 0.204 7.17 4.88 10.38
5/18/2021 1:00:00 PM 15.14 59.252 0.204 7.17 4.96 10.39
5/18/2021 1:15:00 PM 15.32 59.576 0.204 7.17 4.73 10.39
5/18/2021 1:30:00 PM 15.51 59.918 0.204 7.18 4.81 10.39
5/18/2021 1:45:00 PM 15.7 60.26 0.204 7.18 4.73 10.39
5/18/2021 2:00:00 PM 15.88 60.584 0.205 7.19 4.84 10.39
5/18/2021 2:15:00 PM 16 60.8 0.205 7.2 4.79 10.38
5/18/2021 2:30:00 PM 16.13 61.034 0.204 7.19 4.8 10.38
5/18/2021 2:45:00 PM 16.18 61.124 0.205 7.19 4.79 10.37
5/18/2021 3:00:00 PM 16.27 61.286 0.205 7.2 4.74 10.36
5/18/2021 3:15:00 PM 16.37 61.466 0.205 7.2 4.79 10.35
5/18/2021 3:30:00 PM 16.51 61.718 0.205 7.2 4.72 10.33
5/18/2021 3:45:00 PM 16.66 61.988 0.204 7.21 4.74 10.33
5/18/2021 4:00:00 PM 16.76 62.168 0.205 7.22 4.67 10.3
5/18/2021 4:15:00 PM 16.81 62.258 0.205 7.21 4.66 10.29
5/18/2021 4:30:00 PM 16.83 62.294 0.205 7.21 4.86 10.26
5/18/2021 4:45:00 PM 16.84 62.312 0.205 7.21 4.64 10.25
5/18/2021 5:00:00 PM 16.85 62.33 0.205 7.2 4.65 10.22
5/18/2021 5:15:00 PM 16.82 62.276 0.205 7.18 4.86 10.19
5/18/2021 5:30:00 PM 16.8 62.24 0.205 7.19 4.87 10.14
5/18/2021 5:45:00 PM 16.72 62.096 0.205 7.18 5.14 10.11
5/18/2021 6:00:00 PM 16.63 61.934 0.205 7.17 4.9 10.06
5/18/2021 6:15:00 PM 16.5 61.7 0.205 7.16 4.81 10.02
5/18/2021 6:30:00 PM 16.36 61.448 0.205 7.14 4.78 9.97
5/18/2021 6:45:00 PM 16.21 61.178 0.205 7.14 4.94 9.9
5/18/2021 7:00:00 PM 16.04 60.872 0.206 7.11 4.94 9.84
5/18/2021 7:15:00 PM 15.91 60.638 0.205 7.11 4.99 9.76
5/18/2021 7:30:00 PM 15.78 60.404 0.206 7.09 5.07 9.7
5/18/2021 7:45:00 PM 15.66 60.188 0.206 7.09 5.03 9.62
5/18/2021 8:00:00 PM 15.54 59.972 0.206 7.06 5 9.55
5/18/2021 8:15:00 PM 15.43 59.774 0.206 7.06 5.15 9.5
5/18/2021 8:30:00 PM 15.3 59.54 0.206 7.05 5.53 9.44
5/18/2021 8:45:00 PM 15.17 59.306 0.207 7.03 5.06 9.38
5/18/2021 9:00:00 PM 15.04 59.072 0.207 7.03 5.47 9.33
5/18/2021 9:15:00 PM 14.92 58.856 0.207 7.03 5.25 9.29
5/18/2021 9:30:00 PM 14.8 58.64 0.207 7.03 5.56 9.26
5/18/2021 9:45:00 PM 14.69 58.442 0.207 7.02 5.71 9.24
5/18/2021 10:00:00 PM 14.58 58.244 0.207 7.01 5.67 9.22
5/18/2021 10:15:00 PM 14.49 58.082 0.207 7.02 5.53 9.2
5/18/2021 10:30:00 PM 14.4 57.92 0.208 7.01 5.65 9.19
5/18/2021 10:45:00 PM 14.32 57.776 0.207 7.02 5.63 9.18
5/18/2021 11:00:00 PM 14.25 57.65 0.208 7.01 5.46 9.17
5/18/2021 11:15:00 PM 14.18 57.524 0.208 7.02 5.41 9.17
5/18/2021 11:30:00 PM 14.12 57.416 0.208 7.01 5.57 9.15
5/18/2021 11:45:00 PM 14.08 57.344 0.208 7.01 5.79 9.14
5/19/2021 12:00:00 AM 14.03 57.254 0.208 7 5.38 9.12
5/19/2021 12:15:00 AM 13.97 57.146 0.209 7 5.4 9.11
5/19/2021 12:30:00 AM 13.93 57.074 0.208 6.99 5.96 9.1
5/19/2021 12:45:00 AM 13.89 57.002 0.208 7 5.55 9.1
5/19/2021 1:00:00 AM 13.84 56.912 0.208 6.99 5.65 9.09
5/19/2021 1:15:00 AM 13.8 56.84 0.209 7 5.67 9.09
5/19/2021 1:30:00 AM 13.76 56.768 0.209 6.99 6.29 9.08
5/19/2021 1:45:00 AM 13.72 56.696 0.209 6.99 5.66 9.08
5/19/2021 2:00:00 AM 13.68 56.624 0.209 6.99 5.93 9.08
5/19/2021 2:15:00 AM 13.63 56.534 0.209 7 5.9 9.07
5/19/2021 2:30:00 AM 13.59 56.462 0.209 7 6.12 9.07
5/19/2021 2:45:00 AM 13.55 56.39 0.209 6.99 5.76 9.07
5/19/2021 3:00:00 AM 13.51 56.318 0.209 7 5.73 9.07
5/19/2021 3:15:00 AM 13.45 56.21 0.209 7 5.45 9.07
5/19/2021 3:30:00 AM 13.41 56.138 0.21 7 6.01 9.07
5/19/2021 3:45:00 AM 13.36 56.048 0.21 6.99 5.69 9.07
5/19/2021 4:00:00 AM 13.31 55.958 0.21 7 5.61 9.07
5/19/2021 4:15:00 AM 13.26 55.868 0.21 7 5.83 9.08
5/19/2021 4:30:00 AM 13.21 55.778 0.21 6.99 5.72 9.08
5/19/2021 4:45:00 AM 13.16 55.688 0.21 7 6.19 9.09
5/19/2021 5:00:00 AM 13.11 55.598 0.21 6.99 5.51 9.09
5/19/2021 5:15:00 AM 13.07 55.526 0.21 7 5.81 9.09
5/19/2021 5:30:00 AM 13.01 55.418 0.21 6.99 6.24 9.1
5/19/2021 5:45:00 AM 12.96 55.328 0.211 7 5.55 9.11
5/19/2021 6:00:00 AM 12.91 55.238 0.211 7 5.54 9.12
5/19/2021 6:15:00 AM 12.87 55.166 0.211 6.99 5.68 9.14
5/19/2021 6:30:00 AM 12.83 55.094 0.211 7 5.66 9.17
5/19/2021 6:45:00 AM 12.8 55.04 0.211 7 5.66 9.22
5/19/2021 7:00:00 AM 12.78 55.004 0.211 7.02 5.56 9.28
5/19/2021 7:15:00 AM 12.77 54.986 0.211 7.02 5.52 9.34
5/19/2021 7:30:00 AM 12.78 55.004 0.211 7.04 5.43 9.41
5/19/2021 7:45:00 AM 12.81 55.058 0.211 7.03 5.4 9.48
5/19/2021 8:00:00 AM 12.85 55.13 0.212 7.06 5.32 9.56
5/19/2021 8:15:00 AM 12.92 55.256 0.212 7.06 5.35 9.63
5/19/2021 8:30:00 AM 13.02 55.436 0.212 7.08 5.24 9.69
5/19/2021 8:45:00 AM 13.13 55.634 0.212 7.08 5.31 9.75
5/19/2021 9:00:00 AM 13.27 55.886 0.212 7.09 5.17 9.8
5/19/2021 9:15:00 AM 13.41 56.138 0.212 7.11 5.27 9.84
5/19/2021 9:30:00 AM 13.58 56.444 0.212 7.1 5.17 9.89
5/19/2021 9:45:00 AM 13.78 56.804 0.212 7.12 5.23 9.93
5/19/2021 10:00:00 AM 13.99 57.182 0.212 7.12 5.23 9.98
5/19/2021 10:15:00 AM 14.21 57.578 0.213 7.13 5.37 10.02
5/19/2021 10:30:00 AM 14.44 57.992 0.213 7.13 5.3 10.06
5/19/2021 10:45:00 AM 14.66 58.388 0.213 7.15 5.49 10.08
5/19/2021 11:00:00 AM 14.9 58.82 0.213 7.14 5.23 10.11
5/19/2021 11:15:00 AM 15.14 59.252 0.213 7.14 5.23 10.13
5/19/2021 11:30:00 AM 15.37 59.666 0.213 7.15 5.08 10.16
5/19/2021 11:45:00 AM 15.61 60.098 0.213 7.17 4.98 10.18
5/19/2021 12:00:00 PM 15.83 60.494 0.213 7.17 5.06 10.2
5/19/2021 12:15:00 PM 16.07 60.926 0.213 7.17 5.11 10.21
5/19/2021 12:30:00 PM 16.29 61.322 0.213 7.19 5.15 10.23
5/19/2021 12:45:00 PM 16.52 61.736 0.213 7.19 5.07 10.24
5/19/2021 1:00:00 PM 16.71 62.078 0.213 7.2 5.13 10.25
5/19/2021 1:15:00 PM 16.91 62.438 0.213 7.19 5.16 10.25
5/19/2021 1:30:00 PM 17.1 62.78 0.213 7.21 5.06 10.26
5/19/2021 1:45:00 PM 17.25 63.05 0.213 7.2 5.05 10.27
5/19/2021 2:00:00 PM 17.42 63.356 0.213 7.22 5.01 10.27
5/19/2021 2:15:00 PM 17.57 63.626 0.213 7.22 4.98 10.27
5/19/2021 2:30:00 PM 17.71 63.878 0.213 7.24 5.06 10.27
5/19/2021 2:45:00 PM 17.85 64.13 0.213 7.25 4.94 10.26
5/19/2021 3:00:00 PM 17.98 64.364 0.213 7.25 5.01 10.25
5/19/2021 3:15:00 PM 18.1 64.58 0.213 7.26 4.79 10.24
5/19/2021 3:30:00 PM 18.19 64.742 0.213 7.26 4.77 10.23
5/19/2021 3:45:00 PM 18.28 64.904 0.213 7.28 4.83 10.22
5/19/2021 4:00:00 PM 18.33 64.994 0.214 7.27 5.07 10.2
5/19/2021 4:15:00 PM 18.38 65.084 0.213 7.3 4.81 10.18
5/19/2021 4:30:00 PM 18.41 65.138 0.214 7.33 4.92 10.16
5/19/2021 4:45:00 PM 18.4 65.12 0.214 7.34 4.84 10.14
5/19/2021 5:00:00 PM 18.39 65.102 0.213 7.33 4.89 10.1
5/19/2021 5:15:00 PM 18.33 64.994 0.214 7.33 4.81 10.07
5/19/2021 5:30:00 PM 18.25 64.85 0.214 7.31 4.87 10.03
5/19/2021 5:45:00 PM 18.15 64.67 0.213 7.31 8.76 9.98
5/19/2021 6:00:00 PM 17.97 64.346 0.214 7.3 4.98 9.92
5/19/2021 6:15:00 PM 17.82 64.076 0.214 7.27 5.03 9.86
5/19/2021 6:30:00 PM 17.67 63.806 0.214 7.27 5.15 9.81
5/19/2021 6:45:00 PM 17.51 63.518 0.214 7.25 4.92 9.75
5/19/2021 7:00:00 PM 17.37 63.266 0.214 7.24 5.29 9.69
5/19/2021 7:15:00 PM 17.23 63.014 0.214 7.22 4.98 9.61
5/19/2021 7:30:00 PM 17.12 62.816 0.214 7.19 5.14 9.53
5/19/2021 7:45:00 PM 17.01 62.618 0.215 7.18 4.8 9.45
5/19/2021 8:00:00 PM 16.92 62.456 0.215 7.17 4.98 9.36
5/19/2021 8:15:00 PM 16.81 62.258 0.215 7.16 5 9.28
5/19/2021 8:30:00 PM 16.7 62.06 0.215 7.14 4.93 9.18
5/19/2021 8:45:00 PM 16.59 61.862 0.215 7.12 5.42 9.09
5/19/2021 9:00:00 PM 16.48 61.664 0.215 7.11 5.29 9.02
5/19/2021 9:15:00 PM 16.37 61.466 0.215 7.08 5.4 8.97
5/19/2021 9:30:00 PM 16.25 61.25 0.216 7.05 5.27 8.92
5/19/2021 9:45:00 PM 16.13 61.034 0.216 7.07 5.33 8.9
5/19/2021 10:00:00 PM 16.02 60.836 0.216 7.05 5.11 8.87
5/19/2021 10:15:00 PM 15.91 60.638 0.216 7.06 5.39 8.86
5/19/2021 10:30:00 PM 15.81 60.458 0.216 7.05 5.92 8.85
5/19/2021 10:45:00 PM 15.71 60.278 0.216 7.05 5.46 8.84
5/19/2021 11:00:00 PM 15.62 60.116 0.216 7.05 5.56 8.83
5/19/2021 11:15:00 PM 15.53 59.954 0.217 7.04 5.38 8.82
5/19/2021 11:30:00 PM 15.46 59.828 0.217 7.04 5.8 8.81
5/19/2021 11:45:00 PM 15.38 59.684 0.217 7.04 5.55 8.81
5/20/2021 12:00:00 AM 15.31 59.558 0.217 7.04 5.48 8.81
5/20/2021 12:15:00 AM 15.24 59.432 0.217 7.04 5.37 8.8
5/20/2021 12:30:00 AM 15.18 59.324 0.217 7.04 5.51 8.8
5/20/2021 12:45:00 AM 15.11 59.198 0.217 7.03 5.62 8.8
5/20/2021 1:00:00 AM 15.06 59.108 0.217 7.04 5.43 8.79
5/20/2021 1:15:00 AM 14.99 58.982 0.218 7.03 5.5 8.79
5/20/2021 1:30:00 AM 14.94 58.892 0.218 7.03 5.74 8.79
5/20/2021 1:45:00 AM 14.88 58.784 0.218 7.03 5.67 8.79
5/20/2021 2:00:00 AM 14.82 58.676 0.218 7.04 5.52 8.78
5/20/2021 2:15:00 AM 14.77 58.586 0.218 7.03 5.5 8.78
5/20/2021 2:30:00 AM 14.72 58.496 0.219 7.03 5.72 8.78
5/20/2021 2:45:00 AM 14.67 58.406 0.218 7.03 5.55 8.78
5/20/2021 3:00:00 AM 14.63 58.334 0.218 7.03 5.37 8.78
5/20/2021 3:15:00 AM 14.59 58.262 0.218 7.03 5.73 8.78
5/20/2021 3:30:00 AM 14.54 58.172 0.219 7.03 5.5 8.78
5/20/2021 3:45:00 AM 14.5 58.1 0.219 7.03 5.28 8.78
5/20/2021 4:00:00 AM 14.47 58.046 0.219 7.02 5.55 8.78
5/20/2021 4:15:00 AM 14.43 57.974 0.219 7.02 5.46 8.78
5/20/2021 4:30:00 AM 14.4 57.92 0.219 7.03 5.72 8.78
5/20/2021 4:45:00 AM 14.36 57.848 0.219 7.02 5.64 8.78
5/20/2021 5:00:00 AM 14.31 57.758 0.219 7.02 6 8.78
5/20/2021 5:15:00 AM 14.27 57.686 0.219 7.02 5.58 8.79
5/20/2021 5:30:00 AM 14.21 57.578 0.219 7.02 5.81 8.79
5/20/2021 5:45:00 AM 14.16 57.488 0.219 7.01 5.71 8.8
5/20/2021 6:00:00 AM 14.11 57.398 0.219 7 5.72 8.8
5/20/2021 6:15:00 AM 14.07 57.326 0.219 7 5.68 8.83
5/20/2021 6:30:00 AM 14.04 57.272 0.22 7.01 5.39 8.88
5/20/2021 6:45:00 AM 14.02 57.236 0.22 7.03 5.44 8.95
5/20/2021 7:00:00 AM 14.02 57.236 0.22 7.02 5.5 9.02
5/20/2021 7:15:00 AM 14.03 57.254 0.22 7.04 5.4 9.11
5/20/2021 7:30:00 AM 14.08 57.344 0.22 7.05 5.69 9.2
5/20/2021 7:45:00 AM 14.1 57.38 0.22 7.06 5.24 9.28
5/20/2021 8:00:00 AM 14.12 57.416 0.22 7.07 5.2 9.35
5/20/2021 8:15:00 AM 14.2 57.56 0.22 7.08 5.37 9.44
5/20/2021 8:30:00 AM 14.32 57.776 0.22 7.1 5.29 9.53
5/20/2021 8:45:00 AM 14.44 57.992 0.22 7.1 5.4 9.61
5/20/2021 9:00:00 AM 14.58 58.244 0.22 7.12 5.2 9.68
5/20/2021 9:15:00 AM 14.75 58.55 0.22 7.13 5.29 9.73
5/20/2021 9:30:00 AM 14.95 58.91 0.22 7.14 5.07 9.79
5/20/2021 9:45:00 AM 15.15 59.27 0.22 7.14 5.28 9.84
5/20/2021 10:00:00 AM 15.36 59.648 0.22 7.16 5.28 9.89
5/20/2021 10:15:00 AM 15.58 60.044 0.22 7.17 5.26 9.93
5/20/2021 10:30:00 AM 15.83 60.494 0.22 7.18 5.18 9.96
5/20/2021 10:45:00 AM 16.07 60.926 0.221 7.18 5.13 9.99
5/20/2021 11:00:00 AM 16.32 61.376 0.221 7.19 5.17 10.02
5/20/2021 11:15:00 AM 16.57 61.826 0.221 7.2 5.19 10.06
5/20/2021 11:30:00 AM 16.82 62.276 0.221 7.2 5.08 10.08
5/20/2021 11:45:00 AM 17.06 62.708 0.221 7.22 4.99 10.1
5/20/2021 12:00:00 PM 17.31 63.158 0.221 7.22 4.97 10.12
5/20/2021 12:15:00 PM 17.57 63.626 0.221 7.23 5 10.14
5/20/2021 12:30:00 PM 17.8 64.04 0.222 7.26 5.1 10.16
5/20/2021 12:45:00 PM 18.05 64.49 0.221 7.26 5.01 10.17
5/20/2021 1:00:00 PM 18.27 64.886 0.221 7.3 5.07 10.18
5/20/2021 1:15:00 PM 18.51 65.318 0.221 7.33 5.03 10.19
5/20/2021 1:30:00 PM 18.72 65.696 0.222 7.36 5.04 10.19
5/20/2021 1:45:00 PM 18.91 66.038 0.222 7.38 5.01 10.19
5/20/2021 2:00:00 PM 19.08 66.344 0.222 7.39 5.07 10.2
5/20/2021 2:15:00 PM 19.22 66.596 0.222 7.4 5.02 10.19
5/20/2021 2:30:00 PM 19.36 66.848 0.222 7.41 4.96 10.18
5/20/2021 2:45:00 PM 19.48 67.064 0.222 7.43 5.14 10.18
5/20/2021 3:00:00 PM 19.59 67.262 0.222 7.44 5.14 10.17
5/20/2021 3:15:00 PM 19.66 67.388 0.222 7.43 5.13 10.16
5/20/2021 3:30:00 PM 19.75 67.55 0.222 7.43 6 10.14
5/20/2021 3:45:00 PM 19.79 67.622 0.222 7.42 5.05 10.12
5/20/2021 4:00:00 PM 19.85 67.73 0.222 7.42 5.07 10.11
5/20/2021 4:15:00 PM 19.85 67.73 0.222 7.42 5.13 10.08
5/20/2021 4:30:00 PM 19.83 67.694 0.222 7.4 5.17 10.04
5/20/2021 4:45:00 PM 19.81 67.658 0.222 7.4 5.04 10.01
5/20/2021 5:00:00 PM 19.75 67.55 0.222 7.39 5.01 9.97
5/20/2021 5:15:00 PM 19.7 67.46 0.222 7.38 5 9.94
5/20/2021 5:30:00 PM 19.63 67.334 0.222 7.37 5.13 9.89
5/20/2021 5:45:00 PM 19.52 67.136 0.223 7.36 4.86 9.85
5/20/2021 6:00:00 PM 19.39 66.902 0.223 7.33 5.06 9.79
5/20/2021 6:15:00 PM 19.25 66.65 0.223 7.32 5.03 9.72
5/20/2021 6:30:00 PM 19.06 66.308 0.223 7.3 5.12 9.65
5/20/2021 6:45:00 PM 18.88 65.984 0.223 7.27 5.09 9.57
5/20/2021 7:00:00 PM 18.68 65.624 0.223 7.26 5.1 9.47
5/20/2021 7:15:00 PM 18.51 65.318 0.223 7.24 5.15 9.36
5/20/2021 7:30:00 PM 18.35 65.03 0.224 7.23 5.8 9.26
5/20/2021 7:45:00 PM 18.22 64.796 0.224 7.2 5.42 9.18
5/20/2021 8:00:00 PM 18.11 64.598 0.224 7.2 5.19 9.09
5/20/2021 8:15:00 PM 18 64.4 0.224 7.18 5.43 9
5/20/2021 8:30:00 PM 17.9 64.22 0.224 7.17 5.23 8.91
5/20/2021 8:45:00 PM 17.79 64.022 0.225 7.15 5.32 8.81
5/20/2021 9:00:00 PM 17.69 63.842 0.225 7.14 5.77 8.73
5/20/2021 9:15:00 PM 17.59 63.662 0.225 7.14 5.57 8.67
5/20/2021 9:30:00 PM 17.49 63.482 0.225 7.11 5.84 8.6
5/20/2021 9:45:00 PM 17.39 63.302 0.225 7.11 5.71 8.57
5/20/2021 10:00:00 PM 17.27 63.086 0.226 7.09 5.73 8.54
5/20/2021 10:15:00 PM 17.17 62.906 0.225 7.1 5.63 8.52
5/20/2021 10:30:00 PM 17.07 62.726 0.226 7.09 5.74 8.5
5/20/2021 10:45:00 PM 16.97 62.546 0.225 7.09 5.74 8.49
5/20/2021 11:00:00 PM 16.86 62.348 0.226 7.09 5.41 8.48
5/20/2021 11:15:00 PM 16.76 62.168 0.226 7.08 5.76 8.47
5/20/2021 11:30:00 PM 16.67 62.006 0.226 7.08 5.52 8.47
5/20/2021 11:45:00 PM 16.59 61.862 0.226 7.09 5.8 8.46
5/21/2021 12:00:00 AM 16.51 61.718 0.226 7.09 5.64 8.46
5/21/2021 12:15:00 AM 16.44 61.592 0.226 7.09 5.58 8.46
5/21/2021 12:30:00 AM 16.36 61.448 0.226 7.09 5.66 8.46
5/21/2021 12:45:00 AM 16.3 61.34 0.226 7.08 5.5 8.46
5/21/2021 1:00:00 AM 16.23 61.214 0.227 7.08 5.69 8.46
5/21/2021 1:15:00 AM 16.17 61.106 0.226 7.08 6.04 8.46
5/21/2021 1:30:00 AM 16.12 61.016 0.226 7.08 5.58 8.46
5/21/2021 1:45:00 AM 16.06 60.908 0.227 7.08 6.19 8.46
5/21/2021 2:00:00 AM 16 60.8 0.227 7.08 6.01 8.46
5/21/2021 2:15:00 AM 15.94 60.692 0.227 7.07 5.67 8.45
5/21/2021 2:30:00 AM 15.89 60.602 0.227 7.08 5.86 8.45
5/21/2021 2:45:00 AM 15.84 60.512 0.227 7.07 5.71 8.46
5/21/2021 3:00:00 AM 15.78 60.404 0.227 7.07 5.72 8.46
5/21/2021 3:15:00 AM 15.73 60.314 0.227 7.08 5.7 8.46
5/21/2021 3:30:00 AM 15.68 60.224 0.227 7.07 6.06 8.46
5/21/2021 3:45:00 AM 15.63 60.134 0.227 7.07 5.86 8.46
5/21/2021 4:00:00 AM 15.57 60.026 0.227 7.07 5.88 8.47
5/21/2021 4:15:00 AM 15.52 59.936 0.227 7.08 5.89 8.47
5/21/2021 4:30:00 AM 15.46 59.828 0.228 7.06 5.62 8.48
5/21/2021 4:45:00 AM 15.41 59.738 0.228 7.07 5.82 8.48
5/21/2021 5:00:00 AM 15.35 59.63 0.228 7.07 5.87 8.49
5/21/2021 5:15:00 AM 15.3 59.54 0.228 7.06 5.76 8.49
5/21/2021 5:30:00 AM 15.24 59.432 0.228 7.07 6 8.5
5/21/2021 5:45:00 AM 15.19 59.342 0.228 7.07 5.79 8.5
5/21/2021 6:00:00 AM 15.15 59.27 0.228 7.06 5.59 8.51
5/21/2021 6:15:00 AM 15.1 59.18 0.229 7.07 5.64 8.55
5/21/2021 6:30:00 AM 15.06 59.108 0.229 7.07 5.8 8.58
5/21/2021 6:45:00 AM 15.03 59.054 0.229 7.08 5.47 8.66
5/21/2021 7:00:00 AM 15.03 59.054 0.229 7.09 5.62 8.74
5/21/2021 7:15:00 AM 15.04 59.072 0.229 7.1 5.32 8.83
5/21/2021 7:30:00 AM 15.06 59.108 0.229 7.1 5.65 8.93
5/21/2021 7:45:00 AM 15.11 59.198 0.229 7.12 5.57 9.03
5/21/2021 8:00:00 AM 15.19 59.342 0.229 7.13 5.78 9.14
5/21/2021 8:15:00 AM 15.29 59.522 0.229 7.14 5.51 9.24
5/21/2021 8:30:00 AM 15.41 59.738 0.229 7.16 5.58 9.33
5/21/2021 8:45:00 AM 15.54 59.972 0.229 7.17 5.49 9.42
5/21/2021 9:00:00 AM 15.68 60.224 0.229 7.18 5.4 9.49
5/21/2021 9:15:00 AM 15.85 60.53 0.229 7.2 5.48 9.55
5/21/2021 9:30:00 AM 16.04 60.872 0.229 7.2 5.49 9.62
5/21/2021 9:45:00 AM 16.25 61.25 0.229 7.22 5.36 9.69
5/21/2021 10:00:00 AM 16.46 61.628 0.229 7.22 5.4 9.74
5/21/2021 10:15:00 AM 16.71 62.078 0.229 7.24 5.43 9.81
5/21/2021 10:30:00 AM 16.95 62.51 0.229 7.24 5.44 9.85
5/21/2021 10:45:00 AM 17.21 62.978 0.229 7.27 5.32 9.89
5/21/2021 11:00:00 AM 17.47 63.446 0.23 7.28 5.31 9.94
5/21/2021 11:15:00 AM 17.73 63.914 0.229 7.29 5.39 9.98
5/21/2021 11:30:00 AM 18 64.4 0.23 7.29 5.17 10.01
5/21/2021 11:45:00 AM 18.26 64.868 0.23 7.31 5.28 10.04
5/21/2021 12:00:00 PM 18.52 65.336 0.23 7.32 5.14 10.07
5/21/2021 12:15:00 PM 18.76 65.768 0.23 7.34 5.26 10.1
5/21/2021 12:30:00 PM 19.02 66.236 0.23 7.35 5.21 10.12
5/21/2021 12:45:00 PM 19.26 66.668 0.23 7.36 5.29 10.15
5/21/2021 1:00:00 PM 19.48 67.064 0.23 7.37 5.23 10.16
5/21/2021 1:15:00 PM 19.71 67.478 0.23 7.38 5.33 10.18
5/21/2021 1:30:00 PM 19.89 67.802 0.23 7.39 5.24 10.18
5/21/2021 1:45:00 PM 20.09 68.162 0.23 7.4 5.16 10.19
5/21/2021 2:00:00 PM 20.26 68.468 0.23 7.43 5.02 10.2
5/21/2021 2:15:00 PM 20.45 68.81 0.23 7.43 5.17 10.19
5/21/2021 2:30:00 PM 20.52 68.936 0.23 7.45 4.95 10.18
5/21/2021 2:45:00 PM 20.33 68.594 0.23 7.42 4.98 10.03
5/21/2021 3:00:00 PM 20.55 68.99 0.231 7.42 4.97 10.05
5/21/2021 3:15:00 PM 20.65 69.17 0.231 7.45 5.02 10.09
5/21/2021 3:30:00 PM 20.68 69.224 0.23 7.43 5.09 10.09
5/21/2021 3:45:00 PM 20.54 68.972 0.23 7.41 5.01 9.99
5/21/2021 4:00:00 PM 20.7 69.26 0.23 7.42 5.12 9.99
5/21/2021 4:15:00 PM 20.79 69.422 0.23 7.44 4.99 10
5/21/2021 4:30:00 PM 20.77 69.386 0.231 7.44 5.29 10
5/21/2021 4:45:00 PM 20.77 69.386 0.231 7.43 5.17 9.98
5/21/2021 5:00:00 PM 20.72 69.296 0.23 7.42 5.11 9.94
5/21/2021 5:15:00 PM 20.64 69.152 0.231 7.4 5.13 9.91
5/21/2021 5:30:00 PM 20.57 69.026 0.231 7.39 5.07 9.86
5/21/2021 5:45:00 PM 20.49 68.882 0.231 7.38 5.21 9.81
5/21/2021 6:00:00 PM 20.37 68.666 0.231 7.37 5.19 9.75
5/21/2021 6:15:00 PM 20.24 68.432 0.231 7.35 5.18 9.67
5/21/2021 6:30:00 PM 20.06 68.108 0.231 7.33 5.38 9.59
5/21/2021 6:45:00 PM 19.86 67.748 0.231 7.3 5.3 9.49
5/21/2021 7:00:00 PM 19.64 67.352 0.231 7.29 5.34 9.36
5/21/2021 7:15:00 PM 19.44 66.992 0.231 7.25 5.19 9.26
5/21/2021 7:30:00 PM 19.28 66.704 0.231 7.24 5.18 9.15
5/21/2021 7:45:00 PM 19.13 66.434 0.231 7.22 5.21 9.03
5/21/2021 8:00:00 PM 19 66.2 0.232 7.21 5.53 8.92
5/21/2021 8:15:00 PM 18.87 65.966 0.232 7.18 5.36 8.81
5/21/2021 8:30:00 PM 18.74 65.732 0.232 7.17 5.48 8.7
5/21/2021 8:45:00 PM 18.6 65.48 0.233 7.16 5.05 8.6
5/21/2021 9:00:00 PM 18.47 65.246 0.233 7.13 5.49 8.52
5/21/2021 9:15:00 PM 18.34 65.012 0.234 7.13 5.53 8.45
5/21/2021 9:30:00 PM 18.23 64.814 0.234 7.12 5.63 8.39
5/21/2021 9:45:00 PM 18.13 64.634 0.234 7.11 5.56 8.35
5/21/2021 10:00:00 PM 18.03 64.454 0.234 7.12 6.3 8.31
5/21/2021 10:15:00 PM 17.93 64.274 0.234 7.11 5.61 8.29
5/21/2021 10:30:00 PM 17.83 64.094 0.234 7.1 5.56 8.27
5/21/2021 10:45:00 PM 17.74 63.932 0.234 7.1 5.68 8.25
5/21/2021 11:00:00 PM 17.65 63.77 0.234 7.09 5.65 8.24
5/21/2021 11:15:00 PM 17.56 63.608 0.234 7.1 5.78 8.23
5/21/2021 11:30:00 PM 17.48 63.464 0.234 7.09 5.62 8.21
5/21/2021 11:45:00 PM 17.42 63.356 0.234 7.08 5.77 8.19
5/22/2021 12:00:00 AM 17.36 63.248 0.234 7.09 5.54 8.17
5/22/2021 12:15:00 AM 17.3 63.14 0.234 7.08 5.81 8.17
5/22/2021 12:30:00 AM 17.23 63.014 0.234 7.09 6.22 8.18
5/22/2021 12:45:00 AM 17.18 62.924 0.234 7.08 5.81 8.16
5/22/2021 1:00:00 AM 17.11 62.798 0.235 7.07 5.87 8.15
5/22/2021 1:15:00 AM 17.05 62.69 0.235 7.07 5.96 8.14
5/22/2021 1:30:00 AM 16.99 62.582 0.235 7.07 5.96 8.15
5/22/2021 1:45:00 AM 16.94 62.492 0.235 7.08 6.14 8.16
5/22/2021 2:00:00 AM 16.88 62.384 0.235 7.06 5.64 8.16
5/22/2021 2:15:00 AM 16.82 62.276 0.235 7.07 5.89 8.16
5/22/2021 2:30:00 AM 16.77 62.186 0.235 7.06 6.05 8.15
5/22/2021 2:45:00 AM 16.72 62.096 0.235 7.07 5.83 8.15
5/22/2021 3:00:00 AM 16.68 62.024 0.235 7.06 5.89 8.15
5/22/2021 3:15:00 AM 16.63 61.934 0.235 7.06 5.9 8.15
5/22/2021 3:30:00 AM 16.58 61.844 0.236 7.07 5.94 8.17
5/22/2021 3:45:00 AM 16.53 61.754 0.236 7.08 5.98 8.17
5/22/2021 4:00:00 AM 16.48 61.664 0.236 7.07 6.4 8.17
5/22/2021 4:15:00 AM 16.44 61.592 0.236 7.07 6.07 8.18
5/22/2021 4:30:00 AM 16.38 61.484 0.236 7.08 6.45 8.18
5/22/2021 4:45:00 AM 16.33 61.394 0.236 7.07 6.24 8.19
5/22/2021 5:00:00 AM 16.28 61.304 0.236 7.07 6.16 8.19
5/22/2021 5:15:00 AM 16.22 61.196 0.236 7.06 6.35 8.2
5/22/2021 5:30:00 AM 16.17 61.106 0.236 7.07 6 8.2
5/22/2021 5:45:00 AM 16.11 60.998 0.237 7.07 6.18 8.21
5/22/2021 6:00:00 AM 16.06 60.908 0.237 7.08 6.2 8.22
5/22/2021 6:15:00 AM 16.02 60.836 0.237 7.08 6.34 8.24
5/22/2021 6:30:00 AM 15.98 60.764 0.237 7.08 6.14 8.28
5/22/2021 6:45:00 AM 15.95 60.71 0.237 7.09 6.08 8.35
5/22/2021 7:00:00 AM 15.95 60.71 0.237 7.1 6.26 8.45
5/22/2021 7:15:00 AM 15.96 60.728 0.237 7.11 5.81 8.56
5/22/2021 7:30:00 AM 15.96 60.728 0.237 7.13 6.03 8.65
5/22/2021 7:45:00 AM 15.97 60.746 0.237 7.13 6.1 8.74
5/22/2021 8:00:00 AM 16.04 60.872 0.237 7.15 5.86 8.88
5/22/2021 8:15:00 AM 16.14 61.052 0.237 7.16 5.58 9.03
5/22/2021 8:30:00 AM 16.21 61.178 0.237 7.17 5.66 9.14
5/22/2021 8:45:00 AM 16.28 61.304 0.237 7.19 5.47 9.24
5/22/2021 9:00:00 AM 16.42 61.556 0.237 7.21 5.76 9.31
5/22/2021 9:15:00 AM 16.61 61.898 0.237 7.22 5.62 9.44
5/22/2021 9:30:00 AM 16.78 62.204 0.237 7.24 5.65 9.52
5/22/2021 9:45:00 AM 16.96 62.528 0.237 7.24 5.75 9.61
5/22/2021 10:00:00 AM 17.15 62.87 0.237 7.27 5.55 9.69
5/22/2021 10:15:00 AM 17.23 63.014 0.237 7.27 5.46 9.74
5/22/2021 10:30:00 AM 17.38 63.284 0.236 7.29 5.52 9.8
5/22/2021 10:45:00 AM 17.51 63.518 0.237 7.3 5.51 9.86
5/22/2021 11:00:00 AM 17.58 63.644 0.237 7.29 5.53 9.9
5/22/2021 11:15:00 AM 17.68 63.824 0.236 7.31 5.54 9.93
5/22/2021 11:30:00 AM 17.94 64.292 0.237 7.34 5.8 10.01
5/22/2021 11:45:00 AM 18.18 64.724 0.237 7.35 5.54 10.07
5/22/2021 12:00:00 PM 18.36 65.048 0.237 7.37 5.52 10.12
5/22/2021 12:15:00 PM 18.42 65.156 0.237 7.37 5.74 10.13
5/22/2021 12:30:00 PM 18.61 65.498 0.238 7.38 5.62 10.17
5/22/2021 12:45:00 PM 18.87 65.966 0.237 7.4 5.61 10.21
5/22/2021 1:00:00 PM 18.95 66.11 0.237 7.4 5.44 10.22
5/22/2021 1:15:00 PM 19.2 66.56 0.237 7.42 5.51 10.26
5/22/2021 1:30:00 PM 19.51 67.118 0.237 7.44 5.62 10.3
5/22/2021 1:45:00 PM 19.76 67.568 0.237 7.46 5.8 10.33
5/22/2021 2:00:00 PM 19.78 67.604 0.237 7.46 5.34 10.31
5/22/2021 2:15:00 PM 19.77 67.586 0.237 7.43 6 10.27
5/22/2021 2:30:00 PM 19.87 67.766 0.237 7.45 5.45 10.26
5/22/2021 2:45:00 PM 19.89 67.802 0.238 7.45 5.61 10.25
5/22/2021 3:00:00 PM 19.9 67.82 0.237 7.45 5.3 10.25
5/22/2021 3:15:00 PM 19.82 67.676 0.237 7.44 5.58 10.2
5/22/2021 3:30:00 PM 19.75 67.55 0.237 7.43 5.37 10.16
5/22/2021 3:45:00 PM 19.63 67.334 0.237 7.43 5.39 10.12
5/22/2021 4:00:00 PM 19.5 67.1 0.238 7.41 5.53 10.06
5/22/2021 4:15:00 PM 19.45 67.01 0.238 7.4 5.55 10.05
5/22/2021 4:30:00 PM 19.4 66.92 0.238 7.41 5.3 10.06
5/22/2021 4:45:00 PM 19.25 66.65 0.238 7.39 5.57 9.98
5/22/2021 5:00:00 PM 19.18 66.524 0.238 7.39 5.56 9.95
5/22/2021 5:15:00 PM 19.08 66.344 0.239 7.38 5.38 9.9
5/22/2021 5:30:00 PM 19.02 66.236 0.239 7.37 5.53 9.88
5/22/2021 5:45:00 PM 18.93 66.074 0.239 7.35 5.36 9.82
5/22/2021 6:00:00 PM 18.86 65.948 0.239 7.33 5.44 9.75
5/22/2021 6:15:00 PM 18.79 65.82201 0.239 7.32 5.16 9.68
5/22/2021 6:30:00 PM 18.69 65.642 0.239 7.3 5.55 9.61
5/22/2021 6:45:00 PM 18.61 65.498 0.239 7.3 5.47 9.52
5/22/2021 7:00:00 PM 18.51 65.318 0.239 7.26 5.81 9.35
5/22/2021 7:15:00 PM 18.43 65.174 0.239 7.25 5.55 9.25
5/22/2021 7:30:00 PM 18.32 64.976 0.24 7.22 5.71 9.13
5/22/2021 7:45:00 PM 18.22 64.796 0.24 7.23 5.36 9.05
5/22/2021 8:00:00 PM 18.13 64.634 0.24 7.21 5.44 8.96
5/22/2021 8:15:00 PM 18.04 64.472 0.24 7.21 5.48 8.83
5/22/2021 8:30:00 PM 17.96 64.328 0.24 7.18 5.65 8.72
5/22/2021 8:45:00 PM 17.88 64.184 0.24 7.18 5.59 8.63
5/22/2021 9:00:00 PM 17.8 64.04 0.241 7.16 5.55 8.54
5/22/2021 9:15:00 PM 17.71 63.878 0.24 7.15 5.74 8.47
5/22/2021 9:30:00 PM 17.62 63.716 0.24 7.14 5.88 8.39
5/22/2021 9:45:00 PM 17.53 63.554 0.241 7.14 5.69 8.35
5/22/2021 10:00:00 PM 17.45 63.41 0.241 7.14 5.91 8.31
5/22/2021 10:15:00 PM 17.37 63.266 0.241 7.13 5.73 8.27
5/22/2021 10:30:00 PM 17.29 63.122 0.241 7.12 5.7 8.23
5/22/2021 10:45:00 PM 17.23 63.014 0.241 7.12 6.15 8.22
5/22/2021 11:00:00 PM 17.18 62.924 0.241 7.12 6.21 8.2
5/22/2021 11:15:00 PM 17.13 62.834 0.241 7.12 6.08 8.19
5/22/2021 11:30:00 PM 17.09 62.762 0.241 7.12 6.04 8.18
5/22/2021 11:45:00 PM 17.04 62.672 0.241 7.12 5.91 8.18
5/23/2021 12:00:00 AM 17.01 62.618 0.241 7.12 5.92 8.17
5/23/2021 12:15:00 AM 16.97 62.546 0.241 7.11 5.87 8.17
5/23/2021 12:30:00 AM 16.93 62.474 0.241 7.12 6.14 8.15
5/23/2021 12:45:00 AM 16.9 62.42 0.241 7.11 5.79 8.15
5/23/2021 1:00:00 AM 16.87 62.366 0.241 7.11 5.62 8.14
5/23/2021 1:15:00 AM 16.85 62.33 0.242 7.11 5.81 8.13
5/23/2021 1:30:00 AM 16.81 62.258 0.242 7.1 5.84 8.12
5/23/2021 1:45:00 AM 16.78 62.204 0.242 7.12 6.06 8.12
5/23/2021 2:00:00 AM 16.75 62.15 0.242 7.11 5.8 8.12
5/23/2021 2:15:00 AM 16.72 62.096 0.242 7.11 5.91 8.11
5/23/2021 2:30:00 AM 16.71 62.078 0.242 7.11 5.9 8.09
5/23/2021 2:45:00 AM 16.67 62.006 0.242 7.1 6.11 8.1
5/23/2021 3:00:00 AM 16.63 61.934 0.242 7.11 6.06 8.08
5/23/2021 3:15:00 AM 16.59 61.862 0.242 7.11 5.99 8.09
5/23/2021 3:30:00 AM 16.54 61.772 0.242 7.11 6.19 8.09
5/23/2021 3:45:00 AM 16.5 61.7 0.243 7.09 6.63 8.09
5/23/2021 4:00:00 AM 16.47 61.646 0.243 7.1 5.99 8.1
5/23/2021 4:15:00 AM 16.44 61.592 0.243 7.1 5.91 8.09
5/23/2021 4:30:00 AM 16.43 61.574 0.243 7.09 5.8 8.09
5/23/2021 4:45:00 AM 16.4 61.52 0.243 7.09 6.09 8.1
5/23/2021 5:00:00 AM 16.39 61.502 0.243 7.1 5.93 8.09
5/23/2021 5:15:00 AM 16.35 61.43 0.243 7.09 5.82 8.1
5/23/2021 5:30:00 AM 16.32 61.376 0.243 7.1 6.11 8.1
5/23/2021 5:45:00 AM 16.29 61.322 0.243 7.1 5.91 8.1
5/23/2021 6:00:00 AM 16.25 61.25 0.243 7.1 5.7 8.11
5/23/2021 6:15:00 AM 16.21 61.178 0.244 7.1 5.72 8.13
5/23/2021 6:30:00 AM 16.18 61.124 0.244 7.1 5.99 8.17
5/23/2021 6:45:00 AM 16.17 61.106 0.244 7.11 5.92 8.24
5/23/2021 7:00:00 AM 16.17 61.106 0.244 7.13 5.92 8.34
5/23/2021 7:15:00 AM 16.19 61.142 0.244 7.12 5.79 8.44
5/23/2021 7:30:00 AM 16.23 61.214 0.244 7.15 5.82 8.58
5/23/2021 7:45:00 AM 16.29 61.322 0.244 7.16 5.61 8.71
5/23/2021 8:00:00 AM 16.37 61.466 0.244 7.17 5.7 8.83
5/23/2021 8:15:00 AM 16.49 61.682 0.244 7.2 5.98 8.99
5/23/2021 8:30:00 AM 16.58 61.844 0.244 7.2 5.61 9.09
5/23/2021 8:45:00 AM 16.66 61.988 0.244 7.22 5.6 9.17
5/23/2021 9:00:00 AM 16.83 62.294 0.244 7.23 5.79 9.28
5/23/2021 9:15:00 AM 17.03 62.654 0.243 7.25 5.65 9.39
5/23/2021 9:30:00 AM 17.23 63.014 0.243 7.26 5.6 9.48
5/23/2021 9:45:00 AM 17.37 63.266 0.244 7.28 5.62 9.54
5/23/2021 10:00:00 AM 17.57 63.626 0.244 7.29 5.73 9.61
5/23/2021 10:15:00 AM 17.88 64.184 0.243 7.3 5.61 9.69
5/23/2021 10:30:00 AM 18.13 64.634 0.243 7.31 5.46 9.73
5/23/2021 10:45:00 AM 18.38 65.084 0.244 7.32 5.42 9.78
5/23/2021 11:00:00 AM 18.63 65.534 0.243 7.34 5.7 9.82
5/23/2021 11:15:00 AM 19.02 66.236 0.243 7.35 5.57 9.89
5/23/2021 11:30:00 AM 19.26 66.668 0.243 7.37 5.44 9.92
5/23/2021 11:45:00 AM 19.53 67.154 0.243 7.38 5.47 9.94
5/23/2021 12:00:00 PM 19.64 67.352 0.243 7.38 5.86 9.94
5/23/2021 12:15:00 PM 19.69 67.442 0.243 7.39 5.41 9.92
5/23/2021 12:30:00 PM 19.92 67.856 0.243 7.4 5.45 9.97
5/23/2021 12:45:00 PM 19.98 67.964 0.243 7.39 5.34 9.96
5/23/2021 1:00:00 PM 20.23 68.414 0.242 7.41 5.83 10
5/23/2021 1:15:00 PM 20.24 68.432 0.243 7.4 5.4 9.97
5/23/2021 1:30:00 PM 20.44 68.792 0.243 7.42 5.49 10.01
5/23/2021 1:45:00 PM 20.31 68.558 0.243 7.39 5.43 9.94
5/23/2021 2:00:00 PM 20.42 68.756 0.243 7.42 5.61 9.94
5/23/2021 2:15:00 PM 20.55 68.99 0.243 7.43 5.35 9.92
5/23/2021 2:30:00 PM 20.58 69.044 0.242 7.42 5.59 9.91
5/23/2021 2:45:00 PM 20.44 68.792 0.243 7.42 5.41 9.84
5/23/2021 3:00:00 PM 20.45 68.81 0.242 7.43 5.39 9.86
5/23/2021 3:15:00 PM 20.5 68.9 0.243 7.44 5.66 9.89
5/23/2021 3:30:00 PM 20.64 69.152 0.243 7.46 5.28 9.94
5/23/2021 3:45:00 PM 20.79 69.422 0.243 7.47 5.38 9.97
5/23/2021 4:00:00 PM 20.84 69.512 0.243 7.48 5.45 9.96
5/23/2021 4:15:00 PM 20.83 69.494 0.243 7.44 5.44 9.88
5/23/2021 4:30:00 PM 20.83 69.494 0.243 7.44 5.64 9.82
5/23/2021 4:45:00 PM 20.84 69.512 0.243 7.43 5.43 9.77
5/23/2021 5:00:00 PM 20.77 69.386 0.243 7.41 5.54 9.7
5/23/2021 5:15:00 PM 20.74 69.332 0.244 7.42 5.56 9.68
5/23/2021 5:30:00 PM 20.62 69.116 0.244 7.4 5.36 9.56
5/23/2021 5:45:00 PM 20.62 69.116 0.244 7.4 5.66 9.56
5/23/2021 6:00:00 PM 20.53 68.954 0.244 7.39 5.47 9.53
5/23/2021 6:15:00 PM 20.41 68.738 0.244 7.38 5.38 9.47
5/23/2021 6:30:00 PM 20.3 68.54 0.244 7.37 5.58 9.44
5/23/2021 6:45:00 PM 20.16 68.288 0.244 7.35 5.52 9.37
5/23/2021 7:00:00 PM 20.01 68.018 0.244 7.33 5.57 9.28
5/23/2021 7:15:00 PM 19.85 67.73 0.245 7.31 5.51 9.18
5/23/2021 7:30:00 PM 19.71 67.478 0.245 7.29 5.71 9.06
5/23/2021 7:45:00 PM 19.56 67.208 0.245 7.25 5.53 8.91
5/23/2021 8:00:00 PM 19.44 66.992 0.245 7.25 5.55 8.77
5/23/2021 8:15:00 PM 19.3 66.74 0.245 7.22 5.65 8.65
5/23/2021 8:30:00 PM 19.18 66.524 0.245 7.21 5.52 8.49
5/23/2021 8:45:00 PM 19.07 66.326 0.246 7.2 5.73 8.38
5/23/2021 9:00:00 PM 18.97 66.146 0.245 7.19 5.41 8.27
5/23/2021 9:15:00 PM 18.88 65.984 0.246 7.16 5.72 8.17
5/23/2021 9:30:00 PM 18.8 65.84 0.246 7.16 6.06 8.08
5/23/2021 9:45:00 PM 18.72 65.696 0.246 7.13 5.86 8
5/23/2021 10:00:00 PM 18.63 65.534 0.246 7.13 5.84 7.96
5/23/2021 10:15:00 PM 18.57 65.426 0.246 7.13 5.65 7.93
5/23/2021 10:30:00 PM 18.5 65.3 0.246 7.13 5.87 7.9
5/23/2021 10:45:00 PM 18.43 65.174 0.246 7.13 5.5 7.88
5/23/2021 11:00:00 PM 18.37 65.066 0.246 7.13 5.73 7.87
5/23/2021 11:15:00 PM 18.3 64.94 0.246 7.11 6.17 7.86
5/23/2021 11:30:00 PM 18.25 64.85 0.246 7.12 6.15 7.84
5/23/2021 11:45:00 PM 18.19 64.742 0.247 7.11 5.68 7.84
5/24/2021 12:00:00 AM 18.15 64.67 0.247 7.11 5.76 7.82
5/24/2021 12:15:00 AM 18.1 64.58 0.247 7.12 6.12 7.82
5/24/2021 12:30:00 AM 18.07 64.526 0.247 7.11 5.67 7.81
5/24/2021 12:45:00 AM 18.02 64.436 0.247 7.12 6.04 7.8
5/24/2021 1:00:00 AM 17.99 64.382 0.247 7.11 5.82 7.8
5/24/2021 1:15:00 AM 17.94 64.292 0.247 7.11 6.18 7.79
5/24/2021 1:30:00 AM 17.89 64.202 0.247 7.09 6 7.79
5/24/2021 1:45:00 AM 17.85 64.13 0.247 7.09 5.64 7.79
5/24/2021 2:00:00 AM 17.81 64.058 0.247 7.1 5.74 7.79
5/24/2021 2:15:00 AM 17.77 63.986 0.247 7.09 5.97 7.79
5/24/2021 2:30:00 AM 17.73 63.914 0.247 7.1 5.95 7.79
5/24/2021 2:45:00 AM 17.7 63.86 0.248 7.09 5.89 7.79
5/24/2021 3:00:00 AM 17.67 63.806 0.248 7.09 5.84 7.79
5/24/2021 3:15:00 AM 17.65 63.77 0.248 7.09 8.52 7.79
5/24/2021 3:30:00 AM 17.62 63.716 0.248 7.1 5.83 7.79
5/24/2021 3:45:00 AM 17.6 63.68 0.248 7.09 5.82 7.79
5/24/2021 4:00:00 AM 17.57 63.626 0.248 7.09 6 7.79
5/24/2021 4:15:00 AM 17.56 63.608 0.248 7.09 6.17 7.78
5/24/2021 4:30:00 AM 17.55 63.59 0.248 7.09 6.25 7.79
5/24/2021 4:45:00 AM 17.53 63.554 0.248 7.09 5.98 7.78
5/24/2021 5:00:00 AM 17.51 63.518 0.248 7.09 6.06 7.78
5/24/2021 5:15:00 AM 17.48 63.464 0.249 7.08 6.24 7.79
5/24/2021 5:30:00 AM 17.44 63.392 0.249 7.09 6.41 7.79
5/24/2021 5:45:00 AM 17.42 63.356 0.249 7.1 5.98 7.79
5/24/2021 6:00:00 AM 17.39 63.302 0.249 7.09 5.86 7.79
5/24/2021 6:15:00 AM 17.37 63.266 0.248 7.11 5.99 7.81
5/24/2021 6:30:00 AM 17.27 63.086 0.245 7.11 7.25 7.91
5/24/2021 6:45:00 AM 17.36 63.248 0.263 7.17 54.33 7.86
5/24/2021 7:00:00 AM 17.3 63.14 0.261 7.15 23.27 7.84
5/24/2021 7:15:00 AM 17.2 62.96 0.256 7.14 12.11 7.86
5/24/2021 7:30:00 AM 17.12 62.816 0.255 7.14 9.45 7.89
5/24/2021 7:45:00 AM 17.13 62.834 0.253 7.13 8.86 7.92
5/24/2021 8:00:00 AM 17.14 62.852 0.251 7.13 7.85 7.94
5/24/2021 8:15:00 AM 17.12 62.816 0.251 7.12 7.61 7.97
5/24/2021 8:30:00 AM 17.09 62.762 0.25 7.12 7.78 7.98
5/24/2021 8:45:00 AM 17.07 62.726 0.25 7.12 6.88 8.04
5/24/2021 9:00:00 AM 17.05 62.69 0.251 7.13 6.87 8.13
5/24/2021 9:15:00 AM 17.05 62.69 0.25 7.15 6.73 8.26
5/24/2021 9:30:00 AM 17.02 62.636 0.25 7.15 6.23 8.3
5/24/2021 9:45:00 AM 17 62.6 0.249 7.16 6.38 8.36
5/24/2021 10:00:00 AM 16.97 62.546 0.25 7.15 6.86 8.4
5/24/2021 10:15:00 AM 16.95 62.51 0.249 7.15 9.51 8.35
5/24/2021 10:30:00 AM 16.87 62.366 0.246 7.13 10.65 8.36
5/24/2021 10:45:00 AM 16.88 62.384 0.228 7.18 27.34 8.41
5/24/2021 11:00:00 AM 16.77 62.186 0.231 7.17 22.63 8.46
5/24/2021 11:15:00 AM 16.6 61.88 0.24 7.17 18.04 8.47
5/24/2021 11:30:00 AM 16.61 61.898 0.239 7.17 17.38 8.46
5/24/2021 11:45:00 AM 16.7 62.06 0.233 7.19 16.43 8.52
5/24/2021 12:00:00 PM 16.78 62.204 0.231 7.19 15.21 8.59
5/24/2021 12:15:00 PM 16.83 62.294 0.231 7.19 13.5 8.66
5/24/2021 12:30:00 PM 16.91 62.438 0.231 7.19 12.56 8.75
5/24/2021 12:45:00 PM 16.94 62.492 0.232 7.2 10.78 8.78
5/24/2021 1:00:00 PM 16.97 62.546 0.234 7.18 9.94 8.82
5/24/2021 1:15:00 PM 16.98 62.564 0.237 7.2 9.01 8.89
5/24/2021 1:30:00 PM 16.99 62.582 0.239 7.21 8.43 8.95
5/24/2021 1:45:00 PM 16.98 62.564 0.241 7.21 8.01 8.99
5/24/2021 2:00:00 PM 16.99 62.582 0.242 7.21 7.42 9.06
5/24/2021 2:15:00 PM 17 62.6 0.243 7.23 7.63 9.11
5/24/2021 2:30:00 PM 17.01 62.618 0.244 7.23 7.31 9.15
5/24/2021 2:45:00 PM 16.71 62.078 0.257 7.25 9.15 9.26
5/24/2021 3:00:00 PM 16.63 61.934 0.259 7.25 9.91 9.31
5/24/2021 3:15:00 PM 16.75 62.15 0.256 7.3 8.71 9.35
5/24/2021 3:30:00 PM 16.95 62.51 0.251 7.32 8.7 9.4
5/24/2021 3:45:00 PM 17.09 62.762 0.247 7.35 9.36 9.41
5/24/2021 4:00:00 PM 17.3 63.14 0.244 7.35 8.82 9.44
5/24/2021 4:15:00 PM 17.4 63.32 0.241 7.37 8.03 9.44
5/24/2021 4:30:00 PM 17.46 63.428 0.239 7.36 8.75 9.38
5/24/2021 4:45:00 PM 17.55 63.59 0.237 7.37 8.4 9.33
5/24/2021 5:00:00 PM 17.56 63.608 0.235 7.35 9.12 9.25
5/24/2021 5:15:00 PM 17.56 63.608 0.232 7.35 9.89 9.15
5/24/2021 5:30:00 PM 17.57 63.626 0.23 7.34 9.18 9.08
5/24/2021 5:45:00 PM 17.54 63.572 0.228 7.34 9.28 9.02
5/24/2021 6:00:00 PM 17.49 63.482 0.226 7.32 9.42 8.93
5/24/2021 6:15:00 PM 17.45 63.41 0.224 7.32 13.45 8.83
5/24/2021 6:30:00 PM 17.41 63.338 0.222 7.32 10.87 8.76
5/24/2021 6:45:00 PM 17.38 63.284 0.22 7.31 10.61 8.69
5/24/2021 7:00:00 PM 17.35 63.23 0.218 7.31 10.49 8.63
5/24/2021 7:15:00 PM 17.32 63.176 0.216 7.3 12.48 8.57
5/24/2021 7:30:00 PM 17.3 63.14 0.213 7.29 13.45 8.52
5/24/2021 7:45:00 PM 17.25 63.05 0.209 7.28 16.15 8.47
5/24/2021 8:00:00 PM 17.2 62.96 0.206 7.28 17.36 8.4
5/24/2021 8:15:00 PM 17.15 62.87 0.202 7.24 19.95 8.35
5/24/2021 8:30:00 PM 17.1 62.78 0.198 7.25 22.97 8.31
5/24/2021 8:45:00 PM 17.06 62.708 0.196 7.24 26.45 8.27
5/24/2021 9:00:00 PM 17.04 62.672 0.193 7.25 25.25 8.23
5/24/2021 9:15:00 PM 17.02 62.636 0.192 7.22 26.95 8.2
5/24/2021 9:30:00 PM 16.97 62.546 0.189 7.22 31.14 8.15
5/24/2021 9:45:00 PM 16.9 62.42 0.187 7.2 33.55 8.12
5/24/2021 10:00:00 PM 16.83 62.294 0.184 7.19 36.73 8.11
5/24/2021 10:15:00 PM 16.78 62.204 0.182 7.18 37.91 8.11
5/24/2021 10:30:00 PM 16.73 62.114 0.18 7.18 37.79 8.1
5/24/2021 10:45:00 PM 16.67 62.006 0.179 7.18 34.23 8.1
5/24/2021 11:00:00 PM 16.62 61.916 0.179 7.17 37.48 8.1
5/24/2021 11:15:00 PM 16.56 61.808 0.179 7.16 36.24 8.1
5/24/2021 11:30:00 PM 16.51 61.718 0.18 7.18 28.37 8.09
5/24/2021 11:45:00 PM 16.46 61.628 0.18 7.17 33.05 8.08
5/25/2021 12:00:00 AM 16.39 61.502 0.181 7.17 35.18 8.08
5/25/2021 12:15:00 AM 16.33 61.394 0.181 7.18 30.31 8.09
5/25/2021 12:30:00 AM 16.26 61.268 0.18 7.18 33.22 8.09
5/25/2021 12:45:00 AM 16.2 61.16 0.18 7.18 31.88 8.1
5/25/2021 1:00:00 AM 16.13 61.034 0.179 7.19 31.94 8.11
5/25/2021 1:15:00 AM 16.05 60.89 0.178 7.17 41.34 8.12
5/25/2021 1:30:00 AM 15.98 60.764 0.177 7.18 30.94 8.14
5/25/2021 1:45:00 AM 15.9 60.62 0.169 7.18 31.29 8.16
5/25/2021 2:00:00 AM 15.83 60.494 0.175 7.17 31.33 8.18
5/25/2021 2:15:00 AM 15.75 60.35 0.174 7.17 32.33 8.19
5/25/2021 2:30:00 AM 15.68 60.224 0.173 7.17 31.76 8.2
5/25/2021 2:45:00 AM 15.61 60.098 0.172 7.16 32.4 8.22
5/25/2021 3:00:00 AM 15.54 59.972 0.171 7.16 32.6 8.23
5/25/2021 3:15:00 AM 15.47 59.846 0.17 7.15 35.42 8.24
5/25/2021 3:30:00 AM 15.41 59.738 0.169 7.14 35.55 8.25
5/25/2021 3:45:00 AM 15.36 59.648 0.168 7.13 35 8.25
5/25/2021 4:00:00 AM 15.3 59.54 0.167 7.14 35.2 8.26
5/25/2021 4:15:00 AM 15.25 59.45 0.166 7.13 39.49 8.26
5/25/2021 4:30:00 AM 15.21 59.378 0.166 7.13 29.91 8.26
5/25/2021 4:45:00 AM 15.17 59.306 0.165 7.13 31.74 8.27
5/25/2021 5:00:00 AM 15.13 59.234 0.165 7.12 34.65 8.27
5/25/2021 5:15:00 AM 15.09 59.162 0.165 7.11 35.55 8.27
5/25/2021 5:30:00 AM 15.06 59.108 0.165 7.11 36.17 8.28
5/25/2021 5:45:00 AM 15.03 59.054 0.165 7.12 35.24 8.28
5/25/2021 6:00:00 AM 15 59 0.165 7.11 35.21 8.29
5/25/2021 6:15:00 AM 14.98 58.964 0.165 7.11 36.12 8.29
5/25/2021 6:30:00 AM 14.96 58.928 0.165 7.12 35.37 8.31
5/25/2021 6:45:00 AM 14.94 58.892 0.165 7.11 35.72 8.32
5/25/2021 7:00:00 AM 14.93 58.874 0.166 7.11 34.89 8.33
5/25/2021 7:15:00 AM 14.93 58.874 0.166 7.11 35.03 8.35
5/25/2021 7:30:00 AM 14.93 58.874 0.166 7.1 32.55 8.37
5/25/2021 7:45:00 AM 14.94 58.892 0.166 7.11 33.02 8.39
5/25/2021 8:00:00 AM 14.95 58.91 0.166 7.12 32.01 8.41
5/25/2021 8:15:00 AM 14.97 58.946 0.166 7.12 32.11 8.44
5/25/2021 8:30:00 AM 15.02 59.036 0.167 7.11 30.64 8.47
5/25/2021 8:45:00 AM 15.08 59.144 0.167 7.13 27.05 8.51
5/25/2021 9:00:00 AM 15.16 59.288 0.167 7.13 29.21 8.56
5/25/2021 9:15:00 AM 15.3 59.54 0.167 7.14 29.24 8.62
5/25/2021 9:30:00 AM 15.48 59.864 0.167 7.16 27.91 8.68
5/25/2021 9:45:00 AM 15.63 60.134 0.167 7.16 26.16 8.72
5/25/2021 10:00:00 AM 15.81 60.458 0.167 7.18 26.71 8.76
5/25/2021 10:15:00 AM 15.98 60.764 0.168 7.16 26.84 8.8
5/25/2021 10:30:00 AM 16.18 61.124 0.168 7.18 26.85 8.82
5/25/2021 10:45:00 AM 16.4 61.52 0.168 7.17 25.21 8.85
5/25/2021 11:00:00 AM 16.56 61.808 0.168 7.17 25.79 8.86
5/25/2021 11:15:00 AM 16.78 62.204 0.168 7.18 25.67 8.89
5/25/2021 11:30:00 AM 16.97 62.546 0.169 7.18 24.91 8.91
5/25/2021 11:45:00 AM 17.17 62.906 0.169 7.18 24.51 8.94
5/25/2021 12:00:00 PM 17.36 63.248 0.169 7.18 24.01 8.96
5/25/2021 12:15:00 PM 17.41 63.338 0.169 7.18 24.36 8.94
5/25/2021 12:30:00 PM 17.52 63.536 0.17 7.17 23.75 8.95
5/25/2021 12:45:00 PM 17.81 64.058 0.17 7.2 23.37 9
5/25/2021 1:00:00 PM 18.02 64.436 0.17 7.2 23.19 9.02
5/25/2021 1:15:00 PM 17.92 64.256 0.171 7.17 22.29 8.94
5/25/2021 1:30:00 PM 18.15 64.67 0.171 7.19 22.4 8.98
5/25/2021 1:45:00 PM 18.19 64.742 0.171 7.18 22.59 8.97
5/25/2021 2:00:00 PM 18.16 64.688 0.172 7.17 22.4 8.93
5/25/2021 2:15:00 PM 18.32 64.976 0.172 7.18 21.65 8.95
5/25/2021 2:30:00 PM 18.42 65.156 0.173 7.19 20.7 8.99
5/25/2021 2:45:00 PM 18.42 65.156 0.173 7.17 20.94 8.98
5/25/2021 3:00:00 PM 18.24 64.832 0.174 7.15 20.87 8.87
5/25/2021 3:15:00 PM 18.15 64.67 0.174 7.12 20.46 8.82
5/25/2021 3:30:00 PM 18.13 64.634 0.175 7.12 20.1 8.83
5/25/2021 3:45:00 PM 18.07 64.526 0.175 7.12 20.48 8.79
5/25/2021 4:00:00 PM 18.24 64.832 0.175 7.15 19.14 8.86
5/25/2021 4:15:00 PM 18.32 64.976 0.176 7.16 18.83 8.9
5/25/2021 4:30:00 PM 18.43 65.174 0.176 7.16 18.7 8.89
5/25/2021 4:45:00 PM 18.5 65.3 0.177 7.16 18.16 8.88
5/25/2021 5:00:00 PM 18.5 65.3 0.178 7.16 18.17 8.83
5/25/2021 5:15:00 PM 18.54 65.372 0.178 7.15 17.25 8.81
5/25/2021 5:30:00 PM 18.49 65.282 0.179 7.14 17.54 8.78
5/25/2021 5:45:00 PM 18.43 65.174 0.179 7.13 17.45 8.73
5/25/2021 6:00:00 PM 18.36 65.048 0.18 7.13 16.38 8.69
5/25/2021 6:15:00 PM 18.31 64.958 0.18 7.1 17.45 8.67
5/25/2021 6:30:00 PM 18.28 64.904 0.18 7.12 16.43 8.67
5/25/2021 6:45:00 PM 18.25 64.85 0.181 7.11 16.79 8.66
5/25/2021 7:00:00 PM 18.23 64.814 0.181 7.12 16.58 8.65
5/25/2021 7:15:00 PM 18.19 64.742 0.182 7.11 16.02 8.62
5/25/2021 7:30:00 PM 18.13 64.634 0.182 7.11 15.51 8.57
5/25/2021 7:45:00 PM 18.05 64.49 0.182 7.11 15.37 8.51
5/25/2021 8:00:00 PM 17.96 64.328 0.183 7.09 15.03 8.44
5/25/2021 8:15:00 PM 17.88 64.184 0.183 7.08 14.2 8.38
5/25/2021 8:30:00 PM 17.79 64.022 0.184 7.06 14.11 8.32
5/25/2021 8:45:00 PM 17.73 63.914 0.184 7.07 15.17 8.27
5/25/2021 9:00:00 PM 17.66 63.788 0.185 7.05 13.83 8.23
5/25/2021 9:15:00 PM 17.61 63.698 0.185 7.06 14 8.2
5/25/2021 9:30:00 PM 17.54 63.572 0.185 7.04 13.89 8.17
5/25/2021 9:45:00 PM 17.48 63.464 0.186 7.05 14 8.15
5/25/2021 10:00:00 PM 17.42 63.356 0.186 7.04 13.5 8.13
5/25/2021 10:15:00 PM 17.37 63.266 0.187 7.03 13.63 8.11
5/25/2021 10:30:00 PM 17.33 63.194 0.187 7.04 13.72 8.11
5/25/2021 10:45:00 PM 17.29 63.122 0.188 7.02 12.96 8.1
5/25/2021 11:00:00 PM 17.25 63.05 0.188 7.04 12.96 8.09
5/25/2021 11:15:00 PM 17.22 62.996 0.188 7.02 12.69 8.09
5/25/2021 11:30:00 PM 17.19 62.942 0.189 7.04 12.44 8.08
5/25/2021 11:45:00 PM 17.16 62.888 0.189 7.02 12.83 8.07
5/26/2021 12:00:00 AM 17.14 62.852 0.19 7.03 12.55 8.07
5/26/2021 12:15:00 AM 17.11 62.798 0.19 7.03 12.37 8.07
5/26/2021 12:30:00 AM 17.09 62.762 0.191 7.04 12.33 8.06
5/26/2021 12:45:00 AM 17.07 62.726 0.191 7.02 11.69 8.05
5/26/2021 1:00:00 AM 17.05 62.69 0.191 7.04 11.44 8.05
5/26/2021 1:15:00 AM 17.03 62.654 0.192 7.03 12.44 8.04
5/26/2021 1:30:00 AM 17.01 62.618 0.192 7.04 11.99 8.04
5/26/2021 1:45:00 AM 16.99 62.582 0.193 7.03 11.05 8.04
5/26/2021 2:00:00 AM 16.97 62.546 0.193 7.04 11 8.03
5/26/2021 2:15:00 AM 16.94 62.492 0.194 7.02 13.2 8.03
5/26/2021 2:30:00 AM 16.92 62.456 0.194 7.04 10.84 8.03
5/26/2021 2:45:00 AM 16.9 62.42 0.195 7.03 11.17 8.03
5/26/2021 3:00:00 AM 16.88 62.384 0.195 7.05 10.83 8.03
5/26/2021 3:15:00 AM 16.86 62.348 0.195 7.05 11.51 8.02
5/26/2021 3:30:00 AM 16.84 62.312 0.196 7.04 10.89 8.02
5/26/2021 3:45:00 AM 16.81 62.258 0.196 7.02 10.82 8.03
5/26/2021 4:00:00 AM 16.78 62.204 0.197 7.04 10.8 8.03
5/26/2021 4:15:00 AM 16.75 62.15 0.197 7.03 10.42 8.03
5/26/2021 4:30:00 AM 16.72 62.096 0.198 7.05 10.18 8.02
5/26/2021 4:45:00 AM 16.69 62.042 0.198 7.03 10.1 8.03
5/26/2021 5:00:00 AM 16.66 61.988 0.198 7.04 10.05 8.03
5/26/2021 5:15:00 AM 16.62 61.916 0.199 7.04 10.52 8.04
5/26/2021 5:30:00 AM 16.58 61.844 0.199 7.03 9.87 8.04
5/26/2021 5:45:00 AM 16.55 61.79 0.2 7.04 9.39 8.05
5/26/2021 6:00:00 AM 16.52 61.736 0.2 7.03 9.37 8.06
5/26/2021 6:15:00 AM 16.49 61.682 0.201 7.04 9.09 8.08
5/26/2021 6:30:00 AM 16.48 61.664 0.201 7.05 9.41 8.11
5/26/2021 6:45:00 AM 16.49 61.682 0.201 7.06 10.22 8.16
5/26/2021 7:00:00 AM 16.49 61.682 0.202 7.06 8.96 8.2
5/26/2021 7:15:00 AM 16.5 61.7 0.202 7.08 8.92 8.25
5/26/2021 7:30:00 AM 16.53 61.754 0.202 7.08 8.69 8.31
5/26/2021 7:45:00 AM 16.56 61.808 0.203 7.09 8.67 8.38
5/26/2021 8:00:00 AM 16.6 61.88 0.203 7.1 8.56 8.43
5/26/2021 8:15:00 AM 16.63 61.934 0.203 7.11 8.57 8.49
5/26/2021 8:30:00 AM 16.73 62.114 0.204 7.12 8.37 8.57
5/26/2021 8:45:00 AM 16.89 62.402 0.204 7.15 7.87 8.67
5/26/2021 9:00:00 AM 17.04 62.672 0.204 7.15 7.81 8.76
5/26/2021 9:15:00 AM 17.21 62.978 0.204 7.17 8.21 8.82
5/26/2021 9:30:00 AM 17.39 63.302 0.205 7.19 7.87 8.88
5/26/2021 9:45:00 AM 17.58 63.644 0.204 7.19 7.86 8.93
5/26/2021 10:00:00 AM 17.78 64.004 0.205 7.2 7.83 8.98
5/26/2021 10:15:00 AM 18 64.4 0.205 7.22 7.48 9.02
5/26/2021 10:30:00 AM 18.26 64.868 0.205 7.23 7.39 9.06
5/26/2021 10:45:00 AM 18.41 65.138 0.206 7.23 7.3 9.07
5/26/2021 11:00:00 AM 18.7 65.66 0.206 7.25 7.32 9.12
5/26/2021 11:15:00 AM 18.96 66.128 0.206 7.26 7.54 9.15
5/26/2021 11:30:00 AM 19.15 66.47 0.206 7.26 7.21 9.18
5/26/2021 11:45:00 AM 19.41 66.938 0.207 7.28 7.21 9.2
5/26/2021 12:00:00 PM 19.46 67.028 0.207 7.26 6.94 9.17
5/26/2021 12:15:00 PM 19.72 67.496 0.207 7.28 7.13 9.19
5/26/2021 12:30:00 PM 19.77 67.586 0.207 7.28 6.69 9.16
5/26/2021 12:45:00 PM 19.87 67.766 0.208 7.28 6.89 9.16
5/26/2021 1:00:00 PM 19.77 67.586 0.208 7.26 6.73 9.1
5/26/2021 1:15:00 PM 19.56 67.208 0.207 7.25 7.49 8.87
5/26/2021 1:30:00 PM 19.54 67.172 0.211 7.22 18.92 8.67
5/26/2021 1:45:00 PM 19.32 66.776 0.208 7.23 12.88 8.55
5/26/2021 2:00:00 PM 19.03 66.254 0.213 7.2 9.84 8.64
5/26/2021 2:15:00 PM 19.24 66.632 0.216 7.22 12.3 8.76
5/26/2021 2:30:00 PM 19.5 67.1 0.212 7.26 11.69 8.83
5/26/2021 2:45:00 PM 19.76 67.568 0.209 7.28 10.34 8.89
5/26/2021 3:00:00 PM 20 68 0.208 7.28 8.95 8.95
5/26/2021 3:15:00 PM 20.09 68.162 0.208 7.28 8.23 9
5/26/2021 3:30:00 PM 20.31 68.558 0.209 7.28 7.69 9.04
5/26/2021 3:45:00 PM 20.45 68.81 0.209 7.29 7.2 9.06
5/26/2021 4:00:00 PM 20.3 68.54 0.21 7.25 7.08 8.94
5/26/2021 4:15:00 PM 20.33 68.594 0.206 7.27 24.61 8.77
5/26/2021 4:30:00 PM 21.14 70.052 0.202 7.48 53.02 8.52
5/26/2021 4:45:00 PM 20.54 68.972 0.218 7.4 22.88 8.67
5/26/2021 5:00:00 PM 20.67 69.206 0.22 7.43 43.18 8.43
5/26/2021 5:15:00 PM 20.75 69.35 0.214 7.42 34.48 8.37
5/26/2021 5:30:00 PM 20.76 69.368 0.21 7.37 27.35 8.44
5/26/2021 5:45:00 PM 20.7 69.26 0.21 7.34 21.66 8.51
5/26/2021 6:00:00 PM 20.49 68.882 0.21 7.3 19.17 8.47
5/26/2021 6:15:00 PM 20.3 68.54 0.21 7.26 16.72 8.42
5/26/2021 6:30:00 PM 20.07 68.126 0.212 7.23 14.2 8.33
5/26/2021 6:45:00 PM 19.81 67.658 0.208 7.23 20.46 8.27
5/26/2021 7:00:00 PM 20.36 68.648 0.177 7.47 91.32 8.1
5/26/2021 7:15:00 PM 19.66 67.388 0.208 7.33 38.57 8.07
5/26/2021 7:30:00 PM 19.6 67.28 0.207 7.33 51.04 8.01
5/26/2021 7:45:00 PM 19.58 67.244 0.201 7.32 65.86 7.93
5/26/2021 8:00:00 PM 19.49 67.082 0.2 7.28 57.82 7.91
5/26/2021 8:15:00 PM 19.4 66.92 0.199 7.26 45.46 7.89
5/26/2021 8:30:00 PM 19.33 66.794 0.201 7.22 39.57 7.86
5/26/2021 8:45:00 PM 19.23 66.614 0.204 7.21 31.13 7.85
5/26/2021 9:00:00 PM 19.11 66.398 0.207 7.17 22.46 7.83
5/26/2021 9:15:00 PM 18.99 66.182 0.21 7.16 17.88 7.82
5/26/2021 9:30:00 PM 18.86 65.948 0.213 7.16 15.63 7.81
5/26/2021 9:45:00 PM 18.76 65.768 0.214 7.16 15.54 7.81
5/26/2021 10:00:00 PM 18.64 65.552 0.215 7.16 16.08 7.83
5/26/2021 10:15:00 PM 18.57 65.426 0.215 7.17 16.57 7.82
5/26/2021 10:30:00 PM 18.48 65.264 0.215 7.17 16.86 7.82
5/26/2021 10:45:00 PM 18.4 65.12 0.216 7.17 15.58 7.83
5/26/2021 11:00:00 PM 18.37 65.066 0.215 7.16 13.3 7.83
5/26/2021 11:15:00 PM 18.33 64.994 0.214 7.17 12.35 7.82
5/26/2021 11:30:00 PM 18.32 64.976 0.213 7.18 12 7.81
5/26/2021 11:45:00 PM 18.25 64.85 0.213 7.18 11.92 7.82
5/27/2021 12:00:00 AM 18.12 64.616 0.217 7.18 13.22 7.85
5/27/2021 12:15:00 AM 18.07 64.526 0.216 7.18 14.41 7.86
5/27/2021 12:30:00 AM 18.06 64.508 0.214 7.19 14.76 7.85
5/27/2021 12:45:00 AM 18.07 64.526 0.212 7.2 13.86 7.84
5/27/2021 1:00:00 AM 18.08 64.544 0.21 7.19 12.42 7.83
5/27/2021 1:15:00 AM 18.1 64.58 0.209 7.2 12.24 7.83
5/27/2021 1:30:00 AM 18.13 64.634 0.208 7.19 11.74 7.82
5/27/2021 1:45:00 AM 18.14 64.652 0.207 7.2 11.48 7.81
5/27/2021 2:00:00 AM 18.16 64.688 0.206 7.2 11.02 7.82
5/27/2021 2:15:00 AM 18.18 64.724 0.206 7.21 11.38 7.82
5/27/2021 2:30:00 AM 18.2 64.76 0.205 7.2 11.74 7.81
5/27/2021 2:45:00 AM 18.21 64.778 0.204 7.21 12.35 7.81
5/27/2021 3:00:00 AM 18.23 64.814 0.203 7.21 12.57 7.8
5/27/2021 3:15:00 AM 18.24 64.832 0.202 7.2 13.1 7.79
5/27/2021 3:30:00 AM 18.24 64.832 0.201 7.21 13.4 7.79
5/27/2021 3:45:00 AM 18.23 64.814 0.2 7.21 12.97 7.78
5/27/2021 4:00:00 AM 18.21 64.778 0.199 7.21 13.17 7.77
5/27/2021 4:15:00 AM 18.19 64.742 0.198 7.21 14.3 7.76
5/27/2021 4:30:00 AM 18.16 64.688 0.197 7.2 14.43 7.76
5/27/2021 4:45:00 AM 18.14 64.652 0.196 7.21 14.42 7.75
5/27/2021 5:00:00 AM 18.11 64.598 0.196 7.2 14.45 7.76
5/27/2021 5:15:00 AM 18.08 64.544 0.195 7.21 15.66 7.77
5/27/2021 5:30:00 AM 18.04 64.472 0.195 7.2 14.87 7.78
5/27/2021 5:45:00 AM 18 64.4 0.194 7.19 15.48 7.78
5/27/2021 6:00:00 AM 17.95 64.31 0.193 7.19 15.99 7.79
5/27/2021 6:15:00 AM 17.9 64.22 0.193 7.2 16.19 7.8
5/27/2021 6:30:00 AM 17.86 64.148 0.192 7.2 17.13 7.83
5/27/2021 6:45:00 AM 17.81 64.058 0.192 7.21 15.86 7.86
5/27/2021 7:00:00 AM 17.77 63.986 0.191 7.2 16.17 7.88
5/27/2021 7:15:00 AM 17.74 63.932 0.19 7.22 16.06 7.92
5/27/2021 7:30:00 AM 17.72 63.896 0.19 7.22 16.45 7.95
5/27/2021 7:45:00 AM 17.72 63.896 0.19 7.23 16.62 7.99
5/27/2021 8:00:00 AM 17.72 63.896 0.19 7.24 17.2 8.04
5/27/2021 8:15:00 AM 17.75 63.95 0.189 7.24 17.17 8.08
5/27/2021 8:30:00 AM 17.79 64.022 0.189 7.26 16.86 8.12
5/27/2021 8:45:00 AM 17.83 64.094 0.189 7.27 16.75 8.16
5/27/2021 9:00:00 AM 17.88 64.184 0.189 7.27 16.86 8.2
5/27/2021 9:15:00 AM 17.94 64.292 0.188 7.28 16.99 8.24
5/27/2021 9:30:00 AM 18.01 64.418 0.188 7.28 17.57 8.28
5/27/2021 9:45:00 AM 18.1 64.58 0.187 7.3 16.91 8.31
5/27/2021 10:00:00 AM 18.19 64.742 0.186 7.29 17.02 8.34
5/27/2021 10:15:00 AM 18.28 64.904 0.186 7.31 16.35 8.38
5/27/2021 10:30:00 AM 18.38 65.084 0.186 7.3 15.95 8.41
5/27/2021 10:45:00 AM 18.47 65.246 0.185 7.31 15.99 8.45
5/27/2021 11:00:00 AM 18.56 65.408 0.185 7.31 15.79 8.47
5/27/2021 11:15:00 AM 18.66 65.588 0.185 7.33 16.29 8.49
5/27/2021 11:30:00 AM 18.76 65.768 0.185 7.33 16.25 8.53
5/27/2021 11:45:00 AM 18.84 65.912 0.186 7.34 17.43 8.55
5/27/2021 12:00:00 PM 18.9 66.02 0.186 7.32 17.18 8.56
5/27/2021 12:15:00 PM 19.07 66.326 0.186 7.36 16.85 8.61
5/27/2021 12:30:00 PM 19.21 66.578 0.186 7.36 16.36 8.64
5/27/2021 12:45:00 PM 19.32 66.776 0.187 7.37 16.46 8.68
5/27/2021 1:00:00 PM 19.45 67.01 0.187 7.36 15.37 8.7
5/27/2021 1:15:00 PM 19.56 67.208 0.187 7.38 15.68 8.72
5/27/2021 1:30:00 PM 19.68 67.424 0.187 7.39 15.45 8.75
5/27/2021 1:45:00 PM 19.8 67.64 0.188 7.39 15.49 8.76
5/27/2021 2:00:00 PM 19.94 67.892 0.187 7.4 15.49 8.78
5/27/2021 2:15:00 PM 20.01 68.018 0.188 7.4 15.34 8.78
5/27/2021 2:30:00 PM 20.11 68.198 0.188 7.4 16.07 8.79
5/27/2021 2:45:00 PM 20.14 68.252 0.188 7.4 14.66 8.79
5/27/2021 3:00:00 PM 20.18 68.324 0.189 7.4 14.1 8.81
5/27/2021 3:15:00 PM 20.25 68.45 0.189 7.41 14.08 8.82
5/27/2021 3:30:00 PM 20.29 68.522 0.19 7.41 13.79 8.82
5/27/2021 3:45:00 PM 20.31 68.558 0.19 7.39 14.46 8.8
5/27/2021 4:00:00 PM 20.28 68.504 0.19 7.39 14.63 8.76
5/27/2021 4:15:00 PM 20.3 68.54 0.191 7.38 13.95 8.77
5/27/2021 4:30:00 PM 20.28 68.504 0.191 7.38 14.75 8.77
5/27/2021 4:45:00 PM 20.25 68.45 0.192 7.38 13.78 8.75
5/27/2021 5:00:00 PM 20.21 68.378 0.192 7.37 13.38 8.72
5/27/2021 5:15:00 PM 20.18 68.324 0.192 7.36 13.35 8.69
5/27/2021 5:30:00 PM 20.1 68.18 0.193 7.36 13.39 8.66
5/27/2021 5:45:00 PM 20.01 68.018 0.193 7.34 14.34 8.64
5/27/2021 6:00:00 PM 19.91 67.838 0.193 7.34 14.25 8.61
5/27/2021 6:15:00 PM 19.77 67.586 0.193 7.31 13.6 8.55
5/27/2021 6:30:00 PM 19.6 67.28 0.194 7.3 14.05 8.49
5/27/2021 6:45:00 PM 19.42 66.956 0.194 7.27 14.21 8.43
5/27/2021 7:00:00 PM 19.26 66.668 0.194 7.27 15.04 8.36
5/27/2021 7:15:00 PM 19.1 66.38 0.194 7.25 15.05 8.3
5/27/2021 7:30:00 PM 18.94 66.092 0.195 7.24 15.82 8.25
5/27/2021 7:45:00 PM 18.81 65.858 0.195 7.22 15.18 8.19
5/27/2021 8:00:00 PM 18.69 65.642 0.195 7.21 15.54 8.13
5/27/2021 8:15:00 PM 18.57 65.426 0.196 7.2 15.58 8.08
5/27/2021 8:30:00 PM 18.46 65.228 0.196 7.19 15.44 8.05
5/27/2021 8:45:00 PM 18.36 65.048 0.196 7.19 16.01 8.02
5/27/2021 9:00:00 PM 18.28 64.904 0.196 7.19 16.14 7.99
5/27/2021 9:15:00 PM 18.19 64.742 0.197 7.2 16.67 7.97
5/27/2021 9:30:00 PM 18.12 64.616 0.197 7.19 16.06 7.96
5/27/2021 9:45:00 PM 18.05 64.49 0.197 7.19 16.3 7.95
5/27/2021 10:00:00 PM 17.98 64.364 0.197 7.18 15.91 7.94
5/27/2021 10:15:00 PM 17.91 64.238 0.197 7.18 16.21 7.93
5/27/2021 10:30:00 PM 17.85 64.13 0.197 7.18 15.99 7.92
5/27/2021 10:45:00 PM 17.8 64.04 0.197 7.18 16.2 7.92
5/27/2021 11:00:00 PM 17.75 63.95 0.198 7.18 15.11 7.92
5/27/2021 11:15:00 PM 17.7 63.86 0.198 7.18 15.4 7.92
5/27/2021 11:30:00 PM 17.66 63.788 0.198 7.19 14.86 7.92
5/27/2021 11:45:00 PM 17.62 63.716 0.198 7.18 15.13 7.91
5/28/2021 12:00:00 AM 17.58 63.644 0.199 7.19 14.88 7.92
5/28/2021 12:15:00 AM 17.53 63.554 0.199 7.17 14.59 7.92
5/28/2021 12:30:00 AM 17.47 63.446 0.199 7.18 14.51 7.92
5/28/2021 12:45:00 AM 17.41 63.338 0.199 7.18 14.72 7.92
5/28/2021 1:00:00 AM 17.34 63.212 0.2 7.18 14.1 7.91
5/28/2021 1:15:00 AM 17.29 63.122 0.2 7.19 13.76 7.93
5/28/2021 1:30:00 AM 17.21 62.978 0.201 7.19 13.52 7.93
5/28/2021 1:45:00 AM 17.14 62.852 0.201 7.19 13.73 7.94
5/28/2021 2:00:00 AM 17.07 62.726 0.201 7.17 14.32 7.94
5/28/2021 2:15:00 AM 17 62.6 0.202 7.18 13.31 7.94
5/28/2021 2:30:00 AM 16.93 62.474 0.202 7.16 13.34 7.95
5/28/2021 2:45:00 AM 16.86 62.348 0.202 7.18 13.03 7.96
5/28/2021 3:00:00 AM 16.79 62.222 0.202 7.16 13.34 7.96
5/28/2021 3:15:00 AM 16.71 62.078 0.203 7.17 12.91 7.97
5/28/2021 3:30:00 AM 16.64 61.952 0.203 7.16 13.27 7.98
5/28/2021 3:45:00 AM 16.57 61.826 0.203 7.17 12.84 7.99
5/28/2021 4:00:00 AM 16.49 61.682 0.203 7.16 12.51 7.99
5/28/2021 4:15:00 AM 16.42 61.556 0.203 7.16 12.35 8.01
5/28/2021 4:30:00 AM 16.35 61.43 0.203 7.17 12.82 8.01
5/28/2021 4:45:00 AM 16.28 61.304 0.204 7.15 12.43 8.02
5/28/2021 5:00:00 AM 16.21 61.178 0.204 7.16 13.17 8.03
5/28/2021 5:15:00 AM 16.13 61.034 0.204 7.15 12.41 8.05
5/28/2021 5:30:00 AM 16.05 60.89 0.205 7.16 12.48 8.06
5/28/2021 5:45:00 AM 15.99 60.782 0.205 7.16 12.74 8.07
5/28/2021 6:00:00 AM 15.92 60.656 0.205 7.16 12.12 8.09
5/28/2021 6:15:00 AM 15.87 60.566 0.205 7.16 11.71 8.11
5/28/2021 6:30:00 AM 15.85 60.53 0.205 7.16 11.94 8.15
5/28/2021 6:45:00 AM 15.82 60.476 0.206 7.17 11.31 8.19
5/28/2021 7:00:00 AM 15.8 60.44 0.206 7.18 11.16 8.22
5/28/2021 7:15:00 AM 15.79 60.422 0.206 7.17 11.55 8.26
5/28/2021 7:30:00 AM 15.79 60.422 0.206 7.19 11.09 8.32
5/28/2021 7:45:00 AM 15.79 60.422 0.206 7.19 10.95 8.39
5/28/2021 8:00:00 AM 15.8 60.44 0.206 7.2 10.43 8.45
5/28/2021 8:15:00 AM 15.8 60.44 0.206 7.2 10.8 8.49
5/28/2021 8:30:00 AM 15.81 60.458 0.206 7.21 10.68 8.54
5/28/2021 8:45:00 AM 15.83 60.494 0.206 7.22 10.62 8.59
5/28/2021 9:00:00 AM 15.89 60.602 0.206 7.22 10.79 8.68
5/28/2021 9:15:00 AM 16.03 60.854 0.207 7.24 10.36 8.79
5/28/2021 9:30:00 AM 16.13 61.034 0.207 7.24 10.19 8.88
5/28/2021 9:45:00 AM 16.13 61.034 0.207 7.25 10.27 8.89
5/28/2021 10:00:00 AM 16.15 61.07 0.207 7.24 10.15 8.9